<?xml version="1.0" encoding="UTF-8" standalone="no" ?><gpx xmlns="http://www.topografix.com/GPX/1/1" xmlns:gpxx="http://www.garmin.com/xmlschemas/GpxExtensions/v3" xmlns:wptx1="http://www.garmin.com/xmlschemas/WaypointExtension/v1" xmlns:gpxtpx="http://www.garmin.com/xmlschemas/TrackPointExtension/v1" creator="Astro 320" version="1.1" xmlns:xsi="http://www.w3.org/2001/XMLSchema-instance" xsi:schemaLocation="http://www.topografix.com/GPX/1/1 http://www.topografix.com/GPX/1/1/gpx.xsd http://www.garmin.com/xmlschemas/GpxExtensions/v3 http://www8.garmin.com/xmlschemas/GpxExtensionsv3.xsd http://www.garmin.com/xmlschemas/WaypointExtension/v1 http://www8.garmin.com/xmlschemas/WaypointExtensionv1.xsd http://www.garmin.com/xmlschemas/TrackPointExtension/v1 http://www.garmin.com/xmlschemas/TrackPointExtensionv1.xsd"><metadata><link href="http://www.garmin.com"><text>Garmin International</text></link><time>2026-08-20T14:32:09Z</time></metadata><trk><name>ЧУ ТЕО8-20 17:31:17</name><extensions><gpxx:TrackExtension><gpxx:DisplayColor>Yellow</gpxx:DisplayColor></gpxx:TrackExtension></extensions><trkseg><trkpt lat="60.1155780070" lon="31.3798290398"><ele>145.78</ele><time>2026-08-19T21:26:29Z</time></trkpt><trkpt lat="60.1157215051" lon="31.3751837052"><ele>145.78</ele><time>2026-08-19T21:26:38Z</time></trkpt><trkpt lat="60.1165731903" lon="31.3697480410"><ele>145.78</ele><time>2026-08-19T21:26:46Z</time></trkpt><trkpt lat="60.1202810928" lon="31.3628916442"><ele>145.78</ele><time>2026-08-19T21:27:03Z</time></trkpt></trkseg><trkseg><trkpt lat="59.1128793452" lon="30.4819907527"><ele>116.94</ele><time>2026-08-20T07:12:33Z</time></trkpt><trkpt lat="59.1129148006" lon="30.4819930159"><ele>112.61</ele><time>2026-08-20T07:12:40Z</time></trkpt><trkpt lat="59.1129179858" lon="30.4819920938"><ele>109.25</ele><time>2026-08-20T07:12:42Z</time></trkpt><trkpt lat="59.1129040718" lon="30.4819996376"><ele>105.88</ele><time>2026-08-20T07:12:44Z</time></trkpt><trkpt lat="59.1128863022" lon="30.4820112884"><ele>102.52</ele><time>2026-08-20T07:12:46Z</time></trkpt><trkpt lat="59.1128712147" lon="30.4820226878"><ele>99.63</ele><time>2026-08-20T07:12:48Z</time></trkpt><trkpt lat="59.1128437221" lon="30.4820516892"><ele>95.79</ele><time>2026-08-20T07:12:51Z</time></trkpt><trkpt lat="59.1128347535" lon="30.4820654355"><ele>92.42</ele><time>2026-08-20T07:12:54Z</time></trkpt><trkpt lat="59.1128304787" lon="30.4820744041"><ele>89.06</ele><time>2026-08-20T07:12:57Z</time></trkpt><trkpt lat="59.1128474101" lon="30.4820946045"><ele>85.69</ele><time>2026-08-20T07:13:01Z</time></trkpt><trkpt lat="59.1128663532" lon="30.4821152240"><ele>82.33</ele><time>2026-08-20T07:13:05Z</time></trkpt><trkpt lat="59.1129072569" lon="30.4820997175"><ele>78.97</ele><time>2026-08-20T07:13:10Z</time></trkpt><trkpt lat="59.1129137948" lon="30.4820988793"><ele>76.08</ele><time>2026-08-20T07:13:16Z</time></trkpt><trkpt lat="59.1129363421" lon="30.4820719734"><ele>72.72</ele><time>2026-08-20T07:13:25Z</time></trkpt><trkpt lat="59.1129501723" lon="30.4820404574"><ele>69.83</ele><time>2026-08-20T07:13:37Z</time></trkpt><trkpt lat="59.1129225120" lon="30.4820431396"><ele>66.95</ele><time>2026-08-20T07:14:02Z</time></trkpt><trkpt lat="59.1129133757" lon="30.4820064269"><ele>63.58</ele><time>2026-08-20T07:14:31Z</time></trkpt><trkpt lat="59.1129525192" lon="30.4820278846"><ele>64.55</ele><time>2026-08-20T07:15:02Z</time></trkpt><trkpt lat="59.1129588056" lon="30.4820153955"><ele>64.55</ele><time>2026-08-20T07:15:31Z</time></trkpt><trkpt lat="59.1129528545" lon="30.4819785990"><ele>64.55</ele><time>2026-08-20T07:15:41Z</time></trkpt><trkpt lat="59.1129424609" lon="30.4819820356"><ele>64.55</ele><time>2026-08-20T07:16:08Z</time></trkpt><trkpt lat="59.1129392758" lon="30.4819757491"><ele>64.55</ele><time>2026-08-20T07:16:19Z</time></trkpt><trkpt lat="59.1129361745" lon="30.4819962010"><ele>64.55</ele><time>2026-08-20T07:16:30Z</time></trkpt><trkpt lat="59.1129235178" lon="30.4820348416"><ele>64.07</ele><time>2026-08-20T07:16:44Z</time></trkpt><trkpt lat="59.1129046585" lon="30.4820607416"><ele>64.07</ele><time>2026-08-20T07:16:56Z</time></trkpt><trkpt lat="59.1129236016" lon="30.4820581432"><ele>64.07</ele><time>2026-08-20T07:17:08Z</time></trkpt><trkpt lat="59.1129254457" lon="30.4820774216"><ele>64.07</ele><time>2026-08-20T07:17:20Z</time></trkpt><trkpt lat="59.1128893197" lon="30.4820426367"><ele>64.07</ele><time>2026-08-20T07:17:36Z</time></trkpt><trkpt lat="59.1128738970" lon="30.4820414633"><ele>64.07</ele><time>2026-08-20T07:17:48Z</time></trkpt><trkpt lat="59.1128707118" lon="30.4820352606"><ele>64.07</ele><time>2026-08-20T07:17:54Z</time></trkpt><trkpt lat="59.1129039880" lon="30.4820090253"><ele>64.07</ele><time>2026-08-20T07:18:05Z</time></trkpt><trkpt lat="59.1129199136" lon="30.4820965324"><ele>64.07</ele><time>2026-08-20T07:18:14Z</time></trkpt><trkpt lat="59.1129043233" lon="30.4821210075"><ele>64.07</ele><time>2026-08-20T07:18:40Z</time></trkpt><trkpt lat="59.1128842067" lon="30.4821376875"><ele>64.07</ele><time>2026-08-20T07:19:01Z</time></trkpt><trkpt lat="59.1129630804" lon="30.4820297286"><ele>66.95</ele><time>2026-08-20T07:19:13Z</time></trkpt><trkpt lat="59.1129666846" lon="30.4820257891"><ele>66.95</ele><time>2026-08-20T07:19:14Z</time></trkpt><trkpt lat="59.1129210033" lon="30.4820423014"><ele>64.07</ele><time>2026-08-20T07:19:21Z</time></trkpt><trkpt lat="59.1129294690" lon="30.4821133800"><ele>64.07</ele><time>2026-08-20T07:19:52Z</time></trkpt><trkpt lat="59.1129007190" lon="30.4821383581"><ele>64.07</ele><time>2026-08-20T07:20:15Z</time></trkpt><trkpt lat="59.1128956061" lon="30.4821647611"><ele>64.07</ele><time>2026-08-20T07:20:33Z</time></trkpt><trkpt lat="59.1128811892" lon="30.4822106939"><ele>64.07</ele><time>2026-08-20T07:20:55Z</time></trkpt><trkpt lat="59.1129282117" lon="30.4822092690"><ele>64.07</ele><time>2026-08-20T07:21:22Z</time></trkpt><trkpt lat="59.1129186563" lon="30.4821789265"><ele>64.07</ele><time>2026-08-20T07:21:47Z</time></trkpt><trkpt lat="59.1129197460" lon="30.4821650125"><ele>64.07</ele><time>2026-08-20T07:22:18Z</time></trkpt><trkpt lat="59.1128995456" lon="30.4821666889"><ele>64.07</ele><time>2026-08-20T07:22:36Z</time></trkpt><trkpt lat="59.1128942650" lon="30.4821556248"><ele>64.07</ele><time>2026-08-20T07:23:02Z</time></trkpt><trkpt lat="59.1128974501" lon="30.4821286350"><ele>64.07</ele><time>2026-08-20T07:23:19Z</time></trkpt><trkpt lat="59.1128997970" lon="30.4821075965"><ele>64.07</ele><time>2026-08-20T07:23:39Z</time></trkpt><trkpt lat="59.1129029822" lon="30.4820619151"><ele>65.03</ele><time>2026-08-20T07:23:58Z</time></trkpt><trkpt lat="59.1128847096" lon="30.4820555449"><ele>65.03</ele><time>2026-08-20T07:24:11Z</time></trkpt><trkpt lat="59.1128842905" lon="30.4820351768"><ele>65.03</ele><time>2026-08-20T07:24:29Z</time></trkpt><trkpt lat="59.1128816083" lon="30.4819850530"><ele>64.55</ele><time>2026-08-20T07:24:41Z</time></trkpt><trkpt lat="59.1128936782" lon="30.4819446523"><ele>64.55</ele><time>2026-08-20T07:24:53Z</time></trkpt><trkpt lat="59.1128703766" lon="30.4819745757"><ele>64.55</ele><time>2026-08-20T07:25:04Z</time></trkpt><trkpt lat="59.1128883138" lon="30.4820607416"><ele>64.55</ele><time>2026-08-20T07:25:21Z</time></trkpt><trkpt lat="59.1129240207" lon="30.4820635077"><ele>64.55</ele><time>2026-08-20T07:25:26Z</time></trkpt><trkpt lat="59.1129262000" lon="30.4820464924"><ele>64.55</ele><time>2026-08-20T07:25:37Z</time></trkpt><trkpt lat="59.1128780879" lon="30.4820667766"><ele>64.07</ele><time>2026-08-20T07:26:08Z</time></trkpt><trkpt lat="59.1128654312" lon="30.4820549581"><ele>64.07</ele><time>2026-08-20T07:26:36Z</time></trkpt><trkpt lat="59.1128609050" lon="30.4820665251"><ele>64.07</ele><time>2026-08-20T07:27:01Z</time></trkpt><trkpt lat="59.1128590610" lon="30.4820735659"><ele>64.07</ele><time>2026-08-20T07:27:30Z</time></trkpt><trkpt lat="59.1128926724" lon="30.4820267949"><ele>64.07</ele><time>2026-08-20T07:27:43Z</time></trkpt><trkpt lat="59.1128434706" lon="30.4819964524"><ele>64.07</ele><time>2026-08-20T07:27:54Z</time></trkpt><trkpt lat="59.1128683649" lon="30.4820272140"><ele>64.07</ele><time>2026-08-20T07:27:56Z</time></trkpt><trkpt lat="59.1129080113" lon="30.4820925090"><ele>64.07</ele><time>2026-08-20T07:27:59Z</time></trkpt><trkpt lat="59.1129334923" lon="30.4821982048"><ele>64.07</ele><time>2026-08-20T07:28:04Z</time></trkpt><trkpt lat="59.1129151359" lon="30.4823168088"><ele>64.07</ele><time>2026-08-20T07:28:11Z</time></trkpt><trkpt lat="59.1129115317" lon="30.4824456386"><ele>64.07</ele><time>2026-08-20T07:28:17Z</time></trkpt><trkpt lat="59.1129234340" lon="30.4824816808"><ele>64.07</ele><time>2026-08-20T07:28:19Z</time></trkpt><trkpt lat="59.1129334923" lon="30.4825520050"><ele>64.07</ele><time>2026-08-20T07:28:26Z</time></trkpt><trkpt lat="59.1129627451" lon="30.4825939145"><ele>64.07</ele><time>2026-08-20T07:28:31Z</time></trkpt><trkpt lat="59.1130544432" lon="30.4827823397"><ele>64.07</ele><time>2026-08-20T07:28:43Z</time></trkpt><trkpt lat="59.1131049860" lon="30.4828788992"><ele>64.07</ele><time>2026-08-20T07:28:51Z</time></trkpt><trkpt lat="59.1131097637" lon="30.4829200543"><ele>64.07</ele><time>2026-08-20T07:28:53Z</time></trkpt><trkpt lat="59.1131683532" lon="30.4830773827"><ele>64.07</ele><time>2026-08-20T07:29:06Z</time></trkpt><trkpt lat="59.1131723765" lon="30.4830710124"><ele>64.07</ele><time>2026-08-20T07:29:12Z</time></trkpt><trkpt lat="59.1131412797" lon="30.4831943102"><ele>64.07</ele><time>2026-08-20T07:29:23Z</time></trkpt><trkpt lat="59.1131463088" lon="30.4832977429"><ele>64.07</ele><time>2026-08-20T07:29:33Z</time></trkpt><trkpt lat="59.1131561995" lon="30.4834655486"><ele>64.07</ele><time>2026-08-20T07:29:44Z</time></trkpt><trkpt lat="59.1131850332" lon="30.4836325161"><ele>64.55</ele><time>2026-08-20T07:29:56Z</time></trkpt><trkpt lat="59.1131553613" lon="30.4837632738"><ele>64.55</ele><time>2026-08-20T07:30:09Z</time></trkpt><trkpt lat="59.1132613923" lon="30.4839910939"><ele>64.55</ele><time>2026-08-20T07:30:21Z</time></trkpt><trkpt lat="59.1132615600" lon="30.4840374459"><ele>64.55</ele><time>2026-08-20T07:30:45Z</time></trkpt><trkpt lat="59.1132519208" lon="30.4840360209"><ele>65.03</ele><time>2026-08-20T07:30:57Z</time></trkpt><trkpt lat="59.1132521722" lon="30.4841106199"><ele>65.03</ele><time>2026-08-20T07:31:16Z</time></trkpt><trkpt lat="59.1133053135" lon="30.4840884916"><ele>65.03</ele><time>2026-08-20T07:31:28Z</time></trkpt><trkpt lat="59.1133101750" lon="30.4840731528"><ele>65.03</ele><time>2026-08-20T07:31:29Z</time></trkpt><trkpt lat="59.1133003682" lon="30.4839713126"><ele>65.03</ele><time>2026-08-20T07:31:38Z</time></trkpt><trkpt lat="59.1133295372" lon="30.4836540576"><ele>65.03</ele><time>2026-08-20T07:31:51Z</time></trkpt><trkpt lat="59.1133235022" lon="30.4834572505"><ele>65.03</ele><time>2026-08-20T07:32:03Z</time></trkpt><trkpt lat="59.1132801678" lon="30.4833476990"><ele>65.03</ele><time>2026-08-20T07:32:14Z</time></trkpt><trkpt lat="59.1132509988" lon="30.4832942225"><ele>65.03</ele><time>2026-08-20T07:32:32Z</time></trkpt><trkpt lat="59.1132348217" lon="30.4832045361"><ele>65.03</ele><time>2026-08-20T07:32:42Z</time></trkpt><trkpt lat="59.1132337321" lon="30.4831472039"><ele>65.03</ele><time>2026-08-20T07:32:46Z</time></trkpt><trkpt lat="59.1132284515" lon="30.4831166100"><ele>65.03</ele><time>2026-08-20T07:32:48Z</time></trkpt><trkpt lat="59.1132006235" lon="30.4828577768"><ele>65.03</ele><time>2026-08-20T07:33:01Z</time></trkpt><trkpt lat="59.1131423693" lon="30.4825681821"><ele>65.03</ele><time>2026-08-20T07:33:15Z</time></trkpt><trkpt lat="59.1130540241" lon="30.4824898113"><ele>65.03</ele><time>2026-08-20T07:33:26Z</time></trkpt><trkpt lat="59.1129271220" lon="30.4825825989"><ele>65.03</ele><time>2026-08-20T07:33:37Z</time></trkpt><trkpt lat="59.1128744837" lon="30.4825543519"><ele>65.03</ele><time>2026-08-20T07:33:53Z</time></trkpt><trkpt lat="59.1129083466" lon="30.4826010391"><ele>65.03</ele><time>2026-08-20T07:34:01Z</time></trkpt><trkpt lat="59.1129753180" lon="30.4825724568"><ele>65.03</ele><time>2026-08-20T07:34:10Z</time></trkpt><trkpt lat="59.1129743960" lon="30.4825322237"><ele>65.03</ele><time>2026-08-20T07:34:12Z</time></trkpt><trkpt lat="59.1129447240" lon="30.4822833650"><ele>65.03</ele><time>2026-08-20T07:34:25Z</time></trkpt><trkpt lat="59.1129375994" lon="30.4821949359"><ele>65.03</ele><time>2026-08-20T07:34:31Z</time></trkpt><trkpt lat="59.1129462328" lon="30.4821422976"><ele>65.03</ele><time>2026-08-20T07:34:33Z</time></trkpt><trkpt lat="59.1129233502" lon="30.4820412956"><ele>65.03</ele><time>2026-08-20T07:34:42Z</time></trkpt><trkpt lat="59.1128752381" lon="30.4820774216"><ele>65.03</ele><time>2026-08-20T07:34:54Z</time></trkpt><trkpt lat="59.1128946841" lon="30.4821650963"><ele>65.03</ele><time>2026-08-20T07:35:00Z</time></trkpt><trkpt lat="59.1129162256" lon="30.4821647611"><ele>65.03</ele><time>2026-08-20T07:35:13Z</time></trkpt><trkpt lat="59.1129080951" lon="30.4821182415"><ele>65.03</ele><time>2026-08-20T07:35:31Z</time></trkpt><trkpt lat="59.1128904931" lon="30.4820304830"><ele>65.03</ele><time>2026-08-20T07:35:44Z</time></trkpt><trkpt lat="59.1128809378" lon="30.4819879867"><ele>65.03</ele><time>2026-08-20T07:36:14Z</time></trkpt><trkpt lat="59.1128842067" lon="30.4819884058"><ele>65.03</ele><time>2026-08-20T07:36:36Z</time></trkpt><trkpt lat="59.1128799319" lon="30.4819956981"><ele>65.03</ele><time>2026-08-20T07:36:57Z</time></trkpt><trkpt lat="59.1128637549" lon="30.4820006434"><ele>65.03</ele><time>2026-08-20T07:37:20Z</time></trkpt><trkpt lat="59.1128527746" lon="30.4820008948"><ele>65.03</ele><time>2026-08-20T07:37:46Z</time></trkpt><trkpt lat="59.1128692031" lon="30.4820278008"><ele>65.03</ele><time>2026-08-20T07:38:02Z</time></trkpt><trkpt lat="59.1128633358" lon="30.4820489231"><ele>65.03</ele><time>2026-08-20T07:38:19Z</time></trkpt><trkpt lat="59.1128936782" lon="30.4820723925"><ele>65.03</ele><time>2026-08-20T07:38:31Z</time></trkpt><trkpt lat="59.1128909122" lon="30.4820789304"><ele>65.03</ele><time>2026-08-20T07:38:42Z</time></trkpt><trkpt lat="59.1129009705" lon="30.4820996337"><ele>65.03</ele><time>2026-08-20T07:39:06Z</time></trkpt><trkpt lat="59.1129022278" lon="30.4821093567"><ele>65.03</ele><time>2026-08-20T07:39:09Z</time></trkpt><trkpt lat="59.1128960252" lon="30.4820626695"><ele>65.03</ele><time>2026-08-20T07:39:24Z</time></trkpt><trkpt lat="59.1129053291" lon="30.4820663575"><ele>65.03</ele><time>2026-08-20T07:39:56Z</time></trkpt><trkpt lat="59.1129015572" lon="30.4820548743"><ele>65.03</ele><time>2026-08-20T07:40:15Z</time></trkpt><trkpt lat="59.1128985398" lon="30.4821137153"><ele>65.03</ele><time>2026-08-20T07:40:26Z</time></trkpt><trkpt lat="59.1128979530" lon="30.4820531979"><ele>65.03</ele><time>2026-08-20T07:40:39Z</time></trkpt><trkpt lat="59.1128964443" lon="30.4820311535"><ele>65.03</ele><time>2026-08-20T07:40:50Z</time></trkpt><trkpt lat="59.1128956899" lon="30.4821008071"><ele>65.03</ele><time>2026-08-20T07:41:04Z</time></trkpt><trkpt lat="59.1128969472" lon="30.4820713867"><ele>65.03</ele><time>2026-08-20T07:41:21Z</time></trkpt><trkpt lat="59.1128974501" lon="30.4820485879"><ele>65.03</ele><time>2026-08-20T07:41:33Z</time></trkpt><trkpt lat="59.1128932592" lon="30.4820630886"><ele>65.03</ele><time>2026-08-20T07:41:48Z</time></trkpt><trkpt lat="59.1128962766" lon="30.4820671957"><ele>65.03</ele><time>2026-08-20T07:42:00Z</time></trkpt><trkpt lat="59.1128681134" lon="30.4820340872"><ele>65.03</ele><time>2026-08-20T07:42:13Z</time></trkpt><trkpt lat="59.1128987074" lon="30.4820478335"><ele>65.03</ele><time>2026-08-20T07:42:34Z</time></trkpt><trkpt lat="59.1129038204" lon="30.4820478335"><ele>65.03</ele><time>2026-08-20T07:42:53Z</time></trkpt><trkpt lat="59.1129006352" lon="30.4820521921"><ele>65.51</ele><time>2026-08-20T07:43:13Z</time></trkpt><trkpt lat="59.1128821950" lon="30.4820377752"><ele>65.51</ele><time>2026-08-20T07:43:27Z</time></trkpt><trkpt lat="59.1128429677" lon="30.4820461571"><ele>65.51</ele><time>2026-08-20T07:43:37Z</time></trkpt><trkpt lat="59.1127647646" lon="30.4820309021"><ele>65.51</ele><time>2026-08-20T07:43:49Z</time></trkpt><trkpt lat="59.1126412991" lon="30.4820287228"><ele>65.51</ele><time>2026-08-20T07:44:00Z</time></trkpt><trkpt lat="59.1124964599" lon="30.4820278008"><ele>65.51</ele><time>2026-08-20T07:44:10Z</time></trkpt><trkpt lat="59.1124209389" lon="30.4820590653"><ele>65.99</ele><time>2026-08-20T07:44:19Z</time></trkpt><trkpt lat="59.1123918537" lon="30.4820836242"><ele>65.99</ele><time>2026-08-20T07:44:23Z</time></trkpt><trkpt lat="59.1123382095" lon="30.4821101110"><ele>64.55</ele><time>2026-08-20T07:44:31Z</time></trkpt><trkpt lat="59.1122950427" lon="30.4821790941"><ele>64.55</ele><time>2026-08-20T07:44:37Z</time></trkpt><trkpt lat="59.1122682206" lon="30.4821983725"><ele>64.55</ele><time>2026-08-20T07:44:40Z</time></trkpt><trkpt lat="59.1122499481" lon="30.4822028987"><ele>64.55</ele><time>2026-08-20T07:44:42Z</time></trkpt><trkpt lat="59.1121486947" lon="30.4822357558"><ele>64.55</ele><time>2026-08-20T07:44:52Z</time></trkpt><trkpt lat="59.1121299192" lon="30.4822489992"><ele>64.55</ele><time>2026-08-20T07:44:54Z</time></trkpt><trkpt lat="59.1120122373" lon="30.4822976142"><ele>65.03</ele><time>2026-08-20T07:45:05Z</time></trkpt><trkpt lat="59.1119804699" lon="30.4823554493"><ele>65.03</ele><time>2026-08-20T07:45:22Z</time></trkpt><trkpt lat="59.1119543184" lon="30.4823614005"><ele>65.03</ele><time>2026-08-20T07:45:40Z</time></trkpt><trkpt lat="59.1119585093" lon="30.4823628254"><ele>65.03</ele><time>2026-08-20T07:45:42Z</time></trkpt><trkpt lat="59.1120222956" lon="30.4823679384"><ele>65.51</ele><time>2026-08-20T07:45:54Z</time></trkpt><trkpt lat="59.1120349523" lon="30.4823844507"><ele>65.51</ele><time>2026-08-20T07:46:06Z</time></trkpt><trkpt lat="59.1120515484" lon="30.4823805112"><ele>65.51</ele><time>2026-08-20T07:46:09Z</time></trkpt><trkpt lat="59.1120863333" lon="30.4823582992"><ele>65.51</ele><time>2026-08-20T07:46:14Z</time></trkpt><trkpt lat="59.1121739242" lon="30.4824059922"><ele>65.51</ele><time>2026-08-20T07:46:24Z</time></trkpt><trkpt lat="59.1122527141" lon="30.4823598918"><ele>65.51</ele><time>2026-08-20T07:46:34Z</time></trkpt><trkpt lat="59.1123765148" lon="30.4823512584"><ele>65.51</ele><time>2026-08-20T07:46:47Z</time></trkpt><trkpt lat="59.1124843061" lon="30.4823567066"><ele>65.51</ele><time>2026-08-20T07:46:58Z</time></trkpt><trkpt lat="59.1125874035" lon="30.4823676869"><ele>65.99</ele><time>2026-08-20T07:47:11Z</time></trkpt><trkpt lat="59.1126920097" lon="30.4823549464"><ele>65.99</ele><time>2026-08-20T07:47:23Z</time></trkpt><trkpt lat="59.1127416305" lon="30.4823255260"><ele>65.99</ele><time>2026-08-20T07:47:31Z</time></trkpt><trkpt lat="59.1127827018" lon="30.4823205806"><ele>65.99</ele><time>2026-08-20T07:47:35Z</time></trkpt><trkpt lat="59.1128605697" lon="30.4822375160"><ele>66.47</ele><time>2026-08-20T07:47:46Z</time></trkpt><trkpt lat="59.1128839552" lon="30.4821105301"><ele>66.47</ele><time>2026-08-20T07:47:56Z</time></trkpt><trkpt lat="59.1128959414" lon="30.4821214266"><ele>66.47</ele><time>2026-08-20T07:48:12Z</time></trkpt><trkpt lat="59.1129091848" lon="30.4820117913"><ele>66.95</ele><time>2026-08-20T07:48:26Z</time></trkpt><trkpt lat="59.1129346658" lon="30.4819316603"><ele>66.95</ele><time>2026-08-20T07:48:49Z</time></trkpt><trkpt lat="59.1129552852" lon="30.4818926845"><ele>67.43</ele><time>2026-08-20T07:49:21Z</time></trkpt><trkpt lat="59.1129681095" lon="30.4819147289"><ele>67.91</ele><time>2026-08-20T07:49:55Z</time></trkpt><trkpt lat="59.1129578836" lon="30.4819334205"><ele>67.91</ele><time>2026-08-20T07:50:19Z</time></trkpt><trkpt lat="59.1129247751" lon="30.4819731507"><ele>67.91</ele><time>2026-08-20T07:50:26Z</time></trkpt><trkpt lat="59.1129111964" lon="30.4821080994"><ele>67.91</ele><time>2026-08-20T07:50:37Z</time></trkpt><trkpt lat="59.1129036527" lon="30.4821005557"><ele>68.39</ele><time>2026-08-20T07:50:47Z</time></trkpt><trkpt lat="59.1129062511" lon="30.4820090253"><ele>68.39</ele><time>2026-08-20T07:51:04Z</time></trkpt><trkpt lat="59.1129180696" lon="30.4819280561"><ele>68.39</ele><time>2026-08-20T07:51:18Z</time></trkpt><trkpt lat="59.1128964443" lon="30.4819662776"><ele>68.39</ele><time>2026-08-20T07:51:36Z</time></trkpt><trkpt lat="59.1129057482" lon="30.4819066823"><ele>68.39</ele><time>2026-08-20T07:51:56Z</time></trkpt><trkpt lat="59.1129101068" lon="30.4819197580"><ele>68.39</ele><time>2026-08-20T07:52:18Z</time></trkpt><trkpt lat="59.1129241046" lon="30.4819196742"><ele>68.39</ele><time>2026-08-20T07:52:45Z</time></trkpt><trkpt lat="59.1129192431" lon="30.4819205124"><ele>68.39</ele><time>2026-08-20T07:53:11Z</time></trkpt><trkpt lat="59.1129024792" lon="30.4819270503"><ele>68.39</ele><time>2026-08-20T07:53:22Z</time></trkpt><trkpt lat="59.1128761601" lon="30.4819928482"><ele>68.39</ele><time>2026-08-20T07:53:34Z</time></trkpt><trkpt lat="59.1128684487" lon="30.4820170719"><ele>68.39</ele><time>2026-08-20T07:53:56Z</time></trkpt><trkpt lat="59.1128568817" lon="30.4820461571"><ele>68.39</ele><time>2026-08-20T07:54:10Z</time></trkpt><trkpt lat="59.1128666047" lon="30.4820565507"><ele>68.39</ele><time>2026-08-20T07:54:34Z</time></trkpt><trkpt lat="59.1128974501" lon="30.4821075127"><ele>68.39</ele><time>2026-08-20T07:54:58Z</time></trkpt><trkpt lat="59.1128993779" lon="30.4821092729"><ele>68.39</ele><time>2026-08-20T07:55:13Z</time></trkpt><trkpt lat="59.1128948517" lon="30.4820776731"><ele>68.39</ele><time>2026-08-20T07:55:34Z</time></trkpt><trkpt lat="59.1128829494" lon="30.4820495937"><ele>68.39</ele><time>2026-08-20T07:55:47Z</time></trkpt><trkpt lat="59.1129246075" lon="30.4821110331"><ele>68.39</ele><time>2026-08-20T07:56:00Z</time></trkpt><trkpt lat="59.1129348334" lon="30.4820561316"><ele>66.95</ele><time>2026-08-20T07:56:12Z</time></trkpt><trkpt lat="59.1129356716" lon="30.4820766672"><ele>68.39</ele><time>2026-08-20T07:56:37Z</time></trkpt><trkpt lat="59.1128670238" lon="30.4821799323"><ele>68.39</ele><time>2026-08-20T07:56:55Z</time></trkpt><trkpt lat="59.1128343344" lon="30.4821724724"><ele>68.39</ele><time>2026-08-20T07:57:08Z</time></trkpt><trkpt lat="59.1124585737" lon="30.4821927566"><ele>68.39</ele><time>2026-08-20T07:57:30Z</time></trkpt><trkpt lat="59.1118947230" lon="30.4823121149"><ele>68.39</ele><time>2026-08-20T07:57:50Z</time></trkpt><trkpt lat="59.1115063056" lon="30.4824491590"><ele>67.91</ele><time>2026-08-20T07:58:07Z</time></trkpt><trkpt lat="59.1111545172" lon="30.4825731274"><ele>67.91</ele><time>2026-08-20T07:58:22Z</time></trkpt><trkpt lat="59.1107945982" lon="30.4826128576"><ele>67.91</ele><time>2026-08-20T07:58:38Z</time></trkpt><trkpt lat="59.1105095297" lon="30.4826757219"><ele>67.91</ele><time>2026-08-20T07:58:54Z</time></trkpt><trkpt lat="59.1102770157" lon="30.4826775659"><ele>67.91</ele><time>2026-08-20T07:59:11Z</time></trkpt><trkpt lat="59.1100171767" lon="30.4827794898"><ele>67.91</ele><time>2026-08-20T07:59:29Z</time></trkpt><trkpt lat="59.1098056175" lon="30.4828289431"><ele>67.43</ele><time>2026-08-20T07:59:46Z</time></trkpt><trkpt lat="59.1097849142" lon="30.4828382470"><ele>67.43</ele><time>2026-08-20T07:59:48Z</time></trkpt><trkpt lat="59.1097697429" lon="30.4828461260"><ele>67.43</ele><time>2026-08-20T07:59:49Z</time></trkpt><trkpt lat="59.1097503807" lon="30.4828598723"><ele>67.43</ele><time>2026-08-20T07:59:50Z</time></trkpt><trkpt lat="59.1095191240" lon="30.4829517379"><ele>67.43</ele><time>2026-08-20T08:00:05Z</time></trkpt><trkpt lat="59.1095528193" lon="30.4829650652"><ele>67.91</ele><time>2026-08-20T08:00:27Z</time></trkpt><trkpt lat="59.1094854288" lon="30.4829892889"><ele>67.91</ele><time>2026-08-20T08:00:43Z</time></trkpt><trkpt lat="59.1095227282" lon="30.4829794820"><ele>67.91</ele><time>2026-08-20T08:00:56Z</time></trkpt><trkpt lat="59.1095114965" lon="30.4829672445"><ele>67.91</ele><time>2026-08-20T08:01:16Z</time></trkpt><trkpt lat="59.1095208842" lon="30.4829966649"><ele>67.91</ele><time>2026-08-20T08:01:44Z</time></trkpt><trkpt lat="59.1095208842" lon="30.4829969164"><ele>67.91</ele><time>2026-08-20T08:02:09Z</time></trkpt><trkpt lat="59.1095231473" lon="30.4830057174"><ele>67.91</ele><time>2026-08-20T08:02:36Z</time></trkpt><trkpt lat="59.1095164418" lon="30.4829996824"><ele>67.91</ele><time>2026-08-20T08:03:06Z</time></trkpt><trkpt lat="59.1095130052" lon="30.4829581920"><ele>67.91</ele><time>2026-08-20T08:03:37Z</time></trkpt><trkpt lat="59.1095022764" lon="30.4829488043"><ele>67.91</ele><time>2026-08-20T08:04:10Z</time></trkpt><trkpt lat="59.1094969120" lon="30.4829594493"><ele>67.91</ele><time>2026-08-20T08:04:43Z</time></trkpt><trkpt lat="59.1094915476" lon="30.4829667415"><ele>67.91</ele><time>2026-08-20T08:05:10Z</time></trkpt><trkpt lat="59.1094883624" lon="30.4829671606"><ele>67.91</ele><time>2026-08-20T08:05:37Z</time></trkpt><trkpt lat="59.1094812378" lon="30.4829822481"><ele>67.91</ele><time>2026-08-20T08:06:09Z</time></trkpt><trkpt lat="59.1094884463" lon="30.4829742853"><ele>67.91</ele><time>2026-08-20T08:06:26Z</time></trkpt><trkpt lat="59.1094697546" lon="30.4829461221"><ele>67.91</ele><time>2026-08-20T08:06:38Z</time></trkpt><trkpt lat="59.1094726883" lon="30.4829410929"><ele>67.43</ele><time>2026-08-20T08:06:55Z</time></trkpt><trkpt lat="59.1094674915" lon="30.4829520732"><ele>67.43</ele><time>2026-08-20T08:07:15Z</time></trkpt><trkpt lat="59.1094802320" lon="30.4829430208"><ele>67.43</ele><time>2026-08-20T08:07:28Z</time></trkpt><trkpt lat="59.1094799805" lon="30.4829820804"><ele>67.43</ele><time>2026-08-20T08:07:46Z</time></trkpt><trkpt lat="59.1094844230" lon="30.4829605389"><ele>67.43</ele><time>2026-08-20T08:07:55Z</time></trkpt><trkpt lat="59.1094964929" lon="30.4829668254"><ele>67.43</ele><time>2026-08-20T08:08:06Z</time></trkpt><trkpt lat="59.1094992589" lon="30.4829686694"><ele>66.95</ele><time>2026-08-20T08:08:19Z</time></trkpt><trkpt lat="59.1094988398" lon="30.4829711840"><ele>66.95</ele><time>2026-08-20T08:08:31Z</time></trkpt><trkpt lat="59.1095071379" lon="30.4829854332"><ele>66.95</ele><time>2026-08-20T08:08:46Z</time></trkpt><trkpt lat="59.1094864346" lon="30.4830439389"><ele>66.95</ele><time>2026-08-20T08:08:56Z</time></trkpt><trkpt lat="59.1094761249" lon="30.4830081481"><ele>66.47</ele><time>2026-08-20T08:09:25Z</time></trkpt><trkpt lat="59.1094691679" lon="30.4830083996"><ele>66.47</ele><time>2026-08-20T08:09:57Z</time></trkpt><trkpt lat="59.1094642226" lon="30.4830033705"><ele>65.99</ele><time>2026-08-20T08:10:24Z</time></trkpt><trkpt lat="59.1094529070" lon="30.4829897918"><ele>66.47</ele><time>2026-08-20T08:10:51Z</time></trkpt><trkpt lat="59.1094588581" lon="30.4829835892"><ele>66.47</ele><time>2026-08-20T08:11:17Z</time></trkpt><trkpt lat="59.1094527394" lon="30.4829940666"><ele>65.99</ele><time>2026-08-20T08:11:46Z</time></trkpt><trkpt lat="59.1094463691" lon="30.4830161110"><ele>66.47</ele><time>2026-08-20T08:12:11Z</time></trkpt><trkpt lat="59.1094421782" lon="30.4830090702"><ele>65.99</ele><time>2026-08-20T08:12:42Z</time></trkpt><trkpt lat="59.1094459500" lon="30.4829959944"><ele>65.99</ele><time>2026-08-20T08:13:11Z</time></trkpt><trkpt lat="59.1094495542" lon="30.4830140993"><ele>66.47</ele><time>2026-08-20T08:13:42Z</time></trkpt><trkpt lat="59.1094489675" lon="30.4830069747"><ele>65.99</ele><time>2026-08-20T08:14:11Z</time></trkpt><trkpt lat="59.1094460338" lon="30.4829925578"><ele>65.99</ele><time>2026-08-20T08:14:39Z</time></trkpt><trkpt lat="59.1094480455" lon="30.4829892050"><ele>65.99</ele><time>2026-08-20T08:15:08Z</time></trkpt><trkpt lat="59.1094446089" lon="30.4830006044"><ele>65.51</ele><time>2026-08-20T08:15:36Z</time></trkpt><trkpt lat="59.1094456147" lon="30.4830023646"><ele>65.51</ele><time>2026-08-20T08:15:59Z</time></trkpt><trkpt lat="59.1094523203" lon="30.4830155242"><ele>65.51</ele><time>2026-08-20T08:16:10Z</time></trkpt><trkpt lat="59.1094525717" lon="30.4830474593"><ele>65.51</ele><time>2026-08-20T08:16:32Z</time></trkpt><trkpt lat="59.1094784718" lon="30.4830255825"><ele>65.03</ele><time>2026-08-20T08:16:52Z</time></trkpt><trkpt lat="59.1094834171" lon="30.4830164462"><ele>65.03</ele><time>2026-08-20T08:17:08Z</time></trkpt><trkpt lat="59.1094841715" lon="30.4830151051"><ele>65.03</ele><time>2026-08-20T08:17:09Z</time></trkpt><trkpt lat="59.1095197946" lon="30.4830058012"><ele>65.51</ele><time>2026-08-20T08:17:21Z</time></trkpt><trkpt lat="59.1095227282" lon="30.4830070585"><ele>65.51</ele><time>2026-08-20T08:17:34Z</time></trkpt><trkpt lat="59.1095119156" lon="30.4829930607"><ele>65.51</ele><time>2026-08-20T08:17:40Z</time></trkpt><trkpt lat="59.1094045434" lon="30.4829902947"><ele>65.03</ele><time>2026-08-20T08:17:51Z</time></trkpt><trkpt lat="59.1093938984" lon="30.4829907138"><ele>65.03</ele><time>2026-08-20T08:17:52Z</time></trkpt><trkpt lat="59.1093810741" lon="30.4829894565"><ele>65.03</ele><time>2026-08-20T08:17:53Z</time></trkpt><trkpt lat="59.1093608737" lon="30.4829921387"><ele>65.03</ele><time>2026-08-20T08:17:57Z</time></trkpt><trkpt lat="59.1093426012" lon="30.4830039572"><ele>65.03</ele><time>2026-08-20T08:17:58Z</time></trkpt><trkpt lat="59.1093208920" lon="30.4830086511"><ele>65.03</ele><time>2026-08-20T08:17:59Z</time></trkpt><trkpt lat="59.1093029547" lon="30.4830075614"><ele>65.03</ele><time>2026-08-20T08:18:00Z</time></trkpt><trkpt lat="59.1092682537" lon="30.4830091540"><ele>65.03</ele><time>2026-08-20T08:18:04Z</time></trkpt><trkpt lat="59.1092510708" lon="30.4830168653"><ele>65.03</ele><time>2026-08-20T08:18:05Z</time></trkpt><trkpt lat="59.1091454588" lon="30.4830371495"><ele>65.03</ele><time>2026-08-20T08:18:15Z</time></trkpt><trkpt lat="59.1091046389" lon="30.4830513988"><ele>65.03</ele><time>2026-08-20T08:18:27Z</time></trkpt><trkpt lat="59.1091959178" lon="30.4830436036"><ele>65.03</ele><time>2026-08-20T08:18:36Z</time></trkpt><trkpt lat="59.1092686728" lon="30.4830265045"><ele>65.03</ele><time>2026-08-20T08:18:47Z</time></trkpt><trkpt lat="59.1092731990" lon="30.4830285162"><ele>65.03</ele><time>2026-08-20T08:18:58Z</time></trkpt><trkpt lat="59.1093187127" lon="30.4830235709"><ele>65.03</ele><time>2026-08-20T08:19:18Z</time></trkpt><trkpt lat="59.1094078124" lon="30.4830166977"><ele>65.03</ele><time>2026-08-20T08:19:27Z</time></trkpt><trkpt lat="59.1094400827" lon="30.4829922225"><ele>65.03</ele><time>2026-08-20T08:19:30Z</time></trkpt><trkpt lat="59.1094974987" lon="30.4829933960"><ele>65.03</ele><time>2026-08-20T08:19:42Z</time></trkpt><trkpt lat="59.1094960738" lon="30.4829976708"><ele>65.03</ele><time>2026-08-20T08:19:57Z</time></trkpt><trkpt lat="59.1095095687" lon="30.4829986766"><ele>65.03</ele><time>2026-08-20T08:20:13Z</time></trkpt><trkpt lat="59.1095286794" lon="30.4829939827"><ele>65.03</ele><time>2026-08-20T08:20:26Z</time></trkpt><trkpt lat="59.1095306911" lon="30.4829914682"><ele>64.55</ele><time>2026-08-20T08:20:46Z</time></trkpt><trkpt lat="59.1095052939" lon="30.4829933960"><ele>64.55</ele><time>2026-08-20T08:21:02Z</time></trkpt><trkpt lat="59.1095028631" lon="30.4830015264"><ele>64.55</ele><time>2026-08-20T08:21:18Z</time></trkpt><trkpt lat="59.1095042881" lon="30.4830119200"><ele>64.55</ele><time>2026-08-20T08:21:30Z</time></trkpt><trkpt lat="59.1095081437" lon="30.4830102436"><ele>64.55</ele><time>2026-08-20T08:21:47Z</time></trkpt><trkpt lat="59.1095244046" lon="30.4830387421"><ele>64.55</ele><time>2026-08-20T08:21:59Z</time></trkpt><trkpt lat="59.1095114965" lon="30.4830209725"><ele>64.07</ele><time>2026-08-20T08:22:18Z</time></trkpt><trkpt lat="59.1095091496" lon="30.4830475431"><ele>64.07</ele><time>2026-08-20T08:22:29Z</time></trkpt><trkpt lat="59.1095052939" lon="30.4830313660"><ele>64.07</ele><time>2026-08-20T08:22:49Z</time></trkpt><trkpt lat="59.1094692517" lon="30.4830144346"><ele>64.07</ele><time>2026-08-20T08:23:06Z</time></trkpt><trkpt lat="59.1094270907" lon="30.4830125906"><ele>64.07</ele><time>2026-08-20T08:23:18Z</time></trkpt><trkpt lat="59.1093826666" lon="30.4830229003"><ele>64.07</ele><time>2026-08-20T08:23:32Z</time></trkpt><trkpt lat="59.1093743686" lon="30.4830233194"><ele>64.07</ele><time>2026-08-20T08:24:01Z</time></trkpt><trkpt lat="59.1093769670" lon="30.4830139317"><ele>64.07</ele><time>2026-08-20T08:24:25Z</time></trkpt><trkpt lat="59.1093705967" lon="30.4830120876"><ele>63.58</ele><time>2026-08-20T08:24:45Z</time></trkpt><trkpt lat="59.1093625501" lon="30.4830074776"><ele>63.58</ele><time>2026-08-20T08:25:09Z</time></trkpt><trkpt lat="59.1093689203" lon="30.4830068070"><ele>63.58</ele><time>2026-08-20T08:25:27Z</time></trkpt><trkpt lat="59.1093681660" lon="30.4830042925"><ele>63.58</ele><time>2026-08-20T08:25:53Z</time></trkpt><trkpt lat="59.1093712673" lon="30.4830050468"><ele>63.58</ele><time>2026-08-20T08:26:19Z</time></trkpt><trkpt lat="59.1093634721" lon="30.4829964973"><ele>63.58</ele><time>2026-08-20T08:26:38Z</time></trkpt><trkpt lat="59.1093720216" lon="30.4829996824"><ele>63.58</ele><time>2026-08-20T08:26:51Z</time></trkpt><trkpt lat="59.1093826666" lon="30.4830112495"><ele>63.10</ele><time>2026-08-20T08:27:14Z</time></trkpt><trkpt lat="59.1094219778" lon="30.4830197990"><ele>63.10</ele><time>2026-08-20T08:27:29Z</time></trkpt><trkpt lat="59.1094969958" lon="30.4830249958"><ele>63.10</ele><time>2026-08-20T08:27:40Z</time></trkpt><trkpt lat="59.1094975825" lon="30.4830023646"><ele>63.10</ele><time>2026-08-20T08:27:53Z</time></trkpt><trkpt lat="59.1094949003" lon="30.4829887860"><ele>63.10</ele><time>2026-08-20T08:28:14Z</time></trkpt><trkpt lat="59.1094879434" lon="30.4829594493"><ele>63.10</ele><time>2026-08-20T08:28:27Z</time></trkpt><trkpt lat="59.1094804835" lon="30.4829904623"><ele>63.10</ele><time>2026-08-20T08:28:38Z</time></trkpt><trkpt lat="59.1094830818" lon="30.4829740338"><ele>63.10</ele><time>2026-08-20T08:28:56Z</time></trkpt><trkpt lat="59.1094876081" lon="30.4829759616"><ele>63.10</ele><time>2026-08-20T08:29:15Z</time></trkpt><trkpt lat="59.1094850935" lon="30.4829882830"><ele>63.10</ele><time>2026-08-20T08:29:30Z</time></trkpt><trkpt lat="59.1094890330" lon="30.4829947371"><ele>62.62</ele><time>2026-08-20T08:29:42Z</time></trkpt><trkpt lat="59.1094855964" lon="30.4830041248"><ele>62.62</ele><time>2026-08-20T08:29:53Z</time></trkpt><trkpt lat="59.1094862670" lon="30.4829979222"><ele>62.62</ele><time>2026-08-20T08:30:04Z</time></trkpt><trkpt lat="59.1094854288" lon="30.4829999339"><ele>62.62</ele><time>2026-08-20T08:30:29Z</time></trkpt><trkpt lat="59.1094951518" lon="30.4830102436"><ele>62.62</ele><time>2026-08-20T08:30:45Z</time></trkpt><trkpt lat="59.1094872728" lon="30.4830132611"><ele>62.62</ele><time>2026-08-20T08:31:07Z</time></trkpt><trkpt lat="59.1094804835" lon="30.4830255825"><ele>62.62</ele><time>2026-08-20T08:31:33Z</time></trkpt><trkpt lat="59.1094907094" lon="30.4830148537"><ele>62.14</ele><time>2026-08-20T08:31:56Z</time></trkpt><trkpt lat="59.1094718501" lon="30.4830348026"><ele>62.14</ele><time>2026-08-20T08:32:16Z</time></trkpt><trkpt lat="59.1094721016" lon="30.4830715153"><ele>62.14</ele><time>2026-08-20T08:32:33Z</time></trkpt><trkpt lat="59.1094729397" lon="30.4831268359"><ele>62.14</ele><time>2026-08-20T08:32:46Z</time></trkpt><trkpt lat="59.1094678268" lon="30.4831886105"><ele>62.14</ele><time>2026-08-20T08:32:56Z</time></trkpt><trkpt lat="59.1094348859" lon="30.4833057057"><ele>62.14</ele><time>2026-08-20T08:33:09Z</time></trkpt><trkpt lat="59.1094072256" lon="30.4833251517"><ele>62.14</ele><time>2026-08-20T08:33:26Z</time></trkpt><trkpt lat="59.1093861870" lon="30.4833907820"><ele>62.14</ele><time>2026-08-20T08:33:46Z</time></trkpt><trkpt lat="59.1093746200" lon="30.4834190290"><ele>62.14</ele><time>2026-08-20T08:33:56Z</time></trkpt><trkpt lat="59.1093181260" lon="30.4834570829"><ele>62.14</ele><time>2026-08-20T08:34:12Z</time></trkpt><trkpt lat="59.1093246639" lon="30.4835036863"><ele>61.66</ele><time>2026-08-20T08:34:28Z</time></trkpt><trkpt lat="59.1093232390" lon="30.4835107271"><ele>61.66</ele><time>2026-08-20T08:34:57Z</time></trkpt><trkpt lat="59.1093218978" lon="30.4835290834"><ele>61.66</ele><time>2026-08-20T08:35:29Z</time></trkpt><trkpt lat="59.1093234066" lon="30.4835528880"><ele>61.66</ele><time>2026-08-20T08:35:50Z</time></trkpt><trkpt lat="59.1093281843" lon="30.4835281614"><ele>61.66</ele><time>2026-08-20T08:36:08Z</time></trkpt><trkpt lat="59.1093003564" lon="30.4835017584"><ele>61.66</ele><time>2026-08-20T08:36:14Z</time></trkpt><trkpt lat="59.1092560999" lon="30.4834976513"><ele>61.66</ele><time>2026-08-20T08:36:20Z</time></trkpt><trkpt lat="59.1091899667" lon="30.4834830668"><ele>61.66</ele><time>2026-08-20T08:36:31Z</time></trkpt><trkpt lat="59.1090628132" lon="30.4834550712"><ele>61.66</ele><time>2026-08-20T08:36:47Z</time></trkpt><trkpt lat="59.1090532579" lon="30.4834512156"><ele>61.66</ele><time>2026-08-20T08:36:48Z</time></trkpt><trkpt lat="59.1089436226" lon="30.4835231323"><ele>61.66</ele><time>2026-08-20T08:37:02Z</time></trkpt><trkpt lat="59.1088776570" lon="30.4835565761"><ele>61.66</ele><time>2026-08-20T08:37:17Z</time></trkpt><trkpt lat="59.1088670120" lon="30.4835916962"><ele>61.18</ele><time>2026-08-20T08:37:39Z</time></trkpt><trkpt lat="59.1089036409" lon="30.4835381359"><ele>61.18</ele><time>2026-08-20T08:37:59Z</time></trkpt><trkpt lat="59.1088994499" lon="30.4834882636"><ele>61.18</ele><time>2026-08-20T08:38:12Z</time></trkpt><trkpt lat="59.1088792495" lon="30.4832763691"><ele>61.18</ele><time>2026-08-20T08:38:24Z</time></trkpt><trkpt lat="59.1088741366" lon="30.4829879478"><ele>60.70</ele><time>2026-08-20T08:38:40Z</time></trkpt><trkpt lat="59.1088961810" lon="30.4828801565"><ele>60.70</ele><time>2026-08-20T08:38:51Z</time></trkpt><trkpt lat="59.1088963486" lon="30.4828348942"><ele>60.70</ele><time>2026-08-20T08:39:09Z</time></trkpt><trkpt lat="59.1089215782" lon="30.4827554338"><ele>60.70</ele><time>2026-08-20T08:39:28Z</time></trkpt><trkpt lat="59.1088940017" lon="30.4826030508"><ele>60.70</ele><time>2026-08-20T08:39:41Z</time></trkpt><trkpt lat="59.1088841110" lon="30.4825350735"><ele>60.70</ele><time>2026-08-20T08:39:50Z</time></trkpt><trkpt lat="59.1089079995" lon="30.4824799206"><ele>60.70</ele><time>2026-08-20T08:39:57Z</time></trkpt><trkpt lat="59.1089121904" lon="30.4824560322"><ele>60.70</ele><time>2026-08-20T08:39:58Z</time></trkpt><trkpt lat="59.1089169681" lon="30.4824305512"><ele>60.70</ele><time>2026-08-20T08:39:59Z</time></trkpt><trkpt lat="59.1089439578" lon="30.4822847061"><ele>60.70</ele><time>2026-08-20T08:40:07Z</time></trkpt><trkpt lat="59.1089446284" lon="30.4822396953"><ele>60.70</ele><time>2026-08-20T08:40:09Z</time></trkpt><trkpt lat="59.1089460533" lon="30.4821980372"><ele>60.22</ele><time>2026-08-20T08:40:23Z</time></trkpt><trkpt lat="59.1089490708" lon="30.4821641743"><ele>60.22</ele><time>2026-08-20T08:40:47Z</time></trkpt><trkpt lat="59.1089474782" lon="30.4819707200"><ele>60.22</ele><time>2026-08-20T08:41:03Z</time></trkpt><trkpt lat="59.1089426167" lon="30.4819217697"><ele>60.22</ele><time>2026-08-20T08:41:05Z</time></trkpt><trkpt lat="59.1089412756" lon="30.4818507750"><ele>60.22</ele><time>2026-08-20T08:41:08Z</time></trkpt><trkpt lat="59.1089191474" lon="30.4817236215"><ele>60.22</ele><time>2026-08-20T08:41:15Z</time></trkpt><trkpt lat="59.1089053173" lon="30.4817106295"><ele>60.22</ele><time>2026-08-20T08:41:27Z</time></trkpt><trkpt lat="59.1089124419" lon="30.4814947955"><ele>60.22</ele><time>2026-08-20T08:41:39Z</time></trkpt><trkpt lat="59.1089044791" lon="30.4813341144"><ele>60.22</ele><time>2026-08-20T08:41:48Z</time></trkpt><trkpt lat="59.1088826023" lon="30.4812259879"><ele>60.22</ele><time>2026-08-20T08:41:56Z</time></trkpt><trkpt lat="59.1088727117" lon="30.4810400773"><ele>60.22</ele><time>2026-08-20T08:42:05Z</time></trkpt><trkpt lat="59.1088258568" lon="30.4807403404"><ele>60.22</ele><time>2026-08-20T08:42:16Z</time></trkpt><trkpt lat="59.1088035610" lon="30.4805822577"><ele>59.74</ele><time>2026-08-20T08:42:26Z</time></trkpt><trkpt lat="59.1088022199" lon="30.4805651587"><ele>59.74</ele><time>2026-08-20T08:42:34Z</time></trkpt><trkpt lat="59.1088119429" lon="30.4803664237"><ele>59.74</ele><time>2026-08-20T08:42:43Z</time></trkpt><trkpt lat="59.1087898146" lon="30.4799997155"><ele>59.74</ele><time>2026-08-20T08:42:57Z</time></trkpt><trkpt lat="59.1087903176" lon="30.4798433930"><ele>59.74</ele><time>2026-08-20T08:43:11Z</time></trkpt><trkpt lat="59.1087807622" lon="30.4797624238"><ele>59.26</ele><time>2026-08-20T08:43:35Z</time></trkpt><trkpt lat="59.1087845340" lon="30.4794747569"><ele>59.26</ele><time>2026-08-20T08:43:51Z</time></trkpt><trkpt lat="59.1087716259" lon="30.4791881796"><ele>59.26</ele><time>2026-08-20T08:44:04Z</time></trkpt><trkpt lat="59.1087365896" lon="30.4789195396"><ele>59.26</ele><time>2026-08-20T08:44:16Z</time></trkpt><trkpt lat="59.1087246872" lon="30.4786254186"><ele>59.26</ele><time>2026-08-20T08:44:30Z</time></trkpt><trkpt lat="59.1087151319" lon="30.4784826748"><ele>59.26</ele><time>2026-08-20T08:44:40Z</time></trkpt><trkpt lat="59.1087050736" lon="30.4783406854"><ele>59.26</ele><time>2026-08-20T08:44:51Z</time></trkpt><trkpt lat="59.1087002959" lon="30.4781609774"><ele>59.26</ele><time>2026-08-20T08:44:55Z</time></trkpt><trkpt lat="59.1086737253" lon="30.4778754059"><ele>59.26</ele><time>2026-08-20T08:45:07Z</time></trkpt><trkpt lat="59.1086532734" lon="30.4776614159"><ele>59.26</ele><time>2026-08-20T08:45:18Z</time></trkpt><trkpt lat="59.1086354200" lon="30.4774423130"><ele>58.78</ele><time>2026-08-20T08:45:29Z</time></trkpt><trkpt lat="59.1086265352" lon="30.4771914426"><ele>58.78</ele><time>2026-08-20T08:45:40Z</time></trkpt><trkpt lat="59.1086220928" lon="30.4769901931"><ele>58.78</ele><time>2026-08-20T08:45:50Z</time></trkpt><trkpt lat="59.1086132918" lon="30.4768725950"><ele>58.78</ele><time>2026-08-20T08:46:03Z</time></trkpt><trkpt lat="59.1086147167" lon="30.4767782986"><ele>58.78</ele><time>2026-08-20T08:46:21Z</time></trkpt><trkpt lat="59.1086172312" lon="30.4767129198"><ele>58.78</ele><time>2026-08-20T08:46:39Z</time></trkpt><trkpt lat="59.1085995454" lon="30.4765719362"><ele>58.78</ele><time>2026-08-20T08:46:51Z</time></trkpt><trkpt lat="59.1086064186" lon="30.4764001071"><ele>58.30</ele><time>2026-08-20T08:47:05Z</time></trkpt><trkpt lat="59.1085771658" lon="30.4761388432"><ele>58.30</ele><time>2026-08-20T08:47:17Z</time></trkpt><trkpt lat="59.1085627489" lon="30.4759183154"><ele>58.30</ele><time>2026-08-20T08:47:28Z</time></trkpt><trkpt lat="59.1085492540" lon="30.4757412057"><ele>58.30</ele><time>2026-08-20T08:47:36Z</time></trkpt><trkpt lat="59.1085370164" lon="30.4754946940"><ele>58.30</ele><time>2026-08-20T08:47:47Z</time></trkpt><trkpt lat="59.1085428838" lon="30.4753980506"><ele>58.30</ele><time>2026-08-20T08:47:52Z</time></trkpt><trkpt lat="59.1085194983" lon="30.4752072785"><ele>58.30</ele><time>2026-08-20T08:48:03Z</time></trkpt><trkpt lat="59.1085220966" lon="30.4750617687"><ele>58.30</ele><time>2026-08-20T08:48:12Z</time></trkpt><trkpt lat="59.1084831208" lon="30.4747416638"><ele>58.30</ele><time>2026-08-20T08:48:26Z</time></trkpt><trkpt lat="59.1084826179" lon="30.4746778775"><ele>58.30</ele><time>2026-08-20T08:48:29Z</time></trkpt><trkpt lat="59.1084622499" lon="30.4745784681"><ele>58.30</ele><time>2026-08-20T08:48:33Z</time></trkpt><trkpt lat="59.1083697975" lon="30.4745917954"><ele>58.30</ele><time>2026-08-20T08:48:45Z</time></trkpt><trkpt lat="59.1083324142" lon="30.4745977465"><ele>57.82</ele><time>2026-08-20T08:49:03Z</time></trkpt><trkpt lat="59.1083278880" lon="30.4746107385"><ele>57.82</ele><time>2026-08-20T08:49:25Z</time></trkpt><trkpt lat="59.1082777642" lon="30.4747214634"><ele>57.82</ele><time>2026-08-20T08:49:36Z</time></trkpt><trkpt lat="59.1081511974" lon="30.4747638758"><ele>57.82</ele><time>2026-08-20T08:49:50Z</time></trkpt><trkpt lat="59.1080486029" lon="30.4745897837"><ele>57.82</ele><time>2026-08-20T08:50:05Z</time></trkpt><trkpt lat="59.1079406440" lon="30.4746097326"><ele>57.82</ele><time>2026-08-20T08:50:18Z</time></trkpt><trkpt lat="59.1078474373" lon="30.4745860118"><ele>57.82</ele><time>2026-08-20T08:50:31Z</time></trkpt><trkpt lat="59.1078424919" lon="30.4746109899"><ele>57.82</ele><time>2026-08-20T08:50:53Z</time></trkpt><trkpt lat="59.1078525502" lon="30.4746526480"><ele>57.82</ele><time>2026-08-20T08:51:16Z</time></trkpt><trkpt lat="59.1078468505" lon="30.4746632930"><ele>57.82</ele><time>2026-08-20T08:51:36Z</time></trkpt><trkpt lat="59.1078411508" lon="30.4747911170"><ele>57.82</ele><time>2026-08-20T08:51:48Z</time></trkpt><trkpt lat="59.1078825574" lon="30.4749662988"><ele>57.82</ele><time>2026-08-20T08:52:00Z</time></trkpt><trkpt lat="59.1079111397" lon="30.4750902671"><ele>57.82</ele><time>2026-08-20T08:52:13Z</time></trkpt><trkpt lat="59.1079145763" lon="30.4752146546"><ele>57.82</ele><time>2026-08-20T08:52:24Z</time></trkpt><trkpt lat="59.1079450864" lon="30.4753273074"><ele>57.82</ele><time>2026-08-20T08:52:35Z</time></trkpt><trkpt lat="59.1079667117" lon="30.4754950292"><ele>57.82</ele><time>2026-08-20T08:52:46Z</time></trkpt><trkpt lat="59.1080299951" lon="30.4756057542"><ele>57.82</ele><time>2026-08-20T08:52:57Z</time></trkpt><trkpt lat="59.1080386285" lon="30.4756600689"><ele>57.82</ele><time>2026-08-20T08:53:10Z</time></trkpt><trkpt lat="59.1080522072" lon="30.4757087678"><ele>57.82</ele><time>2026-08-20T08:53:27Z</time></trkpt><trkpt lat="59.1080525424" lon="30.4757799301"><ele>57.82</ele><time>2026-08-20T08:53:43Z</time></trkpt><trkpt lat="59.1080372874" lon="30.4758396093"><ele>57.82</ele><time>2026-08-20T08:53:55Z</time></trkpt><trkpt lat="59.1080305818" lon="30.4758581333"><ele>57.82</ele><time>2026-08-20T08:54:21Z</time></trkpt><trkpt lat="59.1080361139" lon="30.4758779984"><ele>57.82</ele><time>2026-08-20T08:54:37Z</time></trkpt><trkpt lat="59.1080166679" lon="30.4759617336"><ele>57.82</ele><time>2026-08-20T08:54:48Z</time></trkpt><trkpt lat="59.1080316715" lon="30.4760605562"><ele>57.82</ele><time>2026-08-20T08:54:59Z</time></trkpt><trkpt lat="59.1080573201" lon="30.4762223270"><ele>57.82</ele><time>2026-08-20T08:55:14Z</time></trkpt><trkpt lat="59.1080574039" lon="30.4763436969"><ele>57.82</ele><time>2026-08-20T08:55:25Z</time></trkpt><trkpt lat="59.1080351919" lon="30.4764895421"><ele>57.82</ele><time>2026-08-20T08:55:36Z</time></trkpt><trkpt lat="59.1080319230" lon="30.4765613750"><ele>57.82</ele><time>2026-08-20T08:55:51Z</time></trkpt><trkpt lat="59.1080425680" lon="30.4766676575"><ele>57.82</ele><time>2026-08-20T08:56:06Z</time></trkpt><trkpt lat="59.1080390476" lon="30.4767707549"><ele>56.86</ele><time>2026-08-20T08:56:23Z</time></trkpt><trkpt lat="59.1080630198" lon="30.4768920410"><ele>56.86</ele><time>2026-08-20T08:56:34Z</time></trkpt><trkpt lat="59.1080672108" lon="30.4771301709"><ele>56.86</ele><time>2026-08-20T08:56:47Z</time></trkpt><trkpt lat="59.1080289893" lon="30.4772843141"><ele>56.86</ele><time>2026-08-20T08:57:00Z</time></trkpt><trkpt lat="59.1080383770" lon="30.4774837196"><ele>56.86</ele><time>2026-08-20T08:57:13Z</time></trkpt><trkpt lat="59.1080698092" lon="30.4776143096"><ele>56.86</ele><time>2026-08-20T08:57:27Z</time></trkpt><trkpt lat="59.1081126407" lon="30.4777329974"><ele>56.86</ele><time>2026-08-20T08:57:39Z</time></trkpt><trkpt lat="59.1081618425" lon="30.4778125416"><ele>56.86</ele><time>2026-08-20T08:57:51Z</time></trkpt><trkpt lat="59.1081543826" lon="30.4778570496"><ele>56.86</ele><time>2026-08-20T08:58:07Z</time></trkpt><trkpt lat="59.1081408877" lon="30.4779817723"><ele>56.86</ele><time>2026-08-20T08:58:17Z</time></trkpt><trkpt lat="59.1081444919" lon="30.4780613165"><ele>56.86</ele><time>2026-08-20T08:58:20Z</time></trkpt><trkpt lat="59.1081506945" lon="30.4781981092"><ele>56.86</ele><time>2026-08-20T08:58:33Z</time></trkpt><trkpt lat="59.1081449110" lon="30.4783210717"><ele>56.86</ele><time>2026-08-20T08:58:46Z</time></trkpt><trkpt lat="59.1081340984" lon="30.4784146976"><ele>56.86</ele><time>2026-08-20T08:59:02Z</time></trkpt><trkpt lat="59.1081227828" lon="30.4785346426"><ele>56.86</ele><time>2026-08-20T08:59:13Z</time></trkpt><trkpt lat="59.1081352718" lon="30.4785758816"><ele>56.86</ele><time>2026-08-20T08:59:15Z</time></trkpt><trkpt lat="59.1081677098" lon="30.4786621314"><ele>56.86</ele><time>2026-08-20T08:59:22Z</time></trkpt><trkpt lat="59.1081539635" lon="30.4788236506"><ele>56.86</ele><time>2026-08-20T08:59:35Z</time></trkpt><trkpt lat="59.1081463359" lon="30.4789772071"><ele>56.86</ele><time>2026-08-20T08:59:46Z</time></trkpt><trkpt lat="59.1081317514" lon="30.4790495429"><ele>56.86</ele><time>2026-08-20T08:59:52Z</time></trkpt><trkpt lat="59.1081145685" lon="30.4791732598"><ele>56.86</ele><time>2026-08-20T09:00:04Z</time></trkpt><trkpt lat="59.1081211064" lon="30.4792122357"><ele>56.86</ele><time>2026-08-20T09:00:20Z</time></trkpt><trkpt lat="59.1081010737" lon="30.4794064444"><ele>56.37</ele><time>2026-08-20T09:00:31Z</time></trkpt><trkpt lat="59.1081020795" lon="30.4795244616"><ele>56.37</ele><time>2026-08-20T09:00:42Z</time></trkpt><trkpt lat="59.1080808733" lon="30.4797003977"><ele>56.37</ele><time>2026-08-20T09:00:53Z</time></trkpt><trkpt lat="59.1081033368" lon="30.4798627552"><ele>56.86</ele><time>2026-08-20T09:01:06Z</time></trkpt><trkpt lat="59.1081041750" lon="30.4799293075"><ele>56.86</ele><time>2026-08-20T09:01:22Z</time></trkpt><trkpt lat="59.1081351880" lon="30.4800245259"><ele>56.86</ele><time>2026-08-20T09:01:33Z</time></trkpt><trkpt lat="59.1081817914" lon="30.4802167229"><ele>56.86</ele><time>2026-08-20T09:01:48Z</time></trkpt><trkpt lat="59.1082324181" lon="30.4802997038"><ele>56.86</ele><time>2026-08-20T09:02:00Z</time></trkpt><trkpt lat="59.1082584858" lon="30.4804052319"><ele>56.37</ele><time>2026-08-20T09:02:10Z</time></trkpt><trkpt lat="59.1082965396" lon="30.4805623926"><ele>56.37</ele><time>2026-08-20T09:02:21Z</time></trkpt><trkpt lat="59.1083145607" lon="30.4806778114"><ele>56.37</ele><time>2026-08-20T09:02:30Z</time></trkpt><trkpt lat="59.1083096154" lon="30.4808347207"><ele>56.37</ele><time>2026-08-20T09:02:40Z</time></trkpt><trkpt lat="59.1083121300" lon="30.4808716848"><ele>56.37</ele><time>2026-08-20T09:02:54Z</time></trkpt><trkpt lat="59.1083380301" lon="30.4809819907"><ele>56.37</ele><time>2026-08-20T09:03:09Z</time></trkpt><trkpt lat="59.1083412990" lon="30.4811083898"><ele>56.37</ele><time>2026-08-20T09:03:20Z</time></trkpt><trkpt lat="59.1083436459" lon="30.4812524747"><ele>56.37</ele><time>2026-08-20T09:03:34Z</time></trkpt><trkpt lat="59.1083290614" lon="30.4812921211"><ele>56.37</ele><time>2026-08-20T09:03:56Z</time></trkpt><trkpt lat="59.1083423886" lon="30.4813430831"><ele>56.37</ele><time>2026-08-20T09:04:20Z</time></trkpt><trkpt lat="59.1083324980" lon="30.4813437536"><ele>56.37</ele><time>2026-08-20T09:04:38Z</time></trkpt><trkpt lat="59.1083337553" lon="30.4813632835"><ele>56.37</ele><time>2026-08-20T09:04:48Z</time></trkpt><trkpt lat="59.1083520278" lon="30.4814414028"><ele>56.37</ele><time>2026-08-20T09:05:09Z</time></trkpt><trkpt lat="59.1083566379" lon="30.4815043509"><ele>56.37</ele><time>2026-08-20T09:05:20Z</time></trkpt><trkpt lat="59.1083490942" lon="30.4815424047"><ele>56.37</ele><time>2026-08-20T09:05:42Z</time></trkpt><trkpt lat="59.1083626729" lon="30.4815871641"><ele>56.86</ele><time>2026-08-20T09:05:58Z</time></trkpt><trkpt lat="59.1083746590" lon="30.4817083664"><ele>56.86</ele><time>2026-08-20T09:06:13Z</time></trkpt><trkpt lat="59.1084490903" lon="30.4818498529"><ele>56.86</ele><time>2026-08-20T09:06:24Z</time></trkpt><trkpt lat="59.1084412113" lon="30.4819164053"><ele>56.86</ele><time>2026-08-20T09:06:33Z</time></trkpt><trkpt lat="59.1084195022" lon="30.4819146451"><ele>56.86</ele><time>2026-08-20T09:06:59Z</time></trkpt><trkpt lat="59.1084174905" lon="30.4819176625"><ele>56.86</ele><time>2026-08-20T09:07:18Z</time></trkpt><trkpt lat="59.1084099468" lon="30.4819113761"><ele>56.86</ele><time>2026-08-20T09:07:36Z</time></trkpt><trkpt lat="59.1083962005" lon="30.4819053411"><ele>56.86</ele><time>2026-08-20T09:08:07Z</time></trkpt><trkpt lat="59.1083879024" lon="30.4819081072"><ele>56.86</ele><time>2026-08-20T09:08:25Z</time></trkpt><trkpt lat="59.1083910875" lon="30.4818977974"><ele>56.86</ele><time>2026-08-20T09:08:36Z</time></trkpt><trkpt lat="59.1083932668" lon="30.4818956181"><ele>56.86</ele><time>2026-08-20T09:08:58Z</time></trkpt><trkpt lat="59.1083913390" lon="30.4818957858"><ele>56.86</ele><time>2026-08-20T09:09:17Z</time></trkpt><trkpt lat="59.1083920095" lon="30.4818734899"><ele>56.86</ele><time>2026-08-20T09:09:37Z</time></trkpt><trkpt lat="59.1083925962" lon="30.4818681255"><ele>56.86</ele><time>2026-08-20T09:09:53Z</time></trkpt><trkpt lat="59.1083902493" lon="30.4818734899"><ele>56.86</ele><time>2026-08-20T09:10:10Z</time></trkpt><trkpt lat="59.1083885729" lon="30.4818036687"><ele>56.86</ele><time>2026-08-20T09:10:29Z</time></trkpt><trkpt lat="59.1083741561" lon="30.4816677142"><ele>56.86</ele><time>2026-08-20T09:10:41Z</time></trkpt><trkpt lat="59.1083361022" lon="30.4816571530"><ele>56.86</ele><time>2026-08-20T09:10:52Z</time></trkpt><trkpt lat="59.1083109565" lon="30.4816431552"><ele>56.86</ele><time>2026-08-20T09:11:03Z</time></trkpt><trkpt lat="59.1082724836" lon="30.4816999007"><ele>56.86</ele><time>2026-08-20T09:11:13Z</time></trkpt><trkpt lat="59.1082601622" lon="30.4817908444"><ele>56.86</ele><time>2026-08-20T09:11:25Z</time></trkpt><trkpt lat="59.1082740761" lon="30.4818750825"><ele>56.86</ele><time>2026-08-20T09:11:37Z</time></trkpt><trkpt lat="59.1082454938" lon="30.4819416348"><ele>56.86</ele><time>2026-08-20T09:11:49Z</time></trkpt><trkpt lat="59.1082169954" lon="30.4819635116"><ele>57.82</ele><time>2026-08-20T09:11:57Z</time></trkpt><trkpt lat="59.1081941128" lon="30.4820456542"><ele>57.82</ele><time>2026-08-20T09:12:11Z</time></trkpt><trkpt lat="59.1082216892" lon="30.4821552895"><ele>57.82</ele><time>2026-08-20T09:12:24Z</time></trkpt><trkpt lat="59.1082372796" lon="30.4822287150"><ele>57.82</ele><time>2026-08-20T09:12:38Z</time></trkpt><trkpt lat="59.1082574800" lon="30.4822858796"><ele>57.82</ele><time>2026-08-20T09:12:49Z</time></trkpt><trkpt lat="59.1082679573" lon="30.4823154677"><ele>57.82</ele><time>2026-08-20T09:13:00Z</time></trkpt><trkpt lat="59.1082679573" lon="30.4823743924"><ele>57.82</ele><time>2026-08-20T09:13:12Z</time></trkpt><trkpt lat="59.1082811169" lon="30.4824032262"><ele>57.82</ele><time>2026-08-20T09:13:29Z</time></trkpt><trkpt lat="59.1082853917" lon="30.4823975265"><ele>57.82</ele><time>2026-08-20T09:13:50Z</time></trkpt><trkpt lat="59.1082708910" lon="30.4824110214"><ele>57.82</ele><time>2026-08-20T09:14:00Z</time></trkpt><trkpt lat="59.1082578991" lon="30.4824269470"><ele>57.82</ele><time>2026-08-20T09:14:10Z</time></trkpt><trkpt lat="59.1082450747" lon="30.4825135320"><ele>57.82</ele><time>2026-08-20T09:14:22Z</time></trkpt><trkpt lat="59.1082576476" lon="30.4825966805"><ele>57.82</ele><time>2026-08-20T09:14:33Z</time></trkpt><trkpt lat="59.1082672030" lon="30.4826415237"><ele>57.82</ele><time>2026-08-20T09:14:45Z</time></trkpt><trkpt lat="59.1082767583" lon="30.4826340638"><ele>57.82</ele><time>2026-08-20T09:14:49Z</time></trkpt><trkpt lat="59.1083452385" lon="30.4825924058"><ele>57.34</ele><time>2026-08-20T09:15:00Z</time></trkpt><trkpt lat="59.1083587334" lon="30.4825773183"><ele>57.34</ele><time>2026-08-20T09:15:18Z</time></trkpt><trkpt lat="59.1083786823" lon="30.4825644102"><ele>57.34</ele><time>2026-08-20T09:15:37Z</time></trkpt><trkpt lat="59.1084029898" lon="30.4825276975"><ele>57.34</ele><time>2026-08-20T09:15:47Z</time></trkpt><trkpt lat="59.1084020678" lon="30.4824447166"><ele>57.34</ele><time>2026-08-20T09:16:16Z</time></trkpt><trkpt lat="59.1084048338" lon="30.4825157113"><ele>57.34</ele><time>2026-08-20T09:16:30Z</time></trkpt><trkpt lat="59.1083910875" lon="30.4825650807"><ele>57.34</ele><time>2026-08-20T09:16:40Z</time></trkpt><trkpt lat="59.1083908360" lon="30.4826503247"><ele>57.34</ele><time>2026-08-20T09:16:51Z</time></trkpt><trkpt lat="59.1084308177" lon="30.4827311262"><ele>57.34</ele><time>2026-08-20T09:17:02Z</time></trkpt><trkpt lat="59.1084634233" lon="30.4828637280"><ele>57.34</ele><time>2026-08-20T09:17:12Z</time></trkpt><trkpt lat="59.1084686201" lon="30.4829181265"><ele>56.86</ele><time>2026-08-20T09:17:32Z</time></trkpt><trkpt lat="59.1084870603" lon="30.4830441065"><ele>56.86</ele><time>2026-08-20T09:17:46Z</time></trkpt><trkpt lat="59.1084748227" lon="30.4832157679"><ele>56.86</ele><time>2026-08-20T09:18:00Z</time></trkpt><trkpt lat="59.1084598191" lon="30.4832449369"><ele>56.86</ele><time>2026-08-20T09:18:03Z</time></trkpt><trkpt lat="59.1084696259" lon="30.4833265767"><ele>56.86</ele><time>2026-08-20T09:18:15Z</time></trkpt><trkpt lat="59.1084336676" lon="30.4834128264"><ele>56.86</ele><time>2026-08-20T09:18:27Z</time></trkpt><trkpt lat="59.1084381100" lon="30.4834444262"><ele>56.86</ele><time>2026-08-20T09:18:39Z</time></trkpt><trkpt lat="59.1084177420" lon="30.4835637845"><ele>56.86</ele><time>2026-08-20T09:18:51Z</time></trkpt><trkpt lat="59.1084054206" lon="30.4835707415"><ele>56.86</ele><time>2026-08-20T09:19:13Z</time></trkpt><trkpt lat="59.1083720606" lon="30.4835941270"><ele>56.86</ele><time>2026-08-20T09:19:51Z</time></trkpt><trkpt lat="59.1083650198" lon="30.4835463502"><ele>56.86</ele><time>2026-08-20T09:20:25Z</time></trkpt><trkpt lat="59.1083711386" lon="30.4835390579"><ele>56.86</ele><time>2026-08-20T09:20:37Z</time></trkpt><trkpt lat="59.1083847173" lon="30.4835337773"><ele>56.86</ele><time>2026-08-20T09:21:02Z</time></trkpt><trkpt lat="59.1083615832" lon="30.4835424107"><ele>56.86</ele><time>2026-08-20T09:21:22Z</time></trkpt><trkpt lat="59.1083222721" lon="30.4836202785"><ele>56.86</ele><time>2026-08-20T09:21:35Z</time></trkpt><trkpt lat="59.1082208510" lon="30.4836080410"><ele>56.86</ele><time>2026-08-20T09:21:48Z</time></trkpt><trkpt lat="59.1081601661" lon="30.4836287443"><ele>56.86</ele><time>2026-08-20T09:21:59Z</time></trkpt><trkpt lat="59.1081208549" lon="30.4836421553"><ele>56.86</ele><time>2026-08-20T09:22:11Z</time></trkpt><trkpt lat="59.1080947872" lon="30.4836421553"><ele>56.86</ele><time>2026-08-20T09:22:25Z</time></trkpt><trkpt lat="59.1080569010" lon="30.4836576618"><ele>56.86</ele><time>2026-08-20T09:22:39Z</time></trkpt><trkpt lat="59.1079863254" lon="30.4836753476"><ele>56.86</ele><time>2026-08-20T09:22:51Z</time></trkpt><trkpt lat="59.1079296637" lon="30.4836707376"><ele>56.86</ele><time>2026-08-20T09:23:04Z</time></trkpt><trkpt lat="59.1078897659" lon="30.4836258106"><ele>56.86</ele><time>2026-08-20T09:23:17Z</time></trkpt><trkpt lat="59.1078584176" lon="30.4836010840"><ele>56.86</ele><time>2026-08-20T09:23:33Z</time></trkpt><trkpt lat="59.1078377143" lon="30.4835887626"><ele>56.86</ele><time>2026-08-20T09:24:00Z</time></trkpt><trkpt lat="59.1078201961" lon="30.4835955519"><ele>56.86</ele><time>2026-08-20T09:24:26Z</time></trkpt><trkpt lat="59.1078155860" lon="30.4836020898"><ele>56.86</ele><time>2026-08-20T09:24:42Z</time></trkpt><trkpt lat="59.1078165919" lon="30.4834800493"><ele>56.86</ele><time>2026-08-20T09:24:55Z</time></trkpt><trkpt lat="59.1078021750" lon="30.4833984934"><ele>56.86</ele><time>2026-08-20T09:25:09Z</time></trkpt><trkpt lat="59.1077984031" lon="30.4833706655"><ele>56.86</ele><time>2026-08-20T09:25:24Z</time></trkpt><trkpt lat="59.1077997442" lon="30.4833572544"><ele>56.86</ele><time>2026-08-20T09:25:45Z</time></trkpt><trkpt lat="59.1077972297" lon="30.4832984135"><ele>56.86</ele><time>2026-08-20T09:26:01Z</time></trkpt><trkpt lat="59.1077960562" lon="30.4832359683"><ele>56.86</ele><time>2026-08-20T09:26:14Z</time></trkpt><trkpt lat="59.1077983193" lon="30.4831921309"><ele>56.86</ele><time>2026-08-20T09:26:28Z</time></trkpt><trkpt lat="59.1077986546" lon="30.4830917995"><ele>56.86</ele><time>2026-08-20T09:26:41Z</time></trkpt><trkpt lat="59.1077688988" lon="30.4829483852"><ele>56.86</ele><time>2026-08-20T09:26:55Z</time></trkpt><trkpt lat="59.1077445913" lon="30.4827913921"><ele>56.86</ele><time>2026-08-20T09:27:05Z</time></trkpt><trkpt lat="59.1077091359" lon="30.4825173039"><ele>56.37</ele><time>2026-08-20T09:27:19Z</time></trkpt><trkpt lat="59.1077118181" lon="30.4824116919"><ele>56.37</ele><time>2026-08-20T09:27:33Z</time></trkpt><trkpt lat="59.1077098064" lon="30.4823407810"><ele>56.37</ele><time>2026-08-20T09:27:36Z</time></trkpt><trkpt lat="59.1076922882" lon="30.4820288066"><ele>56.37</ele><time>2026-08-20T09:27:46Z</time></trkpt><trkpt lat="59.1076473612" lon="30.4818000644"><ele>56.37</ele><time>2026-08-20T09:27:59Z</time></trkpt><trkpt lat="59.1076343693" lon="30.4816719890"><ele>56.37</ele><time>2026-08-20T09:28:12Z</time></trkpt><trkpt lat="59.1076383088" lon="30.4815574922"><ele>56.37</ele><time>2026-08-20T09:28:25Z</time></trkpt><trkpt lat="59.1076252330" lon="30.4812946357"><ele>56.37</ele><time>2026-08-20T09:28:38Z</time></trkpt><trkpt lat="59.1076380573" lon="30.4811732657"><ele>56.37</ele><time>2026-08-20T09:28:49Z</time></trkpt><trkpt lat="59.1076435894" lon="30.4810913745"><ele>56.37</ele><time>2026-08-20T09:29:02Z</time></trkpt><trkpt lat="59.1076811403" lon="30.4809935577"><ele>55.89</ele><time>2026-08-20T09:29:14Z</time></trkpt><trkpt lat="59.1077098902" lon="30.4809171148"><ele>55.89</ele><time>2026-08-20T09:29:29Z</time></trkpt><trkpt lat="59.1076982394" lon="30.4808219802"><ele>55.89</ele><time>2026-08-20T09:29:43Z</time></trkpt><trkpt lat="59.1077262349" lon="30.4807684198"><ele>55.89</ele><time>2026-08-20T09:30:10Z</time></trkpt><trkpt lat="59.1077247262" lon="30.4805776477"><ele>55.89</ele><time>2026-08-20T09:30:23Z</time></trkpt><trkpt lat="59.1077052802" lon="30.4804128595"><ele>55.89</ele><time>2026-08-20T09:30:37Z</time></trkpt><trkpt lat="59.1077468544" lon="30.4802137055"><ele>55.89</ele><time>2026-08-20T09:30:51Z</time></trkpt><trkpt lat="59.1076613590" lon="30.4800473247"><ele>55.89</ele><time>2026-08-20T09:31:03Z</time></trkpt><trkpt lat="59.1076387279" lon="30.4798547085"><ele>55.89</ele><time>2026-08-20T09:31:16Z</time></trkpt><trkpt lat="59.1076321062" lon="30.4796439037"><ele>55.89</ele><time>2026-08-20T09:31:29Z</time></trkpt><trkpt lat="59.1076327767" lon="30.4795491882"><ele>55.89</ele><time>2026-08-20T09:31:42Z</time></trkpt><trkpt lat="59.1076437570" lon="30.4793724976"><ele>55.89</ele><time>2026-08-20T09:31:55Z</time></trkpt><trkpt lat="59.1076334473" lon="30.4792271554"><ele>55.89</ele><time>2026-08-20T09:32:08Z</time></trkpt><trkpt lat="59.1076293401" lon="30.4791096412"><ele>55.89</ele><time>2026-08-20T09:32:21Z</time></trkpt><trkpt lat="59.1076327767" lon="30.4790623672"><ele>55.89</ele><time>2026-08-20T09:32:40Z</time></trkpt><trkpt lat="59.1076104809" lon="30.4789714236"><ele>55.89</ele><time>2026-08-20T09:32:53Z</time></trkpt><trkpt lat="59.1076046135" lon="30.4788174480"><ele>55.89</ele><time>2026-08-20T09:33:07Z</time></trkpt><trkpt lat="59.1075983271" lon="30.4786787275"><ele>55.89</ele><time>2026-08-20T09:33:22Z</time></trkpt><trkpt lat="59.1076342016" lon="30.4784934036"><ele>55.89</ele><time>2026-08-20T09:33:35Z</time></trkpt><trkpt lat="59.1076117381" lon="30.4783721175"><ele>55.89</ele><time>2026-08-20T09:33:52Z</time></trkpt><trkpt lat="59.1076208744" lon="30.4782647453"><ele>55.89</ele><time>2026-08-20T09:34:04Z</time></trkpt><trkpt lat="59.1075567529" lon="30.4780484084"><ele>55.89</ele><time>2026-08-20T09:34:17Z</time></trkpt><trkpt lat="59.1075216327" lon="30.4778096918"><ele>55.89</ele><time>2026-08-20T09:34:32Z</time></trkpt><trkpt lat="59.1075150110" lon="30.4776476696"><ele>55.89</ele><time>2026-08-20T09:34:47Z</time></trkpt><trkpt lat="59.1075010970" lon="30.4776038323"><ele>55.89</ele><time>2026-08-20T09:35:08Z</time></trkpt><trkpt lat="59.1074906196" lon="30.4775525350"><ele>55.89</ele><time>2026-08-20T09:35:27Z</time></trkpt><trkpt lat="59.1075207945" lon="30.4775145650"><ele>55.89</ele><time>2026-08-20T09:35:50Z</time></trkpt><trkpt lat="59.1075031087" lon="30.4774221964"><ele>54.93</ele><time>2026-08-20T09:36:12Z</time></trkpt><trkpt lat="59.1075160168" lon="30.4773639422"><ele>54.93</ele><time>2026-08-20T09:36:24Z</time></trkpt><trkpt lat="59.1075553279" lon="30.4773353599"><ele>54.93</ele><time>2026-08-20T09:36:48Z</time></trkpt><trkpt lat="59.1075596865" lon="30.4773239605"><ele>54.93</ele><time>2026-08-20T09:37:03Z</time></trkpt><trkpt lat="59.1075688228" lon="30.4773116391"><ele>54.93</ele><time>2026-08-20T09:37:27Z</time></trkpt><trkpt lat="59.1075751092" lon="30.4772940371"><ele>54.45</ele><time>2026-08-20T09:37:58Z</time></trkpt><trkpt lat="59.1075854190" lon="30.4772736691"><ele>54.45</ele><time>2026-08-20T09:38:15Z</time></trkpt><trkpt lat="59.1076366324" lon="30.4771811329"><ele>54.45</ele><time>2026-08-20T09:38:26Z</time></trkpt><trkpt lat="59.1076325253" lon="30.4771941248"><ele>54.45</ele><time>2026-08-20T09:38:40Z</time></trkpt><trkpt lat="59.1076414101" lon="30.4771657940"><ele>54.45</ele><time>2026-08-20T09:39:02Z</time></trkpt><trkpt lat="59.1076548211" lon="30.4771213699"><ele>54.45</ele><time>2026-08-20T09:39:15Z</time></trkpt><trkpt lat="59.1076218802" lon="30.4770228826"><ele>54.45</ele><time>2026-08-20T09:39:25Z</time></trkpt><trkpt lat="59.1075982433" lon="30.4768603574"><ele>54.45</ele><time>2026-08-20T09:39:36Z</time></trkpt><trkpt lat="59.1075558309" lon="30.4767559189"><ele>54.45</ele><time>2026-08-20T09:39:48Z</time></trkpt><trkpt lat="59.1075260751" lon="30.4765736125"><ele>54.45</ele><time>2026-08-20T09:40:00Z</time></trkpt><trkpt lat="59.1074918769" lon="30.4764445312"><ele>54.45</ele><time>2026-08-20T09:40:16Z</time></trkpt><trkpt lat="59.1074739397" lon="30.4763250053"><ele>54.45</ele><time>2026-08-20T09:40:26Z</time></trkpt><trkpt lat="59.1074772924" lon="30.4761792440"><ele>54.45</ele><time>2026-08-20T09:40:37Z</time></trkpt><trkpt lat="59.1074352991" lon="30.4760380089"><ele>54.45</ele><time>2026-08-20T09:40:51Z</time></trkpt><trkpt lat="59.1073916294" lon="30.4759359173"><ele>54.45</ele><time>2026-08-20T09:41:02Z</time></trkpt><trkpt lat="59.1073151026" lon="30.4758515954"><ele>54.45</ele><time>2026-08-20T09:41:13Z</time></trkpt><trkpt lat="59.1073102411" lon="30.4758577142"><ele>54.45</ele><time>2026-08-20T09:41:34Z</time></trkpt><trkpt lat="59.1072925553" lon="30.4758556187"><ele>54.45</ele><time>2026-08-20T09:41:51Z</time></trkpt><trkpt lat="59.1072879452" lon="30.4758401960"><ele>54.45</ele><time>2026-08-20T09:41:56Z</time></trkpt><trkpt lat="59.1072378214" lon="30.4757833667"><ele>54.45</ele><time>2026-08-20T09:42:08Z</time></trkpt><trkpt lat="59.1071990132" lon="30.4757279623"><ele>54.45</ele><time>2026-08-20T09:42:20Z</time></trkpt><trkpt lat="59.1071554273" lon="30.4757049959"><ele>54.45</ele><time>2026-08-20T09:42:30Z</time></trkpt><trkpt lat="59.1071331315" lon="30.4756944347"><ele>54.45</ele><time>2026-08-20T09:42:50Z</time></trkpt><trkpt lat="59.1071185470" lon="30.4756425507"><ele>54.45</ele><time>2026-08-20T09:43:16Z</time></trkpt><trkpt lat="59.1071032081" lon="30.4755211808"><ele>54.45</ele><time>2026-08-20T09:43:29Z</time></trkpt><trkpt lat="59.1070705187" lon="30.4754626751"><ele>54.93</ele><time>2026-08-20T09:43:41Z</time></trkpt><trkpt lat="59.1070473846" lon="30.4753998108"><ele>54.93</ele><time>2026-08-20T09:43:54Z</time></trkpt><trkpt lat="59.1070596222" lon="30.4752338491"><ele>54.93</ele><time>2026-08-20T09:44:08Z</time></trkpt><trkpt lat="59.1071229894" lon="30.4750797059"><ele>54.93</ele><time>2026-08-20T09:44:21Z</time></trkpt><trkpt lat="59.1071102489" lon="30.4750169255"><ele>54.45</ele><time>2026-08-20T09:44:33Z</time></trkpt><trkpt lat="59.1070700157" lon="30.4748855811"><ele>54.45</ele><time>2026-08-20T09:44:46Z</time></trkpt><trkpt lat="59.1070829239" lon="30.4747356288"><ele>54.45</ele><time>2026-08-20T09:44:58Z</time></trkpt><trkpt lat="59.1070641484" lon="30.4747143388"><ele>54.45</ele><time>2026-08-20T09:45:26Z</time></trkpt><trkpt lat="59.1070117615" lon="30.4747469444"><ele>54.45</ele><time>2026-08-20T09:45:43Z</time></trkpt><trkpt lat="59.1070006136" lon="30.4747505486"><ele>53.97</ele><time>2026-08-20T09:46:03Z</time></trkpt><trkpt lat="59.1069711093" lon="30.4747767840"><ele>54.93</ele><time>2026-08-20T09:46:18Z</time></trkpt><trkpt lat="59.1069355700" lon="30.4747855011"><ele>54.93</ele><time>2026-08-20T09:46:27Z</time></trkpt><trkpt lat="59.1068919841" lon="30.4747958109"><ele>54.93</ele><time>2026-08-20T09:46:38Z</time></trkpt><trkpt lat="59.1068442911" lon="30.4748108145"><ele>54.93</ele><time>2026-08-20T09:46:52Z</time></trkpt><trkpt lat="59.1067498270" lon="30.4748048633"><ele>54.93</ele><time>2026-08-20T09:47:04Z</time></trkpt><trkpt lat="59.1067282856" lon="30.4747751076"><ele>54.93</ele><time>2026-08-20T09:47:14Z</time></trkpt><trkpt lat="59.1066774912" lon="30.4747932963"><ele>54.93</ele><time>2026-08-20T09:47:28Z</time></trkpt><trkpt lat="59.1066450533" lon="30.4747812264"><ele>54.93</ele><time>2026-08-20T09:47:46Z</time></trkpt><trkpt lat="59.1066335700" lon="30.4747941345"><ele>54.93</ele><time>2026-08-20T09:48:17Z</time></trkpt><trkpt lat="59.1066387668" lon="30.4747824837"><ele>54.93</ele><time>2026-08-20T09:48:49Z</time></trkpt><trkpt lat="59.1066246014" lon="30.4747805558"><ele>54.93</ele><time>2026-08-20T09:49:12Z</time></trkpt><trkpt lat="59.1066214163" lon="30.4747809749"><ele>54.93</ele><time>2026-08-20T09:49:35Z</time></trkpt><trkpt lat="59.1066225898" lon="30.4747905303"><ele>54.93</ele><time>2026-08-20T09:49:51Z</time></trkpt><trkpt lat="59.1066152137" lon="30.4748012591"><ele>54.93</ele><time>2026-08-20T09:50:05Z</time></trkpt><trkpt lat="59.1066043172" lon="30.4748417437"><ele>54.93</ele><time>2026-08-20T09:50:26Z</time></trkpt><trkpt lat="59.1065990366" lon="30.4748981539"><ele>54.93</ele><time>2026-08-20T09:50:36Z</time></trkpt><trkpt lat="59.1065853741" lon="30.4750285763"><ele>54.93</ele><time>2026-08-20T09:50:46Z</time></trkpt><trkpt lat="59.1065693647" lon="30.4752002377"><ele>54.93</ele><time>2026-08-20T09:50:57Z</time></trkpt><trkpt lat="59.1065572109" lon="30.4753501900"><ele>54.93</ele><time>2026-08-20T09:51:09Z</time></trkpt><trkpt lat="59.1065457277" lon="30.4755324963"><ele>54.93</ele><time>2026-08-20T09:51:21Z</time></trkpt><trkpt lat="59.1065732203" lon="30.4756667744"><ele>54.93</ele><time>2026-08-20T09:51:32Z</time></trkpt><trkpt lat="59.1065957677" lon="30.4757371824"><ele>54.93</ele><time>2026-08-20T09:51:43Z</time></trkpt><trkpt lat="59.1066894773" lon="30.4758498352"><ele>54.93</ele><time>2026-08-20T09:51:56Z</time></trkpt><trkpt lat="59.1067100968" lon="30.4759113584"><ele>54.93</ele><time>2026-08-20T09:52:02Z</time></trkpt><trkpt lat="59.1067430377" lon="30.4760735482"><ele>54.93</ele><time>2026-08-20T09:52:15Z</time></trkpt><trkpt lat="59.1067796666" lon="30.4762125202"><ele>54.93</ele><time>2026-08-20T09:52:27Z</time></trkpt><trkpt lat="59.1068099253" lon="30.4763398413"><ele>54.93</ele><time>2026-08-20T09:52:39Z</time></trkpt><trkpt lat="59.1068351548" lon="30.4763768055"><ele>54.93</ele><time>2026-08-20T09:52:49Z</time></trkpt><trkpt lat="59.1068349034" lon="30.4763830919"><ele>54.93</ele><time>2026-08-20T09:52:51Z</time></trkpt><trkpt lat="59.1068845242" lon="30.4765234888"><ele>54.93</ele><time>2026-08-20T09:53:06Z</time></trkpt><trkpt lat="59.1068772320" lon="30.4766616225"><ele>54.93</ele><time>2026-08-20T09:53:17Z</time></trkpt><trkpt lat="59.1068981029" lon="30.4767222237"><ele>54.93</ele><time>2026-08-20T09:53:29Z</time></trkpt><trkpt lat="59.1069523338" lon="30.4768078029"><ele>54.45</ele><time>2026-08-20T09:53:39Z</time></trkpt><trkpt lat="59.1069549322" lon="30.4768992495"><ele>54.93</ele><time>2026-08-20T09:53:50Z</time></trkpt><trkpt lat="59.1069393419" lon="30.4770185240"><ele>54.45</ele><time>2026-08-20T09:54:04Z</time></trkpt><trkpt lat="59.1069694329" lon="30.4770867527"><ele>54.45</ele><time>2026-08-20T09:54:14Z</time></trkpt><trkpt lat="59.1069831792" lon="30.4771860782"><ele>54.45</ele><time>2026-08-20T09:54:27Z</time></trkpt><trkpt lat="59.1069967579" lon="30.4772221204"><ele>54.45</ele><time>2026-08-20T09:54:38Z</time></trkpt><trkpt lat="59.1069785692" lon="30.4773172550"><ele>54.45</ele><time>2026-08-20T09:54:53Z</time></trkpt><trkpt lat="59.1069541778" lon="30.4773294087"><ele>54.45</ele><time>2026-08-20T09:55:17Z</time></trkpt><trkpt lat="59.1069506574" lon="30.4773952067"><ele>55.41</ele><time>2026-08-20T09:55:29Z</time></trkpt><trkpt lat="59.1069324687" lon="30.4774198495"><ele>55.41</ele><time>2026-08-20T09:55:39Z</time></trkpt><trkpt lat="59.1069447063" lon="30.4775259644"><ele>55.41</ele><time>2026-08-20T09:55:52Z</time></trkpt><trkpt lat="59.1069500707" lon="30.4776094481"><ele>55.41</ele><time>2026-08-20T09:56:02Z</time></trkpt><trkpt lat="59.1069359891" lon="30.4776556324"><ele>55.41</ele><time>2026-08-20T09:56:09Z</time></trkpt><trkpt lat="59.1069573630" lon="30.4777469952"><ele>55.41</ele><time>2026-08-20T09:56:18Z</time></trkpt><trkpt lat="59.1069706064" lon="30.4778190795"><ele>55.41</ele><time>2026-08-20T09:56:31Z</time></trkpt><trkpt lat="59.1069751326" lon="30.4778305627"><ele>55.41</ele><time>2026-08-20T09:56:51Z</time></trkpt><trkpt lat="59.1069763899" lon="30.4778414592"><ele>55.41</ele><time>2026-08-20T09:57:15Z</time></trkpt><trkpt lat="59.1069675889" lon="30.4778597318"><ele>55.41</ele><time>2026-08-20T09:57:43Z</time></trkpt><trkpt lat="59.1069450416" lon="30.4779468197"><ele>55.41</ele><time>2026-08-20T09:57:53Z</time></trkpt><trkpt lat="59.1069361567" lon="30.4780328181"><ele>55.41</ele><time>2026-08-20T09:58:04Z</time></trkpt><trkpt lat="59.1069321334" lon="30.4780556168"><ele>55.41</ele><time>2026-08-20T09:58:10Z</time></trkpt><trkpt lat="59.1069491487" lon="30.4781391844"><ele>55.41</ele><time>2026-08-20T09:58:20Z</time></trkpt><trkpt lat="59.1069593746" lon="30.4781504162"><ele>55.41</ele><time>2026-08-20T09:58:29Z</time></trkpt><trkpt lat="59.1069850232" lon="30.4782147892"><ele>55.41</ele><time>2026-08-20T09:58:41Z</time></trkpt><trkpt lat="59.1069810838" lon="30.4783119354"><ele>55.41</ele><time>2026-08-20T09:58:52Z</time></trkpt><trkpt lat="59.1069783177" lon="30.4784008674"><ele>55.41</ele><time>2026-08-20T09:59:02Z</time></trkpt><trkpt lat="59.1069690138" lon="30.4784929007"><ele>55.41</ele><time>2026-08-20T09:59:14Z</time></trkpt><trkpt lat="59.1069821734" lon="30.4787023645"><ele>55.41</ele><time>2026-08-20T09:59:28Z</time></trkpt><trkpt lat="59.1070124321" lon="30.4787830822"><ele>54.93</ele><time>2026-08-20T09:59:41Z</time></trkpt><trkpt lat="59.1070189700" lon="30.4788303562"><ele>54.93</ele><time>2026-08-20T09:59:46Z</time></trkpt><trkpt lat="59.1070907190" lon="30.4789573420"><ele>54.93</ele><time>2026-08-20T09:59:57Z</time></trkpt><trkpt lat="59.1071180440" lon="30.4791113175"><ele>54.93</ele><time>2026-08-20T10:00:10Z</time></trkpt><trkpt lat="59.1071545053" lon="30.4792792909"><ele>54.93</ele><time>2026-08-20T10:00:22Z</time></trkpt><trkpt lat="59.1071155295" lon="30.4793969728"><ele>54.93</ele><time>2026-08-20T10:00:32Z</time></trkpt><trkpt lat="59.1070752125" lon="30.4794853181"><ele>54.93</ele><time>2026-08-20T10:00:48Z</time></trkpt><trkpt lat="59.1070063971" lon="30.4796302412"><ele>54.93</ele><time>2026-08-20T10:00:59Z</time></trkpt><trkpt lat="59.1069799103" lon="30.4797634296"><ele>54.93</ele><time>2026-08-20T10:01:10Z</time></trkpt><trkpt lat="59.1069389228" lon="30.4798580613"><ele>54.93</ele><time>2026-08-20T10:01:20Z</time></trkpt><trkpt lat="59.1069359053" lon="30.4798679519"><ele>54.93</ele><time>2026-08-20T10:01:22Z</time></trkpt><trkpt lat="59.1069157049" lon="30.4799009766"><ele>54.93</ele><time>2026-08-20T10:01:33Z</time></trkpt><trkpt lat="59.1068703588" lon="30.4799521063"><ele>54.93</ele><time>2026-08-20T10:01:47Z</time></trkpt><trkpt lat="59.1068540141" lon="30.4800376855"><ele>54.93</ele><time>2026-08-20T10:01:59Z</time></trkpt><trkpt lat="59.1068501584" lon="30.4800489172"><ele>54.93</ele><time>2026-08-20T10:02:00Z</time></trkpt><trkpt lat="59.1068279464" lon="30.4801934212"><ele>54.93</ele><time>2026-08-20T10:02:12Z</time></trkpt><trkpt lat="59.1068477277" lon="30.4802851193"><ele>54.93</ele><time>2026-08-20T10:02:21Z</time></trkpt><trkpt lat="59.1068443749" lon="30.4803533480"><ele>54.93</ele><time>2026-08-20T10:02:32Z</time></trkpt><trkpt lat="59.1068760585" lon="30.4805272724"><ele>54.93</ele><time>2026-08-20T10:02:46Z</time></trkpt><trkpt lat="59.1069086641" lon="30.4806638137"><ele>54.93</ele><time>2026-08-20T10:02:56Z</time></trkpt><trkpt lat="59.1069016233" lon="30.4807113390"><ele>54.93</ele><time>2026-08-20T10:03:05Z</time></trkpt><trkpt lat="59.1068983544" lon="30.4807348084"><ele>54.93</ele><time>2026-08-20T10:03:07Z</time></trkpt><trkpt lat="59.1069195606" lon="30.4809603654"><ele>54.93</ele><time>2026-08-20T10:03:18Z</time></trkpt><trkpt lat="59.1069536749" lon="30.4810949787"><ele>54.93</ele><time>2026-08-20T10:03:29Z</time></trkpt><trkpt lat="59.1069690976" lon="30.4811264947"><ele>54.93</ele><time>2026-08-20T10:03:36Z</time></trkpt><trkpt lat="59.1069811676" lon="30.4812171031"><ele>54.93</ele><time>2026-08-20T10:03:47Z</time></trkpt><trkpt lat="59.1069947463" lon="30.4813075438"><ele>54.93</ele><time>2026-08-20T10:03:58Z</time></trkpt><trkpt lat="59.1069951653" lon="30.4814069532"><ele>54.45</ele><time>2026-08-20T10:04:08Z</time></trkpt><trkpt lat="59.1069883760" lon="30.4815441649"><ele>54.45</ele><time>2026-08-20T10:04:21Z</time></trkpt><trkpt lat="59.1069760546" lon="30.4816803709"><ele>54.45</ele><time>2026-08-20T10:04:33Z</time></trkpt><trkpt lat="59.1069678403" lon="30.4817787744"><ele>53.97</ele><time>2026-08-20T10:04:48Z</time></trkpt><trkpt lat="59.1069420241" lon="30.4820455704"><ele>53.49</ele><time>2026-08-20T10:05:03Z</time></trkpt><trkpt lat="59.1069470532" lon="30.4822325706"><ele>53.49</ele><time>2026-08-20T10:05:13Z</time></trkpt><trkpt lat="59.1069752164" lon="30.4823447205"><ele>53.49</ele><time>2026-08-20T10:05:26Z</time></trkpt><trkpt lat="59.1069711931" lon="30.4823745601"><ele>53.01</ele><time>2026-08-20T10:05:43Z</time></trkpt><trkpt lat="59.1070141084" lon="30.4823879711"><ele>52.53</ele><time>2026-08-20T10:06:05Z</time></trkpt><trkpt lat="59.1070526652" lon="30.4824370053"><ele>52.53</ele><time>2026-08-20T10:06:16Z</time></trkpt><trkpt lat="59.1070822533" lon="30.4825375043"><ele>52.05</ele><time>2026-08-20T10:06:29Z</time></trkpt><trkpt lat="59.1070829239" lon="30.4826347344"><ele>52.05</ele><time>2026-08-20T10:06:43Z</time></trkpt><trkpt lat="59.1071113385" lon="30.4827546794"><ele>52.05</ele><time>2026-08-20T10:06:54Z</time></trkpt><trkpt lat="59.1071392503" lon="30.4828411806"><ele>51.57</ele><time>2026-08-20T10:07:05Z</time></trkpt><trkpt lat="59.1071572714" lon="30.4830563441"><ele>51.57</ele><time>2026-08-20T10:07:19Z</time></trkpt><trkpt lat="59.1072011925" lon="30.4831389897"><ele>51.57</ele><time>2026-08-20T10:07:35Z</time></trkpt><trkpt lat="59.1072327923" lon="30.4832912050"><ele>51.57</ele><time>2026-08-20T10:07:47Z</time></trkpt><trkpt lat="59.1072627995" lon="30.4834038578"><ele>51.09</ele><time>2026-08-20T10:08:04Z</time></trkpt><trkpt lat="59.1072528251" lon="30.4835150018"><ele>51.09</ele><time>2026-08-20T10:08:17Z</time></trkpt><trkpt lat="59.1072411742" lon="30.4836010002"><ele>51.09</ele><time>2026-08-20T10:08:27Z</time></trkpt><trkpt lat="59.1072244942" lon="30.4837032594"><ele>51.09</ele><time>2026-08-20T10:08:42Z</time></trkpt><trkpt lat="59.1072216444" lon="30.4837356135"><ele>51.09</ele><time>2026-08-20T10:09:06Z</time></trkpt><trkpt lat="59.1072215606" lon="30.4837161675"><ele>51.09</ele><time>2026-08-20T10:09:20Z</time></trkpt><trkpt lat="59.1072127596" lon="30.4836918600"><ele>51.09</ele><time>2026-08-20T10:09:44Z</time></trkpt><trkpt lat="59.1071890388" lon="30.4837030917"><ele>51.57</ele><time>2026-08-20T10:10:08Z</time></trkpt><trkpt lat="59.1071680840" lon="30.4837082047"><ele>51.57</ele><time>2026-08-20T10:10:32Z</time></trkpt><trkpt lat="59.1071530804" lon="30.4837044328"><ele>51.57</ele><time>2026-08-20T10:10:45Z</time></trkpt><trkpt lat="59.1070857737" lon="30.4837507010"><ele>51.57</ele><time>2026-08-20T10:10:59Z</time></trkpt><trkpt lat="59.1070470493" lon="30.4837679677"><ele>51.57</ele><time>2026-08-20T10:11:10Z</time></trkpt><trkpt lat="59.1069815028" lon="30.4837967176"><ele>51.57</ele><time>2026-08-20T10:11:22Z</time></trkpt><trkpt lat="59.1069464665" lon="30.4837949574"><ele>51.57</ele><time>2026-08-20T10:11:33Z</time></trkpt><trkpt lat="59.1068794113" lon="30.4837967176"><ele>51.57</ele><time>2026-08-20T10:11:44Z</time></trkpt><trkpt lat="59.1067912336" lon="30.4838831350"><ele>50.61</ele><time>2026-08-20T10:11:57Z</time></trkpt><trkpt lat="59.1067438759" lon="30.4838692211"><ele>50.61</ele><time>2026-08-20T10:12:07Z</time></trkpt><trkpt lat="59.1066930816" lon="30.4838052671"><ele>50.61</ele><time>2026-08-20T10:12:20Z</time></trkpt><trkpt lat="59.1066481546" lon="30.4838258028"><ele>50.61</ele><time>2026-08-20T10:12:33Z</time></trkpt><trkpt lat="59.1066395212" lon="30.4838525411"><ele>50.61</ele><time>2026-08-20T10:12:56Z</time></trkpt><trkpt lat="59.1066423710" lon="30.4838156607"><ele>50.61</ele><time>2026-08-20T10:13:20Z</time></trkpt><trkpt lat="59.1065727174" lon="30.4836847354"><ele>50.61</ele><time>2026-08-20T10:13:29Z</time></trkpt><trkpt lat="59.1065922473" lon="30.4836160038"><ele>50.61</ele><time>2026-08-20T10:13:43Z</time></trkpt><trkpt lat="59.1065677721" lon="30.4835085478"><ele>50.61</ele><time>2026-08-20T10:13:56Z</time></trkpt><trkpt lat="59.1065420397" lon="30.4833056219"><ele>50.61</ele><time>2026-08-20T10:14:13Z</time></trkpt><trkpt lat="59.1065819375" lon="30.4832295980"><ele>50.61</ele><time>2026-08-20T10:14:25Z</time></trkpt><trkpt lat="59.1066004615" lon="30.4831461981"><ele>50.61</ele><time>2026-08-20T10:14:35Z</time></trkpt><trkpt lat="59.1066494118" lon="30.4830700904"><ele>50.61</ele><time>2026-08-20T10:14:50Z</time></trkpt><trkpt lat="59.1067253519" lon="30.4829481337"><ele>50.61</ele><time>2026-08-20T10:15:01Z</time></trkpt><trkpt lat="59.1068063211" lon="30.4829312861"><ele>50.61</ele><time>2026-08-20T10:15:12Z</time></trkpt><trkpt lat="59.1068509966" lon="30.4829230718"><ele>50.61</ele><time>2026-08-20T10:15:28Z</time></trkpt><trkpt lat="59.1069098376" lon="30.4828786477"><ele>50.61</ele><time>2026-08-20T10:15:38Z</time></trkpt><trkpt lat="59.1069509089" lon="30.4828179628"><ele>50.61</ele><time>2026-08-20T10:15:51Z</time></trkpt><trkpt lat="59.1069835145" lon="30.4827690963"><ele>50.61</ele><time>2026-08-20T10:16:05Z</time></trkpt><trkpt lat="59.1069780663" lon="30.4827429447"><ele>50.61</ele><time>2026-08-20T10:16:21Z</time></trkpt><trkpt lat="59.1069743782" lon="30.4827312939"><ele>50.61</ele><time>2026-08-20T10:16:29Z</time></trkpt><trkpt lat="59.1069418564" lon="30.4826619755"><ele>50.61</ele><time>2026-08-20T10:16:42Z</time></trkpt><trkpt lat="59.1069390066" lon="30.4826595448"><ele>50.61</ele><time>2026-08-20T10:16:43Z</time></trkpt><trkpt lat="59.1069047246" lon="30.4825981893"><ele>50.61</ele><time>2026-08-20T10:16:54Z</time></trkpt><trkpt lat="59.1068306286" lon="30.4825277813"><ele>50.61</ele><time>2026-08-20T10:17:05Z</time></trkpt><trkpt lat="59.1067615617" lon="30.4824766517"><ele>50.61</ele><time>2026-08-20T10:17:15Z</time></trkpt><trkpt lat="59.1067648306" lon="30.4823228437"><ele>50.61</ele><time>2026-08-20T10:17:29Z</time></trkpt><trkpt lat="59.1067090072" lon="30.4821707122"><ele>50.61</ele><time>2026-08-20T10:17:42Z</time></trkpt><trkpt lat="59.1067195684" lon="30.4820355121"><ele>50.61</ele><time>2026-08-20T10:17:53Z</time></trkpt><trkpt lat="59.1066785809" lon="30.4819107894"><ele>50.61</ele><time>2026-08-20T10:18:04Z</time></trkpt><trkpt lat="59.1066540219" lon="30.4818615038"><ele>50.61</ele><time>2026-08-20T10:18:15Z</time></trkpt><trkpt lat="59.1065809317" lon="30.4817864019"><ele>50.61</ele><time>2026-08-20T10:18:28Z</time></trkpt><trkpt lat="59.1065615695" lon="30.4817269742"><ele>50.61</ele><time>2026-08-20T10:18:39Z</time></trkpt><trkpt lat="59.1065458953" lon="30.4815953784"><ele>50.61</ele><time>2026-08-20T10:18:49Z</time></trkpt><trkpt lat="59.1065123677" lon="30.4814637825"><ele>50.61</ele><time>2026-08-20T10:18:57Z</time></trkpt><trkpt lat="59.1064621601" lon="30.4813100584"><ele>50.61</ele><time>2026-08-20T10:19:09Z</time></trkpt><trkpt lat="59.1064391937" lon="30.4812810570"><ele>50.61</ele><time>2026-08-20T10:19:32Z</time></trkpt><trkpt lat="59.1064812709" lon="30.4811419174"><ele>50.61</ele><time>2026-08-20T10:19:43Z</time></trkpt><trkpt lat="59.1064495873" lon="30.4809090681"><ele>50.61</ele><time>2026-08-20T10:19:57Z</time></trkpt><trkpt lat="59.1064598132" lon="30.4807782266"><ele>50.61</ele><time>2026-08-20T10:20:09Z</time></trkpt><trkpt lat="59.1064552870" lon="30.4806392547"><ele>50.61</ele><time>2026-08-20T10:20:22Z</time></trkpt><trkpt lat="59.1064399481" lon="30.4805762228"><ele>50.61</ele><time>2026-08-20T10:20:32Z</time></trkpt><trkpt lat="59.1064351704" lon="30.4805190582"><ele>50.61</ele><time>2026-08-20T10:20:46Z</time></trkpt><trkpt lat="59.1064302251" lon="30.4804233368"><ele>50.61</ele><time>2026-08-20T10:20:54Z</time></trkpt><trkpt lat="59.1064267047" lon="30.4803664237"><ele>50.61</ele><time>2026-08-20T10:20:57Z</time></trkpt><trkpt lat="59.1064490005" lon="30.4802032281"><ele>50.61</ele><time>2026-08-20T10:21:10Z</time></trkpt><trkpt lat="59.1064494196" lon="30.4801381845"><ele>50.61</ele><time>2026-08-20T10:21:17Z</time></trkpt><trkpt lat="59.1064381879" lon="30.4801144637"><ele>50.61</ele><time>2026-08-20T10:21:19Z</time></trkpt><trkpt lat="59.1064525209" lon="30.4800541978"><ele>50.61</ele><time>2026-08-20T10:21:29Z</time></trkpt><trkpt lat="59.1064574663" lon="30.4800444748"><ele>50.61</ele><time>2026-08-20T10:21:31Z</time></trkpt><trkpt lat="59.1064646747" lon="30.4799887352"><ele>50.61</ele><time>2026-08-20T10:21:41Z</time></trkpt><trkpt lat="59.1064739786" lon="30.4799918365"><ele>50.61</ele><time>2026-08-20T10:21:50Z</time></trkpt><trkpt lat="59.1065158881" lon="30.4799447302"><ele>50.61</ele><time>2026-08-20T10:22:02Z</time></trkpt><trkpt lat="59.1065493319" lon="30.4798885714"><ele>50.61</ele><time>2026-08-20T10:22:12Z</time></trkpt><trkpt lat="59.1065629944" lon="30.4798062611"><ele>50.61</ele><time>2026-08-20T10:22:24Z</time></trkpt><trkpt lat="59.1065321490" lon="30.4796885792"><ele>50.61</ele><time>2026-08-20T10:22:35Z</time></trkpt><trkpt lat="59.1064880602" lon="30.4796156567"><ele>50.61</ele><time>2026-08-20T10:22:47Z</time></trkpt><trkpt lat="59.1064361762" lon="30.4796031676"><ele>50.61</ele><time>2026-08-20T10:22:57Z</time></trkpt><trkpt lat="59.1064163111" lon="30.4794982262"><ele>50.61</ele><time>2026-08-20T10:23:09Z</time></trkpt><trkpt lat="59.1063681152" lon="30.4793829750"><ele>50.61</ele><time>2026-08-20T10:23:22Z</time></trkpt><trkpt lat="59.1063394491" lon="30.4792790394"><ele>50.61</ele><time>2026-08-20T10:23:33Z</time></trkpt><trkpt lat="59.1063319892" lon="30.4792766087"><ele>50.61</ele><time>2026-08-20T10:23:57Z</time></trkpt><trkpt lat="59.1063247807" lon="30.4792425781"><ele>50.13</ele><time>2026-08-20T10:24:22Z</time></trkpt><trkpt lat="59.1063168179" lon="30.4792279098"><ele>51.09</ele><time>2026-08-20T10:24:52Z</time></trkpt><trkpt lat="59.1063148901" lon="30.4792274907"><ele>51.09</ele><time>2026-08-20T10:25:10Z</time></trkpt><trkpt lat="59.1063164826" lon="30.4792230483"><ele>51.09</ele><time>2026-08-20T10:25:11Z</time></trkpt><trkpt lat="59.1063679475" lon="30.4791547358"><ele>51.09</ele><time>2026-08-20T10:25:22Z</time></trkpt><trkpt lat="59.1063553747" lon="30.4791253153"><ele>51.09</ele><time>2026-08-20T10:25:39Z</time></trkpt><trkpt lat="59.1063622478" lon="30.4790711682"><ele>51.09</ele><time>2026-08-20T10:25:53Z</time></trkpt><trkpt lat="59.1063624155" lon="30.4790508002"><ele>51.09</ele><time>2026-08-20T10:25:59Z</time></trkpt><trkpt lat="59.1063616611" lon="30.4789223894"><ele>51.09</ele><time>2026-08-20T10:26:10Z</time></trkpt><trkpt lat="59.1063282173" lon="30.4788784683"><ele>51.09</ele><time>2026-08-20T10:26:24Z</time></trkpt><trkpt lat="59.1062857211" lon="30.4787898716"><ele>51.09</ele><time>2026-08-20T10:26:36Z</time></trkpt><trkpt lat="59.1062837094" lon="30.4787384905"><ele>51.09</ele><time>2026-08-20T10:26:48Z</time></trkpt><trkpt lat="59.1062771715" lon="30.4786964972"><ele>51.09</ele><time>2026-08-20T10:26:52Z</time></trkpt><trkpt lat="59.1062651854" lon="30.4786052182"><ele>51.09</ele><time>2026-08-20T10:27:03Z</time></trkpt><trkpt lat="59.1062733997" lon="30.4784683418"><ele>51.09</ele><time>2026-08-20T10:27:14Z</time></trkpt><trkpt lat="59.1062677838" lon="30.4783782363"><ele>51.57</ele><time>2026-08-20T10:27:25Z</time></trkpt><trkpt lat="59.1062581446" lon="30.4783254303"><ele>51.57</ele><time>2026-08-20T10:27:31Z</time></trkpt><trkpt lat="59.1062347591" lon="30.4782488197"><ele>51.57</ele><time>2026-08-20T10:27:42Z</time></trkpt><trkpt lat="59.1062415484" lon="30.4782291222"><ele>51.57</ele><time>2026-08-20T10:27:52Z</time></trkpt><trkpt lat="59.1062409617" lon="30.4781209957"><ele>51.57</ele><time>2026-08-20T10:28:04Z</time></trkpt><trkpt lat="59.1062413808" lon="30.4780709557"><ele>51.57</ele><time>2026-08-20T10:28:09Z</time></trkpt><trkpt lat="59.1062438115" lon="30.4779572133"><ele>51.57</ele><time>2026-08-20T10:28:19Z</time></trkpt><trkpt lat="59.1062000580" lon="30.4778708797"><ele>51.57</ele><time>2026-08-20T10:28:31Z</time></trkpt><trkpt lat="59.1061989684" lon="30.4778598994"><ele>51.57</ele><time>2026-08-20T10:28:32Z</time></trkpt><trkpt lat="59.1061641835" lon="30.4777400382"><ele>51.57</ele><time>2026-08-20T10:28:42Z</time></trkpt><trkpt lat="59.1061573941" lon="30.4776108731"><ele>51.57</ele><time>2026-08-20T10:28:53Z</time></trkpt><trkpt lat="59.1061631776" lon="30.4775670357"><ele>51.57</ele><time>2026-08-20T10:28:57Z</time></trkpt><trkpt lat="59.1061879043" lon="30.4774755053"><ele>51.57</ele><time>2026-08-20T10:29:08Z</time></trkpt><trkpt lat="59.1061932687" lon="30.4774289019"><ele>51.57</ele><time>2026-08-20T10:29:18Z</time></trkpt><trkpt lat="59.1061905026" lon="30.4774475936"><ele>51.57</ele><time>2026-08-20T10:29:44Z</time></trkpt><trkpt lat="59.1061890777" lon="30.4774305783"><ele>51.57</ele><time>2026-08-20T10:30:06Z</time></trkpt><trkpt lat="59.1061846353" lon="30.4774232022"><ele>51.57</ele><time>2026-08-20T10:30:30Z</time></trkpt><trkpt lat="59.1062043328" lon="30.4773651995"><ele>51.57</ele><time>2026-08-20T10:30:40Z</time></trkpt><trkpt lat="59.1062128823" lon="30.4772342741"><ele>51.57</ele><time>2026-08-20T10:30:51Z</time></trkpt><trkpt lat="59.1062049195" lon="30.4772175103"><ele>52.05</ele><time>2026-08-20T10:31:05Z</time></trkpt><trkpt lat="59.1061970405" lon="30.4771863297"><ele>52.05</ele><time>2026-08-20T10:31:18Z</time></trkpt><trkpt lat="59.1061809473" lon="30.4770990741"><ele>52.05</ele><time>2026-08-20T10:31:26Z</time></trkpt><trkpt lat="59.1061673686" lon="30.4770617746"><ele>52.05</ele><time>2026-08-20T10:31:36Z</time></trkpt><trkpt lat="59.1061234474" lon="30.4770140816"><ele>52.05</ele><time>2026-08-20T10:31:45Z</time></trkpt><trkpt lat="59.1060646903" lon="30.4769477807"><ele>52.05</ele><time>2026-08-20T10:31:58Z</time></trkpt><trkpt lat="59.1060050111" lon="30.4768942203"><ele>52.05</ele><time>2026-08-20T10:32:11Z</time></trkpt><trkpt lat="59.1059774347" lon="30.4768209625"><ele>52.05</ele><time>2026-08-20T10:32:20Z</time></trkpt><trkpt lat="59.1059315857" lon="30.4767982475"><ele>52.05</ele><time>2026-08-20T10:32:30Z</time></trkpt><trkpt lat="59.1059151571" lon="30.4767523147"><ele>52.05</ele><time>2026-08-20T10:32:54Z</time></trkpt><trkpt lat="59.1059017461" lon="30.4767536558"><ele>52.05</ele><time>2026-08-20T10:33:12Z</time></trkpt><trkpt lat="59.1058602557" lon="30.4768477008"><ele>52.05</ele><time>2026-08-20T10:33:23Z</time></trkpt><trkpt lat="59.1057990678" lon="30.4769429192"><ele>52.05</ele><time>2026-08-20T10:33:36Z</time></trkpt><trkpt lat="59.1057530511" lon="30.4769778717"><ele>52.05</ele><time>2026-08-20T10:33:46Z</time></trkpt><trkpt lat="59.1057414841" lon="30.4769764468"><ele>52.05</ele><time>2026-08-20T10:34:10Z</time></trkpt><trkpt lat="59.1057334375" lon="30.4768805578"><ele>52.05</ele><time>2026-08-20T10:34:31Z</time></trkpt><trkpt lat="59.1057646181" lon="30.4768209625"><ele>52.05</ele><time>2026-08-20T10:34:44Z</time></trkpt><trkpt lat="59.1058154125" lon="30.4767470341"><ele>52.05</ele><time>2026-08-20T10:34:54Z</time></trkpt><trkpt lat="59.1058441624" lon="30.4765707627"><ele>51.57</ele><time>2026-08-20T10:35:06Z</time></trkpt><trkpt lat="59.1058483534" lon="30.4765676614"><ele>51.57</ele><time>2026-08-20T10:35:10Z</time></trkpt><trkpt lat="59.1059188452" lon="30.4765250813"><ele>51.57</ele><time>2026-08-20T10:35:22Z</time></trkpt><trkpt lat="59.1059581563" lon="30.4764902126"><ele>51.57</ele><time>2026-08-20T10:35:36Z</time></trkpt><trkpt lat="59.1059798654" lon="30.4763913061"><ele>51.57</ele><time>2026-08-20T10:35:49Z</time></trkpt><trkpt lat="59.1060206853" lon="30.4761677608"><ele>51.57</ele><time>2026-08-20T10:36:01Z</time></trkpt><trkpt lat="59.1060304921" lon="30.4761017114"><ele>51.57</ele><time>2026-08-20T10:36:07Z</time></trkpt><trkpt lat="59.1060691327" lon="30.4759780783"><ele>51.57</ele><time>2026-08-20T10:36:18Z</time></trkpt><trkpt lat="59.1060620081" lon="30.4759303853"><ele>51.57</ele><time>2026-08-20T10:36:29Z</time></trkpt><trkpt lat="59.1060548835" lon="30.4758943431"><ele>51.57</ele><time>2026-08-20T10:36:34Z</time></trkpt><trkpt lat="59.1060316656" lon="30.4757574666"><ele>51.57</ele><time>2026-08-20T10:36:45Z</time></trkpt><trkpt lat="59.1060111299" lon="30.4756526928"><ele>51.57</ele><time>2026-08-20T10:36:55Z</time></trkpt><trkpt lat="59.1060749162" lon="30.4754729848"><ele>51.57</ele><time>2026-08-20T10:37:08Z</time></trkpt><trkpt lat="59.1060983855" lon="30.4752978869"><ele>51.57</ele><time>2026-08-20T10:37:19Z</time></trkpt><trkpt lat="59.1061080247" lon="30.4752511159"><ele>51.57</ele><time>2026-08-20T10:37:31Z</time></trkpt><trkpt lat="59.1060327552" lon="30.4751596693"><ele>51.57</ele><time>2026-08-20T10:37:44Z</time></trkpt><trkpt lat="59.1059629340" lon="30.4750845674"><ele>51.57</ele><time>2026-08-20T10:37:57Z</time></trkpt><trkpt lat="59.1059382074" lon="30.4750717431"><ele>51.57</ele><time>2026-08-20T10:38:22Z</time></trkpt><trkpt lat="59.1059364472" lon="30.4750602599"><ele>51.57</ele><time>2026-08-20T10:38:37Z</time></trkpt><trkpt lat="59.1059505288" lon="30.4750601761"><ele>51.57</ele><time>2026-08-20T10:39:01Z</time></trkpt><trkpt lat="59.1059443261" lon="30.4750669654"><ele>51.57</ele><time>2026-08-20T10:39:21Z</time></trkpt><trkpt lat="59.1059274785" lon="30.4750940390"><ele>51.57</ele><time>2026-08-20T10:39:44Z</time></trkpt><trkpt lat="59.1058418155" lon="30.4751153290"><ele>51.57</ele><time>2026-08-20T10:39:53Z</time></trkpt><trkpt lat="59.1057913564" lon="30.4751413967"><ele>51.57</ele><time>2026-08-20T10:40:05Z</time></trkpt><trkpt lat="59.1057009995" lon="30.4751364514"><ele>51.57</ele><time>2026-08-20T10:40:18Z</time></trkpt><trkpt lat="59.1056783684" lon="30.4750593379"><ele>51.57</ele><time>2026-08-20T10:40:24Z</time></trkpt><trkpt lat="59.1056117322" lon="30.4749976471"><ele>51.57</ele><time>2026-08-20T10:40:36Z</time></trkpt><trkpt lat="59.1055785399" lon="30.4750320967"><ele>51.57</ele><time>2026-08-20T10:40:47Z</time></trkpt><trkpt lat="59.1055350378" lon="30.4750372097"><ele>51.57</ele><time>2026-08-20T10:40:57Z</time></trkpt><trkpt lat="59.1055199504" lon="30.4750484414"><ele>51.57</ele><time>2026-08-20T10:41:03Z</time></trkpt><trkpt lat="59.1054810584" lon="30.4750813823"><ele>51.57</ele><time>2026-08-20T10:41:16Z</time></trkpt><trkpt lat="59.1053644661" lon="30.4750243854"><ele>51.57</ele><time>2026-08-20T10:41:28Z</time></trkpt><trkpt lat="59.1053366382" lon="30.4750539735"><ele>51.57</ele><time>2026-08-20T10:41:47Z</time></trkpt><trkpt lat="59.1053293459" lon="30.4750465974"><ele>50.61</ele><time>2026-08-20T10:42:16Z</time></trkpt><trkpt lat="59.1053403262" lon="30.4750425741"><ele>50.13</ele><time>2026-08-20T10:42:50Z</time></trkpt><trkpt lat="59.1053238977" lon="30.4750284925"><ele>50.13</ele><time>2026-08-20T10:43:08Z</time></trkpt><trkpt lat="59.1053207126" lon="30.4749999102"><ele>50.13</ele><time>2026-08-20T10:43:27Z</time></trkpt><trkpt lat="59.1053224728" lon="30.4750159197"><ele>50.13</ele><time>2026-08-20T10:43:52Z</time></trkpt><trkpt lat="59.1053763684" lon="30.4749928694"><ele>50.13</ele><time>2026-08-20T10:44:17Z</time></trkpt><trkpt lat="59.1053230595" lon="30.4749886785"><ele>50.13</ele><time>2026-08-20T10:44:39Z</time></trkpt><trkpt lat="59.1053093132" lon="30.4750535544"><ele>49.65</ele><time>2026-08-20T10:45:03Z</time></trkpt><trkpt lat="59.1053047869" lon="30.4750480223"><ele>49.65</ele><time>2026-08-20T10:45:29Z</time></trkpt><trkpt lat="59.1052751150" lon="30.4750168417"><ele>49.65</ele><time>2026-08-20T10:45:53Z</time></trkpt><trkpt lat="59.1053972393" lon="30.4750330187"><ele>49.65</ele><time>2026-08-20T10:46:25Z</time></trkpt><trkpt lat="59.1051571816" lon="30.4751569033"><ele>49.65</ele><time>2026-08-20T10:46:52Z</time></trkpt><trkpt lat="59.1052709240" lon="30.4750562366"><ele>49.65</ele><time>2026-08-20T10:47:13Z</time></trkpt><trkpt lat="59.1053324472" lon="30.4750264809"><ele>49.65</ele><time>2026-08-20T10:47:33Z</time></trkpt><trkpt lat="59.1053130850" lon="30.4749232996"><ele>49.65</ele><time>2026-08-20T10:47:56Z</time></trkpt><trkpt lat="59.1053207126" lon="30.4749201145"><ele>50.13</ele><time>2026-08-20T10:48:19Z</time></trkpt><trkpt lat="59.1053249873" lon="30.4749386385"><ele>50.13</ele><time>2026-08-20T10:48:43Z</time></trkpt><trkpt lat="59.1053727642" lon="30.4748458508"><ele>50.13</ele><time>2026-08-20T10:49:04Z</time></trkpt><trkpt lat="59.1053283401" lon="30.4749905225"><ele>50.13</ele><time>2026-08-20T10:49:27Z</time></trkpt><trkpt lat="59.1053368896" lon="30.4750139918"><ele>50.13</ele><time>2026-08-20T10:49:52Z</time></trkpt><trkpt lat="59.1053470317" lon="30.4750118963"><ele>50.13</ele><time>2026-08-20T10:50:16Z</time></trkpt><trkpt lat="59.1053515580" lon="30.4750143271"><ele>50.61</ele><time>2026-08-20T10:50:43Z</time></trkpt><trkpt lat="59.1053493787" lon="30.4750149138"><ele>50.61</ele><time>2026-08-20T10:51:11Z</time></trkpt><trkpt lat="59.1053503845" lon="30.4750110582"><ele>50.61</ele><time>2026-08-20T10:51:39Z</time></trkpt><trkpt lat="59.1053455230" lon="30.4750081245"><ele>50.61</ele><time>2026-08-20T10:52:05Z</time></trkpt><trkpt lat="59.1053501330" lon="30.4750217032"><ele>51.09</ele><time>2026-08-20T10:52:31Z</time></trkpt><trkpt lat="59.1053585988" lon="30.4750264809"><ele>51.09</ele><time>2026-08-20T10:52:53Z</time></trkpt><trkpt lat="59.1053574253" lon="30.4750352819"><ele>51.09</ele><time>2026-08-20T10:53:26Z</time></trkpt><trkpt lat="59.1053697467" lon="30.4750231281"><ele>51.09</ele><time>2026-08-20T10:53:55Z</time></trkpt><trkpt lat="59.1053699143" lon="30.4750159197"><ele>51.09</ele><time>2026-08-20T10:54:17Z</time></trkpt><trkpt lat="59.1054267436" lon="30.4750088789"><ele>51.09</ele><time>2026-08-20T10:54:45Z</time></trkpt><trkpt lat="59.1054339521" lon="30.4749853257"><ele>51.09</ele><time>2026-08-20T10:55:09Z</time></trkpt><trkpt lat="59.1053932160" lon="30.4749866668"><ele>51.09</ele><time>2026-08-20T10:55:33Z</time></trkpt><trkpt lat="59.1054068785" lon="30.4750053585"><ele>51.09</ele><time>2026-08-20T10:56:03Z</time></trkpt><trkpt lat="59.1054071300" lon="30.4750054423"><ele>51.57</ele><time>2026-08-20T10:56:28Z</time></trkpt><trkpt lat="59.1053073853" lon="30.4749860801"><ele>51.57</ele><time>2026-08-20T10:56:52Z</time></trkpt><trkpt lat="59.1053007636" lon="30.4750195239"><ele>51.57</ele><time>2026-08-20T10:57:16Z</time></trkpt><trkpt lat="59.1052776296" lon="30.4750599246"><ele>51.57</ele><time>2026-08-20T10:57:47Z</time></trkpt><trkpt lat="59.1052400786" lon="30.4749507923"><ele>51.57</ele><time>2026-08-20T10:58:11Z</time></trkpt><trkpt lat="59.1052609496" lon="30.4749751836"><ele>51.57</ele><time>2026-08-20T10:58:39Z</time></trkpt><trkpt lat="59.1053524800" lon="30.4751455039"><ele>51.57</ele><time>2026-08-20T10:59:06Z</time></trkpt><trkpt lat="59.1053724289" lon="30.4751460068"><ele>51.57</ele><time>2026-08-20T10:59:08Z</time></trkpt><trkpt lat="59.1053400747" lon="30.4750117287"><ele>51.57</ele><time>2026-08-20T10:59:26Z</time></trkpt><trkpt lat="59.1053518932" lon="30.4749918636"><ele>52.05</ele><time>2026-08-20T10:59:46Z</time></trkpt><trkpt lat="59.1053233109" lon="30.4750953801"><ele>53.01</ele><time>2026-08-20T11:00:02Z</time></trkpt><trkpt lat="59.1053526476" lon="30.4752009921"><ele>53.01</ele><time>2026-08-20T11:00:16Z</time></trkpt><trkpt lat="59.1053218860" lon="30.4752801172"><ele>53.01</ele><time>2026-08-20T11:00:27Z</time></trkpt><trkpt lat="59.1053192038" lon="30.4754457437"><ele>53.01</ele><time>2026-08-20T11:00:39Z</time></trkpt><trkpt lat="59.1053264122" lon="30.4755887389"><ele>53.01</ele><time>2026-08-20T11:00:52Z</time></trkpt><trkpt lat="59.1053177789" lon="30.4757301416"><ele>53.01</ele><time>2026-08-20T11:01:03Z</time></trkpt><trkpt lat="59.1053214669" lon="30.4758613184"><ele>53.01</ele><time>2026-08-20T11:01:14Z</time></trkpt><trkpt lat="59.1053072177" lon="30.4760086723"><ele>53.01</ele><time>2026-08-20T11:01:26Z</time></trkpt><trkpt lat="59.1053151805" lon="30.4761516675"><ele>52.53</ele><time>2026-08-20T11:01:41Z</time></trkpt><trkpt lat="59.1052951477" lon="30.4762599617"><ele>52.53</ele><time>2026-08-20T11:01:52Z</time></trkpt><trkpt lat="59.1052821558" lon="30.4763927311"><ele>52.53</ele><time>2026-08-20T11:02:03Z</time></trkpt><trkpt lat="59.1053221375" lon="30.4765465390"><ele>52.53</ele><time>2026-08-20T11:02:15Z</time></trkpt><trkpt lat="59.1053371411" lon="30.4765186273"><ele>52.53</ele><time>2026-08-20T11:02:39Z</time></trkpt><trkpt lat="59.1053693276" lon="30.4766697530"><ele>52.53</ele><time>2026-08-20T11:02:52Z</time></trkpt><trkpt lat="59.1053748596" lon="30.4767099023"><ele>52.05</ele><time>2026-08-20T11:03:05Z</time></trkpt><trkpt lat="59.1053653043" lon="30.4767172784"><ele>52.05</ele><time>2026-08-20T11:03:33Z</time></trkpt><trkpt lat="59.1053698305" lon="30.4767256603"><ele>52.05</ele><time>2026-08-20T11:03:39Z</time></trkpt><trkpt lat="59.1053844150" lon="30.4767610319"><ele>52.05</ele><time>2026-08-20T11:03:52Z</time></trkpt><trkpt lat="59.1054002568" lon="30.4767920449"><ele>52.05</ele><time>2026-08-20T11:04:12Z</time></trkpt><trkpt lat="59.1054264922" lon="30.4768260755"><ele>52.05</ele><time>2026-08-20T11:04:34Z</time></trkpt><trkpt lat="59.1054272465" lon="30.4768379778"><ele>52.05</ele><time>2026-08-20T11:04:54Z</time></trkpt><trkpt lat="59.1054131649" lon="30.4769167677"><ele>52.05</ele><time>2026-08-20T11:05:11Z</time></trkpt><trkpt lat="59.1053622868" lon="30.4769947194"><ele>52.05</ele><time>2026-08-20T11:05:25Z</time></trkpt><trkpt lat="59.1053254064" lon="30.4771072883"><ele>52.05</ele><time>2026-08-20T11:05:38Z</time></trkpt><trkpt lat="59.1053230595" lon="30.4772162531"><ele>52.05</ele><time>2026-08-20T11:05:51Z</time></trkpt><trkpt lat="59.1053761169" lon="30.4773193505"><ele>52.05</ele><time>2026-08-20T11:06:04Z</time></trkpt><trkpt lat="59.1053819843" lon="30.4773928598"><ele>52.05</ele><time>2026-08-20T11:06:13Z</time></trkpt><trkpt lat="59.1054343712" lon="30.4774853960"><ele>52.05</ele><time>2026-08-20T11:06:26Z</time></trkpt><trkpt lat="59.1054653004" lon="30.4775255453"><ele>52.05</ele><time>2026-08-20T11:06:37Z</time></trkpt><trkpt lat="59.1054896917" lon="30.4775691312"><ele>51.57</ele><time>2026-08-20T11:06:52Z</time></trkpt><trkpt lat="59.1055079643" lon="30.4776172433"><ele>51.57</ele><time>2026-08-20T11:07:07Z</time></trkpt><trkpt lat="59.1055055335" lon="30.4776988830"><ele>51.57</ele><time>2026-08-20T11:07:19Z</time></trkpt><trkpt lat="59.1055191122" lon="30.4778198339"><ele>51.57</ele><time>2026-08-20T11:07:31Z</time></trkpt><trkpt lat="59.1055113170" lon="30.4778751545"><ele>51.57</ele><time>2026-08-20T11:07:42Z</time></trkpt><trkpt lat="59.1055352055" lon="30.4779936746"><ele>51.57</ele><time>2026-08-20T11:07:56Z</time></trkpt><trkpt lat="59.1055459343" lon="30.4780204128"><ele>51.57</ele><time>2026-08-20T11:08:09Z</time></trkpt><trkpt lat="59.1055547353" lon="30.4780753143"><ele>51.57</ele><time>2026-08-20T11:08:17Z</time></trkpt><trkpt lat="59.1055689007" lon="30.4780768231"><ele>51.57</ele><time>2026-08-20T11:08:19Z</time></trkpt><trkpt lat="59.1056186892" lon="30.4781870451"><ele>51.57</ele><time>2026-08-20T11:08:33Z</time></trkpt><trkpt lat="59.1056212038" lon="30.4782620631"><ele>51.57</ele><time>2026-08-20T11:08:47Z</time></trkpt><trkpt lat="59.1056334414" lon="30.4783134442"><ele>51.57</ele><time>2026-08-20T11:08:58Z</time></trkpt><trkpt lat="59.1056552343" lon="30.4784904700"><ele>51.09</ele><time>2026-08-20T11:09:11Z</time></trkpt><trkpt lat="59.1056778654" lon="30.4785720259"><ele>51.09</ele><time>2026-08-20T11:09:26Z</time></trkpt><trkpt lat="59.1056803800" lon="30.4785972554"><ele>51.09</ele><time>2026-08-20T11:09:39Z</time></trkpt><trkpt lat="59.1056350339" lon="30.4787597805"><ele>51.09</ele><time>2026-08-20T11:09:55Z</time></trkpt><trkpt lat="59.1056153364" lon="30.4788775463"><ele>51.09</ele><time>2026-08-20T11:10:07Z</time></trkpt><trkpt lat="59.1056165099" lon="30.4789065477"><ele>51.09</ele><time>2026-08-20T11:10:10Z</time></trkpt><trkpt lat="59.1055986565" lon="30.4790395685"><ele>51.09</ele><time>2026-08-20T11:10:23Z</time></trkpt><trkpt lat="59.1055931244" lon="30.4791213758"><ele>51.09</ele><time>2026-08-20T11:10:35Z</time></trkpt><trkpt lat="59.1055936273" lon="30.4791967291"><ele>51.09</ele><time>2026-08-20T11:10:49Z</time></trkpt><trkpt lat="59.1055725049" lon="30.4792839848"><ele>51.09</ele><time>2026-08-20T11:11:14Z</time></trkpt><trkpt lat="59.1055770312" lon="30.4793018382"><ele>51.09</ele><time>2026-08-20T11:11:40Z</time></trkpt><trkpt lat="59.1055728402" lon="30.4793304205"><ele>51.09</ele><time>2026-08-20T11:12:06Z</time></trkpt><trkpt lat="59.1055768635" lon="30.4793386348"><ele>51.09</ele><time>2026-08-20T11:12:35Z</time></trkpt><trkpt lat="59.1055729240" lon="30.4793398920"><ele>51.09</ele><time>2026-08-20T11:12:54Z</time></trkpt><trkpt lat="59.1055758577" lon="30.4793431610"><ele>51.09</ele><time>2026-08-20T11:13:22Z</time></trkpt><trkpt lat="59.1055756900" lon="30.4793654568"><ele>51.57</ele><time>2026-08-20T11:13:46Z</time></trkpt><trkpt lat="59.1055687331" lon="30.4793921113"><ele>51.57</ele><time>2026-08-20T11:14:16Z</time></trkpt><trkpt lat="59.1055832338" lon="30.4793828912"><ele>51.57</ele><time>2026-08-20T11:14:46Z</time></trkpt><trkpt lat="59.1055922862" lon="30.4793725815"><ele>51.57</ele><time>2026-08-20T11:15:17Z</time></trkpt><trkpt lat="59.1056028474" lon="30.4793694802"><ele>51.57</ele><time>2026-08-20T11:15:49Z</time></trkpt><trkpt lat="59.1056141630" lon="30.4793651216"><ele>51.57</ele><time>2026-08-20T11:16:16Z</time></trkpt><trkpt lat="59.1056183539" lon="30.4794193525"><ele>51.57</ele><time>2026-08-20T11:16:50Z</time></trkpt><trkpt lat="59.1056249756" lon="30.4794434085"><ele>51.57</ele><time>2026-08-20T11:17:15Z</time></trkpt><trkpt lat="59.1056414880" lon="30.4794108868"><ele>51.57</ele><time>2026-08-20T11:17:27Z</time></trkpt><trkpt lat="59.1056967247" lon="30.4794109706"><ele>51.57</ele><time>2026-08-20T11:17:39Z</time></trkpt><trkpt lat="59.1057674680" lon="30.4793707374"><ele>51.57</ele><time>2026-08-20T11:17:53Z</time></trkpt><trkpt lat="59.1058264766" lon="30.4793937039"><ele>51.57</ele><time>2026-08-20T11:18:04Z</time></trkpt><trkpt lat="59.1058838926" lon="30.4794969689"><ele>51.57</ele><time>2026-08-20T11:18:18Z</time></trkpt><trkpt lat="59.1059469245" lon="30.4795873258"><ele>51.57</ele><time>2026-08-20T11:18:29Z</time></trkpt><trkpt lat="59.1059475951" lon="30.4795905948"><ele>51.57</ele><time>2026-08-20T11:18:30Z</time></trkpt><trkpt lat="59.1059821285" lon="30.4797426425"><ele>51.57</ele><time>2026-08-20T11:18:43Z</time></trkpt><trkpt lat="59.1060214397" lon="30.4798482545"><ele>51.57</ele><time>2026-08-20T11:18:53Z</time></trkpt><trkpt lat="59.1059848946" lon="30.4799117893"><ele>51.57</ele><time>2026-08-20T11:19:05Z</time></trkpt><trkpt lat="59.1059864033" lon="30.4799506813"><ele>51.57</ele><time>2026-08-20T11:19:17Z</time></trkpt><trkpt lat="59.1059341002" lon="30.4800956044"><ele>51.57</ele><time>2026-08-20T11:19:30Z</time></trkpt><trkpt lat="59.1059387941" lon="30.4801276233"><ele>51.57</ele><time>2026-08-20T11:19:35Z</time></trkpt><trkpt lat="59.1058954597" lon="30.4802986141"><ele>51.57</ele><time>2026-08-20T11:19:46Z</time></trkpt><trkpt lat="59.1058605909" lon="30.4803652503"><ele>51.57</ele><time>2026-08-20T11:19:53Z</time></trkpt><trkpt lat="59.1057725810" lon="30.4805625603"><ele>51.57</ele><time>2026-08-20T11:20:05Z</time></trkpt><trkpt lat="59.1057593375" lon="30.4807347246"><ele>51.57</ele><time>2026-08-20T11:20:17Z</time></trkpt><trkpt lat="59.1057634447" lon="30.4808332119"><ele>51.57</ele><time>2026-08-20T11:20:30Z</time></trkpt><trkpt lat="59.1057802923" lon="30.4809309449"><ele>51.57</ele><time>2026-08-20T11:20:42Z</time></trkpt><trkpt lat="59.1058065277" lon="30.4810901172"><ele>51.57</ele><time>2026-08-20T11:20:53Z</time></trkpt><trkpt lat="59.1058603395" lon="30.4812262394"><ele>51.57</ele><time>2026-08-20T11:21:08Z</time></trkpt><trkpt lat="59.1058784444" lon="30.4813248105"><ele>52.05</ele><time>2026-08-20T11:21:23Z</time></trkpt><trkpt lat="59.1058633570" lon="30.4814648721"><ele>52.05</ele><time>2026-08-20T11:21:37Z</time></trkpt><trkpt lat="59.1058310028" lon="30.4817056004"><ele>52.05</ele><time>2026-08-20T11:21:50Z</time></trkpt><trkpt lat="59.1058719903" lon="30.4818421416"><ele>52.05</ele><time>2026-08-20T11:22:02Z</time></trkpt><trkpt lat="59.1058677994" lon="30.4819134716"><ele>52.05</ele><time>2026-08-20T11:22:24Z</time></trkpt><trkpt lat="59.1059011593" lon="30.4819887411"><ele>52.05</ele><time>2026-08-20T11:22:37Z</time></trkpt><trkpt lat="59.1059336811" lon="30.4819503520"><ele>52.05</ele><time>2026-08-20T11:22:49Z</time></trkpt><trkpt lat="59.1060072742" lon="30.4818705563"><ele>52.05</ele><time>2026-08-20T11:23:01Z</time></trkpt><trkpt lat="59.1060418915" lon="30.4819780961"><ele>52.05</ele><time>2026-08-20T11:23:13Z</time></trkpt><trkpt lat="59.1060655285" lon="30.4820705485"><ele>52.05</ele><time>2026-08-20T11:23:26Z</time></trkpt><trkpt lat="59.1060865670" lon="30.4821961932"><ele>52.05</ele><time>2026-08-20T11:23:37Z</time></trkpt><trkpt lat="59.1061472520" lon="30.4822323192"><ele>52.05</ele><time>2026-08-20T11:23:48Z</time></trkpt><trkpt lat="59.1062182467" lon="30.4822308104"><ele>52.05</ele><time>2026-08-20T11:24:02Z</time></trkpt><trkpt lat="59.1062202584" lon="30.4822259489"><ele>50.61</ele><time>2026-08-20T11:24:04Z</time></trkpt><trkpt lat="59.1062728968" lon="30.4822127055"><ele>50.61</ele><time>2026-08-20T11:24:16Z</time></trkpt><trkpt lat="59.1063511837" lon="30.4823474027"><ele>50.61</ele><time>2026-08-20T11:24:28Z</time></trkpt><trkpt lat="59.1064069234" lon="30.4824126977"><ele>50.61</ele><time>2026-08-20T11:24:41Z</time></trkpt><trkpt lat="59.1064305604" lon="30.4824634083"><ele>50.61</ele><time>2026-08-20T11:24:53Z</time></trkpt><trkpt lat="59.1063966136" lon="30.4825952556"><ele>50.61</ele><time>2026-08-20T11:25:08Z</time></trkpt><trkpt lat="59.1063567158" lon="30.4825815093"><ele>50.61</ele><time>2026-08-20T11:25:23Z</time></trkpt><trkpt lat="59.1063459869" lon="30.4825520888"><ele>50.61</ele><time>2026-08-20T11:25:32Z</time></trkpt><trkpt lat="59.1063319892" lon="30.4825809225"><ele>51.09</ele><time>2026-08-20T11:25:44Z</time></trkpt><trkpt lat="59.1063239425" lon="30.4826478101"><ele>50.61</ele><time>2026-08-20T11:25:58Z</time></trkpt><trkpt lat="59.1062417999" lon="30.4827130213"><ele>50.61</ele><time>2026-08-20T11:26:10Z</time></trkpt><trkpt lat="59.1061507724" lon="30.4826730397"><ele>51.09</ele><time>2026-08-20T11:26:23Z</time></trkpt><trkpt lat="59.1060898360" lon="30.4827190563"><ele>51.09</ele><time>2026-08-20T11:26:35Z</time></trkpt><trkpt lat="59.1060713120" lon="30.4828682542"><ele>51.09</ele><time>2026-08-20T11:26:49Z</time></trkpt><trkpt lat="59.1060383711" lon="30.4829830863"><ele>51.09</ele><time>2026-08-20T11:27:01Z</time></trkpt><trkpt lat="59.1060316656" lon="30.4830045439"><ele>51.09</ele><time>2026-08-20T11:27:09Z</time></trkpt><trkpt lat="59.1060376167" lon="30.4830650613"><ele>51.09</ele><time>2026-08-20T11:27:24Z</time></trkpt><trkpt lat="59.1060625110" lon="30.4831998423"><ele>51.09</ele><time>2026-08-20T11:27:36Z</time></trkpt><trkpt lat="59.1060800292" lon="30.4834145028"><ele>51.09</ele><time>2026-08-20T11:27:51Z</time></trkpt><trkpt lat="59.1060637683" lon="30.4835217912"><ele>51.09</ele><time>2026-08-20T11:28:03Z</time></trkpt><trkpt lat="59.1060459148" lon="30.4836055264"><ele>51.09</ele><time>2026-08-20T11:28:20Z</time></trkpt><trkpt lat="59.1060367785" lon="30.4838227853"><ele>51.09</ele><time>2026-08-20T11:28:35Z</time></trkpt><trkpt lat="59.1059918515" lon="30.4839897528"><ele>51.57</ele><time>2026-08-20T11:28:47Z</time></trkpt><trkpt lat="59.1059721541" lon="30.4839934409"><ele>50.61</ele><time>2026-08-20T11:29:07Z</time></trkpt><trkpt lat="59.1059572343" lon="30.4840057623"><ele>50.61</ele><time>2026-08-20T11:29:23Z</time></trkpt><trkpt lat="59.1059465054" lon="30.4840087797"><ele>50.61</ele><time>2026-08-20T11:29:36Z</time></trkpt><trkpt lat="59.1059209406" lon="30.4840096179"><ele>50.61</ele><time>2026-08-20T11:29:50Z</time></trkpt><trkpt lat="59.1058332659" lon="30.4840135574"><ele>50.61</ele><time>2026-08-20T11:30:01Z</time></trkpt><trkpt lat="59.1058299970" lon="30.4840028286"><ele>50.61</ele><time>2026-08-20T11:30:24Z</time></trkpt><trkpt lat="59.1058187652" lon="30.4840135574"><ele>50.61</ele><time>2026-08-20T11:30:42Z</time></trkpt><trkpt lat="59.1058102157" lon="30.4840191733"><ele>50.61</ele><time>2026-08-20T11:31:08Z</time></trkpt><trkpt lat="59.1058005765" lon="30.4840193409"><ele>50.61</ele><time>2026-08-20T11:31:23Z</time></trkpt><trkpt lat="59.1057890095" lon="30.4839961231"><ele>51.09</ele><time>2026-08-20T11:31:38Z</time></trkpt><trkpt lat="59.1057450045" lon="30.4840572271"><ele>51.09</ele><time>2026-08-20T11:31:50Z</time></trkpt><trkpt lat="59.1056942102" lon="30.4840496834"><ele>51.09</ele><time>2026-08-20T11:32:02Z</time></trkpt><trkpt lat="59.1056351177" lon="30.4840941913"><ele>51.09</ele><time>2026-08-20T11:32:14Z</time></trkpt><trkpt lat="59.1056058649" lon="30.4841392022"><ele>51.09</ele><time>2026-08-20T11:32:30Z</time></trkpt><trkpt lat="59.1055678111" lon="30.4841124639"><ele>51.09</ele><time>2026-08-20T11:32:43Z</time></trkpt><trkpt lat="59.1055199504" lon="30.4841114581"><ele>51.09</ele><time>2026-08-20T11:32:58Z</time></trkpt><trkpt lat="59.1054954752" lon="30.4841148108"><ele>50.61</ele><time>2026-08-20T11:33:13Z</time></trkpt><trkpt lat="59.1054702457" lon="30.4840319976"><ele>50.61</ele><time>2026-08-20T11:33:26Z</time></trkpt><trkpt lat="59.1054464411" lon="30.4839896690"><ele>50.61</ele><time>2026-08-20T11:33:41Z</time></trkpt><trkpt lat="59.1054083034" lon="30.4839515314"><ele>50.61</ele><time>2026-08-20T11:33:56Z</time></trkpt><trkpt lat="59.1054068785" lon="30.4839853104"><ele>50.61</ele><time>2026-08-20T11:34:11Z</time></trkpt><trkpt lat="59.1054083034" lon="30.4840001464"><ele>50.61</ele><time>2026-08-20T11:34:24Z</time></trkpt><trkpt lat="59.1054275818" lon="30.4840145633"><ele>50.61</ele><time>2026-08-20T11:35:02Z</time></trkpt><trkpt lat="59.1053908691" lon="30.4840484262"><ele>50.61</ele><time>2026-08-20T11:35:16Z</time></trkpt><trkpt lat="59.1053078882" lon="30.4840299860"><ele>50.61</ele><time>2026-08-20T11:35:29Z</time></trkpt><trkpt lat="59.1052788869" lon="30.4839563090"><ele>50.61</ele><time>2026-08-20T11:35:42Z</time></trkpt><trkpt lat="59.1052718461" lon="30.4839503579"><ele>50.61</ele><time>2026-08-20T11:36:06Z</time></trkpt><trkpt lat="59.1052835807" lon="30.4839907587"><ele>50.61</ele><time>2026-08-20T11:36:36Z</time></trkpt><trkpt lat="59.1052722652" lon="30.4839748330"><ele>50.61</ele><time>2026-08-20T11:37:00Z</time></trkpt><trkpt lat="59.1052601952" lon="30.4839294869"><ele>50.61</ele><time>2026-08-20T11:37:12Z</time></trkpt><trkpt lat="59.1052703373" lon="30.4837579932"><ele>50.61</ele><time>2026-08-20T11:37:29Z</time></trkpt><trkpt lat="59.1052976623" lon="30.4836157523"><ele>50.61</ele><time>2026-08-20T11:37:43Z</time></trkpt><trkpt lat="59.1053138394" lon="30.4835528042"><ele>50.61</ele><time>2026-08-20T11:38:01Z</time></trkpt><trkpt lat="59.1053066310" lon="30.4835545644"><ele>50.61</ele><time>2026-08-20T11:38:18Z</time></trkpt><trkpt lat="59.1052818205" lon="30.4834427498"><ele>50.61</ele><time>2026-08-20T11:38:34Z</time></trkpt><trkpt lat="59.1052104067" lon="30.4832115769"><ele>50.61</ele><time>2026-08-20T11:38:48Z</time></trkpt><trkpt lat="59.1052470356" lon="30.4831155203"><ele>50.61</ele><time>2026-08-20T11:39:04Z</time></trkpt><trkpt lat="59.1052718461" lon="30.4830464534"><ele>50.61</ele><time>2026-08-20T11:39:19Z</time></trkpt><trkpt lat="59.1052421741" lon="30.4829737823"><ele>50.61</ele><time>2026-08-20T11:39:34Z</time></trkpt><trkpt lat="59.1051921342" lon="30.4827640671"><ele>50.61</ele><time>2026-08-20T11:39:50Z</time></trkpt><trkpt lat="59.1052000970" lon="30.4825963452"><ele>50.61</ele><time>2026-08-20T11:40:04Z</time></trkpt><trkpt lat="59.1051975824" lon="30.4825286195"><ele>50.61</ele><time>2026-08-20T11:40:20Z</time></trkpt><trkpt lat="59.1051951516" lon="30.4823121987"><ele>50.61</ele><time>2026-08-20T11:40:34Z</time></trkpt><trkpt lat="59.1052291822" lon="30.4821132123"><ele>50.61</ele><time>2026-08-20T11:40:49Z</time></trkpt><trkpt lat="59.1052284278" lon="30.4819596559"><ele>50.61</ele><time>2026-08-20T11:41:02Z</time></trkpt><trkpt lat="59.1052779648" lon="30.4819325823"><ele>50.61</ele><time>2026-08-20T11:41:15Z</time></trkpt><trkpt lat="59.1052940581" lon="30.4819343425"><ele>50.61</ele><time>2026-08-20T11:41:32Z</time></trkpt><trkpt lat="59.1053002607" lon="30.4819193389"><ele>50.61</ele><time>2026-08-20T11:41:59Z</time></trkpt><trkpt lat="59.1053131688" lon="30.4818025790"><ele>50.61</ele><time>2026-08-20T11:42:13Z</time></trkpt><trkpt lat="59.1053117439" lon="30.4816714022"><ele>50.61</ele><time>2026-08-20T11:42:29Z</time></trkpt><trkpt lat="59.1053164378" lon="30.4816853162"><ele>50.61</ele><time>2026-08-20T11:42:43Z</time></trkpt><trkpt lat="59.1053127497" lon="30.4816475976"><ele>50.61</ele><time>2026-08-20T11:42:59Z</time></trkpt><trkpt lat="59.1052250750" lon="30.4814157542"><ele>51.09</ele><time>2026-08-20T11:43:15Z</time></trkpt><trkpt lat="59.1051853448" lon="30.4812031053"><ele>51.09</ele><time>2026-08-20T11:43:32Z</time></trkpt><trkpt lat="59.1051768791" lon="30.4811095633"><ele>51.09</ele><time>2026-08-20T11:43:45Z</time></trkpt><trkpt lat="59.1051513143" lon="30.4810954817"><ele>51.09</ele><time>2026-08-20T11:43:57Z</time></trkpt><trkpt lat="59.1051436029" lon="30.4810952302"><ele>51.09</ele><time>2026-08-20T11:44:11Z</time></trkpt><trkpt lat="59.1050490551" lon="30.4810728505"><ele>51.09</ele><time>2026-08-20T11:44:23Z</time></trkpt><trkpt lat="59.1049624700" lon="30.4810183682"><ele>50.61</ele><time>2026-08-20T11:44:39Z</time></trkpt><trkpt lat="59.1049667448" lon="30.4810141772"><ele>50.61</ele><time>2026-08-20T11:44:51Z</time></trkpt><trkpt lat="59.1049897950" lon="30.4809714295"><ele>50.61</ele><time>2026-08-20T11:45:03Z</time></trkpt><trkpt lat="59.1050440259" lon="30.4808507301"><ele>50.61</ele><time>2026-08-20T11:45:15Z</time></trkpt><trkpt lat="59.1050764639" lon="30.4807937331"><ele>50.61</ele><time>2026-08-20T11:45:27Z</time></trkpt><trkpt lat="59.1050985083" lon="30.4807435255"><ele>50.61</ele><time>2026-08-20T11:45:46Z</time></trkpt><trkpt lat="59.1051574331" lon="30.4806719441"><ele>50.61</ele><time>2026-08-20T11:46:00Z</time></trkpt><trkpt lat="59.1052259970" lon="30.4805081617"><ele>50.61</ele><time>2026-08-20T11:46:17Z</time></trkpt><trkpt lat="59.1054150928" lon="30.4803428706"><ele>50.61</ele><time>2026-08-20T11:46:36Z</time></trkpt><trkpt lat="59.1054893564" lon="30.4803192336"><ele>50.61</ele><time>2026-08-20T11:46:54Z</time></trkpt><trkpt lat="59.1054837406" lon="30.4801589716"><ele>50.61</ele><time>2026-08-20T11:47:06Z</time></trkpt><trkpt lat="59.1054327786" lon="30.4800683632"><ele>50.61</ele><time>2026-08-20T11:47:15Z</time></trkpt><trkpt lat="59.1053466126" lon="30.4799701273"><ele>50.61</ele><time>2026-08-20T11:47:27Z</time></trkpt><trkpt lat="59.1053342912" lon="30.4799040779"><ele>50.61</ele><time>2026-08-20T11:47:37Z</time></trkpt><trkpt lat="59.1052981652" lon="30.4798153974"><ele>50.61</ele><time>2026-08-20T11:47:51Z</time></trkpt><trkpt lat="59.1052425094" lon="30.4797046725"><ele>50.61</ele><time>2026-08-20T11:48:02Z</time></trkpt><trkpt lat="59.1052326187" lon="30.4796734080"><ele>50.61</ele><time>2026-08-20T11:48:18Z</time></trkpt><trkpt lat="59.1052330378" lon="30.4796573985"><ele>47.24</ele><time>2026-08-20T11:48:25Z</time></trkpt><trkpt lat="59.1052337922" lon="30.4796394613"><ele>51.09</ele><time>2026-08-20T11:48:33Z</time></trkpt><trkpt lat="59.1052240692" lon="30.4796030000"><ele>52.53</ele><time>2026-08-20T11:48:53Z</time></trkpt><trkpt lat="59.1051902063" lon="30.4795392137"><ele>52.05</ele><time>2026-08-20T11:49:06Z</time></trkpt><trkpt lat="59.1051910445" lon="30.4795273952"><ele>52.05</ele><time>2026-08-20T11:49:09Z</time></trkpt><trkpt lat="59.1051298566" lon="30.4794572387"><ele>52.05</ele><time>2026-08-20T11:49:20Z</time></trkpt><trkpt lat="59.1050299443" lon="30.4793586675"><ele>52.05</ele><time>2026-08-20T11:49:30Z</time></trkpt><trkpt lat="59.1050162818" lon="30.4792749323"><ele>52.05</ele><time>2026-08-20T11:49:43Z</time></trkpt><trkpt lat="59.1050084867" lon="30.4792602640"><ele>51.57</ele><time>2026-08-20T11:50:04Z</time></trkpt><trkpt lat="59.1049542557" lon="30.4790517222"><ele>51.57</ele><time>2026-08-20T11:50:17Z</time></trkpt><trkpt lat="59.1049170401" lon="30.4788420908"><ele>51.57</ele><time>2026-08-20T11:50:30Z</time></trkpt><trkpt lat="59.1049042996" lon="30.4786791466"><ele>51.57</ele><time>2026-08-20T11:50:41Z</time></trkpt><trkpt lat="59.1049046349" lon="30.4785427731"><ele>51.57</ele><time>2026-08-20T11:50:52Z</time></trkpt><trkpt lat="59.1049033776" lon="30.4784585349"><ele>51.57</ele><time>2026-08-20T11:51:03Z</time></trkpt><trkpt lat="59.1048936546" lon="30.4783452116"><ele>51.57</ele><time>2026-08-20T11:51:15Z</time></trkpt><trkpt lat="59.1048836801" lon="30.4783046432"><ele>51.57</ele><time>2026-08-20T11:51:27Z</time></trkpt><trkpt lat="59.1048851050" lon="30.4782826826"><ele>51.57</ele><time>2026-08-20T11:51:40Z</time></trkpt><trkpt lat="59.1048996057" lon="30.4781353287"><ele>51.57</ele><time>2026-08-20T11:51:56Z</time></trkpt><trkpt lat="59.1049271822" lon="30.4779670201"><ele>51.57</ele><time>2026-08-20T11:52:09Z</time></trkpt><trkpt lat="59.1049218178" lon="30.4778432194"><ele>51.57</ele><time>2026-08-20T11:52:22Z</time></trkpt><trkpt lat="59.1049169563" lon="30.4777261242"><ele>51.57</ele><time>2026-08-20T11:52:32Z</time></trkpt><trkpt lat="59.1049161181" lon="30.4776662774"><ele>51.57</ele><time>2026-08-20T11:52:42Z</time></trkpt><trkpt lat="59.1048966721" lon="30.4775110446"><ele>51.57</ele><time>2026-08-20T11:52:52Z</time></trkpt><trkpt lat="59.1048771422" lon="30.4774341825"><ele>51.57</ele><time>2026-08-20T11:53:02Z</time></trkpt><trkpt lat="59.1048768908" lon="30.4773663729"><ele>51.09</ele><time>2026-08-20T11:53:17Z</time></trkpt><trkpt lat="59.1048461292" lon="30.4770885967"><ele>51.09</ele><time>2026-08-20T11:53:29Z</time></trkpt><trkpt lat="59.1048228275" lon="30.4769671429"><ele>51.09</ele><time>2026-08-20T11:53:41Z</time></trkpt><trkpt lat="59.1048166249" lon="30.4768316075"><ele>51.09</ele><time>2026-08-20T11:53:52Z</time></trkpt><trkpt lat="59.1047975980" lon="30.4766685795"><ele>51.09</ele><time>2026-08-20T11:54:05Z</time></trkpt><trkpt lat="59.1047956701" lon="30.4766076431"><ele>51.09</ele><time>2026-08-20T11:54:19Z</time></trkpt><trkpt lat="59.1047783196" lon="30.4764147755"><ele>51.09</ele><time>2026-08-20T11:54:33Z</time></trkpt><trkpt lat="59.1047715303" lon="30.4762082454"><ele>51.09</ele><time>2026-08-20T11:54:46Z</time></trkpt><trkpt lat="59.1047190595" lon="30.4761163797"><ele>51.09</ele><time>2026-08-20T11:54:57Z</time></trkpt><trkpt lat="59.1047186404" lon="30.4759950098"><ele>51.09</ele><time>2026-08-20T11:55:07Z</time></trkpt><trkpt lat="59.1047124378" lon="30.4758769087"><ele>51.09</ele><time>2026-08-20T11:55:20Z</time></trkpt><trkpt lat="59.1046914831" lon="30.4757676087"><ele>51.09</ele><time>2026-08-20T11:55:32Z</time></trkpt><trkpt lat="59.1046856996" lon="30.4756904952"><ele>51.09</ele><time>2026-08-20T11:55:44Z</time></trkpt><trkpt lat="59.1046743840" lon="30.4756288882"><ele>51.09</ele><time>2026-08-20T11:55:59Z</time></trkpt><trkpt lat="59.1046717018" lon="30.4755423032"><ele>50.61</ele><time>2026-08-20T11:56:11Z</time></trkpt><trkpt lat="59.1046590451" lon="30.4754652735"><ele>50.61</ele><time>2026-08-20T11:56:22Z</time></trkpt><trkpt lat="59.1046680138" lon="30.4753600806"><ele>50.61</ele><time>2026-08-20T11:56:33Z</time></trkpt><trkpt lat="59.1046179738" lon="30.4752523731"><ele>50.61</ele><time>2026-08-20T11:56:47Z</time></trkpt><trkpt lat="59.1045857873" lon="30.4752414767"><ele>50.61</ele><time>2026-08-20T11:56:59Z</time></trkpt><trkpt lat="59.1045805067" lon="30.4752412252"><ele>50.61</ele><time>2026-08-20T11:57:25Z</time></trkpt><trkpt lat="59.1045789979" lon="30.4752432369"><ele>50.61</ele><time>2026-08-20T11:57:44Z</time></trkpt><trkpt lat="59.1045751423" lon="30.4752418958"><ele>50.61</ele><time>2026-08-20T11:58:04Z</time></trkpt><trkpt lat="59.1045726277" lon="30.4752386268"><ele>50.61</ele><time>2026-08-20T11:58:25Z</time></trkpt><trkpt lat="59.1045619827" lon="30.4752233718"><ele>50.61</ele><time>2026-08-20T11:58:52Z</time></trkpt><trkpt lat="59.1045574564" lon="30.4752286524"><ele>50.13</ele><time>2026-08-20T11:59:10Z</time></trkpt><trkpt lat="59.1045572050" lon="30.4752325919"><ele>50.13</ele><time>2026-08-20T11:59:38Z</time></trkpt><trkpt lat="59.1045572888" lon="30.4752384592"><ele>50.13</ele><time>2026-08-20T12:00:04Z</time></trkpt><trkpt lat="59.1045600548" lon="30.4752482660"><ele>50.13</ele><time>2026-08-20T12:00:19Z</time></trkpt><trkpt lat="59.1044913232" lon="30.4752290715"><ele>50.13</ele><time>2026-08-20T12:00:33Z</time></trkpt><trkpt lat="59.1044609807" lon="30.4752405547"><ele>50.13</ele><time>2026-08-20T12:00:43Z</time></trkpt><trkpt lat="59.1044339072" lon="30.4752792791"><ele>50.61</ele><time>2026-08-20T12:01:02Z</time></trkpt><trkpt lat="59.1042992100" lon="30.4752869904"><ele>50.61</ele><time>2026-08-20T12:01:15Z</time></trkpt><trkpt lat="59.1042397823" lon="30.4753180873"><ele>50.61</ele><time>2026-08-20T12:01:26Z</time></trkpt><trkpt lat="59.1041954421" lon="30.4753092024"><ele>50.61</ele><time>2026-08-20T12:01:37Z</time></trkpt><trkpt lat="59.1042011417" lon="30.4753038380"><ele>50.61</ele><time>2026-08-20T12:01:59Z</time></trkpt><trkpt lat="59.1041632555" lon="30.4753872380"><ele>50.61</ele><time>2026-08-20T12:02:11Z</time></trkpt><trkpt lat="59.1040961165" lon="30.4753833823"><ele>50.61</ele><time>2026-08-20T12:02:23Z</time></trkpt><trkpt lat="59.1040578950" lon="30.4753755871"><ele>50.61</ele><time>2026-08-20T12:02:30Z</time></trkpt><trkpt lat="59.1040268820" lon="30.4754081927"><ele>50.61</ele><time>2026-08-20T12:02:42Z</time></trkpt><trkpt lat="59.1040144768" lon="30.4754186701"><ele>50.61</ele><time>2026-08-20T12:03:12Z</time></trkpt><trkpt lat="59.1040282231" lon="30.4754191730"><ele>50.61</ele><time>2026-08-20T12:03:43Z</time></trkpt><trkpt lat="59.1040251218" lon="30.4754491802"><ele>50.61</ele><time>2026-08-20T12:03:58Z</time></trkpt><trkpt lat="59.1039922647" lon="30.4755466618"><ele>50.61</ele><time>2026-08-20T12:04:09Z</time></trkpt><trkpt lat="59.1039711423" lon="30.4756469093"><ele>50.61</ele><time>2026-08-20T12:04:21Z</time></trkpt><trkpt lat="59.1039735731" lon="30.4757161438"><ele>50.61</ele><time>2026-08-20T12:04:38Z</time></trkpt><trkpt lat="59.1039794404" lon="30.4758376814"><ele>50.61</ele><time>2026-08-20T12:04:48Z</time></trkpt><trkpt lat="59.1039440688" lon="30.4759593029"><ele>50.61</ele><time>2026-08-20T12:04:59Z</time></trkpt><trkpt lat="59.1039300710" lon="30.4760455526"><ele>50.61</ele><time>2026-08-20T12:05:10Z</time></trkpt><trkpt lat="59.1039347649" lon="30.4761326406"><ele>50.61</ele><time>2026-08-20T12:05:22Z</time></trkpt><trkpt lat="59.1039773449" lon="30.4761252645"><ele>50.61</ele><time>2026-08-20T12:05:33Z</time></trkpt><trkpt lat="59.1040355992" lon="30.4762317985"><ele>50.61</ele><time>2026-08-20T12:05:47Z</time></trkpt><trkpt lat="59.1041005589" lon="30.4762961715"><ele>50.13</ele><time>2026-08-20T12:05:59Z</time></trkpt><trkpt lat="59.1041560471" lon="30.4764679167"><ele>50.13</ele><time>2026-08-20T12:06:12Z</time></trkpt><trkpt lat="59.1041440610" lon="30.4765689187"><ele>50.13</ele><time>2026-08-20T12:06:24Z</time></trkpt><trkpt lat="59.1041402053" lon="30.4767173622"><ele>50.13</ele><time>2026-08-20T12:06:35Z</time></trkpt><trkpt lat="59.1041239444" lon="30.4768917058"><ele>50.13</ele><time>2026-08-20T12:06:46Z</time></trkpt><trkpt lat="59.1041257884" lon="30.4769822303"><ele>50.13</ele><time>2026-08-20T12:06:51Z</time></trkpt><trkpt lat="59.1041220166" lon="30.4771341942"><ele>50.13</ele><time>2026-08-20T12:07:03Z</time></trkpt><trkpt lat="59.1041316558" lon="30.4772546422"><ele>50.13</ele><time>2026-08-20T12:07:14Z</time></trkpt><trkpt lat="59.1041412111" lon="30.4774090368"><ele>50.13</ele><time>2026-08-20T12:07:26Z</time></trkpt><trkpt lat="59.1041462403" lon="30.4775057640"><ele>50.13</ele><time>2026-08-20T12:07:38Z</time></trkpt><trkpt lat="59.1041741520" lon="30.4776235297"><ele>50.13</ele><time>2026-08-20T12:07:49Z</time></trkpt><trkpt lat="59.1041586455" lon="30.4777758289"><ele>50.13</ele><time>2026-08-20T12:08:00Z</time></trkpt><trkpt lat="59.1041570529" lon="30.4778513499"><ele>50.13</ele><time>2026-08-20T12:08:15Z</time></trkpt><trkpt lat="59.1041466594" lon="30.4779209197"><ele>50.13</ele><time>2026-08-20T12:08:39Z</time></trkpt><trkpt lat="59.1041428037" lon="30.4779733904"><ele>49.65</ele><time>2026-08-20T12:09:03Z</time></trkpt><trkpt lat="59.1041198373" lon="30.4780344944"><ele>50.61</ele><time>2026-08-20T12:09:24Z</time></trkpt><trkpt lat="59.1041284706" lon="30.4780922458"><ele>50.61</ele><time>2026-08-20T12:09:40Z</time></trkpt><trkpt lat="59.1041277163" lon="30.4781448003"><ele>50.61</ele><time>2026-08-20T12:10:15Z</time></trkpt><trkpt lat="59.1041734815" lon="30.4783411045"><ele>50.61</ele><time>2026-08-20T12:10:30Z</time></trkpt><trkpt lat="59.1042208392" lon="30.4784740414"><ele>51.09</ele><time>2026-08-20T12:10:43Z</time></trkpt><trkpt lat="59.1042120382" lon="30.4784875363"><ele>51.09</ele><time>2026-08-20T12:10:47Z</time></trkpt><trkpt lat="59.1041837074" lon="30.4786499776"><ele>51.09</ele><time>2026-08-20T12:10:58Z</time></trkpt><trkpt lat="59.1042327415" lon="30.4787774663"><ele>51.09</ele><time>2026-08-20T12:11:10Z</time></trkpt><trkpt lat="59.1042898223" lon="30.4789115768"><ele>51.09</ele><time>2026-08-20T12:11:24Z</time></trkpt><trkpt lat="59.1043014731" lon="30.4790028557"><ele>51.09</ele><time>2026-08-20T12:11:45Z</time></trkpt><trkpt lat="59.1043020599" lon="30.4791267402"><ele>51.09</ele><time>2026-08-20T12:11:57Z</time></trkpt><trkpt lat="59.1043276247" lon="30.4793286603"><ele>51.09</ele><time>2026-08-20T12:12:07Z</time></trkpt><trkpt lat="59.1043495014" lon="30.4794164188"><ele>51.09</ele><time>2026-08-20T12:12:20Z</time></trkpt><trkpt lat="59.1044378467" lon="30.4794692248"><ele>51.09</ele><time>2026-08-20T12:12:33Z</time></trkpt><trkpt lat="59.1044707876" lon="30.4795154091"><ele>51.09</ele><time>2026-08-20T12:12:46Z</time></trkpt><trkpt lat="59.1044818517" lon="30.4795888346"><ele>51.09</ele><time>2026-08-20T12:12:56Z</time></trkpt><trkpt lat="59.1044984479" lon="30.4796433169"><ele>51.09</ele><time>2026-08-20T12:13:06Z</time></trkpt><trkpt lat="59.1045209952" lon="30.4796672054"><ele>51.09</ele><time>2026-08-20T12:13:13Z</time></trkpt><trkpt lat="59.1045506671" lon="30.4797203466"><ele>51.09</ele><time>2026-08-20T12:13:18Z</time></trkpt><trkpt lat="59.1045860387" lon="30.4797459114"><ele>51.09</ele><time>2026-08-20T12:13:28Z</time></trkpt><trkpt lat="59.1045848653" lon="30.4798935167"><ele>51.09</ele><time>2026-08-20T12:13:39Z</time></trkpt><trkpt lat="59.1045836080" lon="30.4800541140"><ele>51.09</ele><time>2026-08-20T12:13:51Z</time></trkpt><trkpt lat="59.1045421176" lon="30.4801629949"><ele>51.09</ele><time>2026-08-20T12:14:00Z</time></trkpt><trkpt lat="59.1044921614" lon="30.4802304693"><ele>51.09</ele><time>2026-08-20T12:14:12Z</time></trkpt><trkpt lat="59.1044935025" lon="30.4803126957"><ele>51.09</ele><time>2026-08-20T12:14:24Z</time></trkpt><trkpt lat="59.1045110207" lon="30.4803322256"><ele>51.09</ele><time>2026-08-20T12:14:47Z</time></trkpt><trkpt lat="59.1044811811" lon="30.4804696050"><ele>51.09</ele><time>2026-08-20T12:14:59Z</time></trkpt><trkpt lat="59.1044423729" lon="30.4805612192"><ele>51.09</ele><time>2026-08-20T12:15:09Z</time></trkpt><trkpt lat="59.1044119466" lon="30.4806033801"><ele>51.09</ele><time>2026-08-20T12:15:22Z</time></trkpt><trkpt lat="59.1043660138" lon="30.4807498958"><ele>51.09</ele><time>2026-08-20T12:15:33Z</time></trkpt><trkpt lat="59.1043773293" lon="30.4808426835"><ele>51.09</ele><time>2026-08-20T12:15:41Z</time></trkpt><trkpt lat="59.1043095198" lon="30.4809749499"><ele>51.09</ele><time>2026-08-20T12:15:55Z</time></trkpt><trkpt lat="59.1042886488" lon="30.4811014328"><ele>51.09</ele><time>2026-08-20T12:16:07Z</time></trkpt><trkpt lat="59.1043095198" lon="30.4811750259"><ele>51.09</ele><time>2026-08-20T12:16:16Z</time></trkpt><trkpt lat="59.1043251101" lon="30.4811831564"><ele>50.61</ele><time>2026-08-20T12:16:36Z</time></trkpt><trkpt lat="59.1043547820" lon="30.4812278319"><ele>50.61</ele><time>2026-08-20T12:16:53Z</time></trkpt><trkpt lat="59.1043689474" lon="30.4812603537"><ele>50.61</ele><time>2026-08-20T12:17:07Z</time></trkpt><trkpt lat="59.1043850407" lon="30.4813776165"><ele>50.61</ele><time>2026-08-20T12:17:17Z</time></trkpt><trkpt lat="59.1044127010" lon="30.4814301711"><ele>50.61</ele><time>2026-08-20T12:17:29Z</time></trkpt><trkpt lat="59.1044592205" lon="30.4814621061"><ele>50.61</ele><time>2026-08-20T12:17:46Z</time></trkpt><trkpt lat="59.1044930834" lon="30.4814983159"><ele>49.65</ele><time>2026-08-20T12:18:16Z</time></trkpt><trkpt lat="59.1045281198" lon="30.4815942887"><ele>49.65</ele><time>2026-08-20T12:18:29Z</time></trkpt><trkpt lat="59.1045478173" lon="30.4816562310"><ele>49.65</ele><time>2026-08-20T12:18:43Z</time></trkpt><trkpt lat="59.1045378428" lon="30.4816895071"><ele>49.65</ele><time>2026-08-20T12:18:55Z</time></trkpt><trkpt lat="59.1045522597" lon="30.4818403814"><ele>49.65</ele><time>2026-08-20T12:19:09Z</time></trkpt><trkpt lat="59.1045222525" lon="30.4819606617"><ele>49.16</ele><time>2026-08-20T12:19:22Z</time></trkpt><trkpt lat="59.1045325622" lon="30.4819874838"><ele>49.16</ele><time>2026-08-20T12:19:30Z</time></trkpt><trkpt lat="59.1045388486" lon="30.4820926767"><ele>49.16</ele><time>2026-08-20T12:19:42Z</time></trkpt><trkpt lat="59.1045308020" lon="30.4821462370"><ele>49.16</ele><time>2026-08-20T12:19:54Z</time></trkpt><trkpt lat="59.1045696940" lon="30.4822797608"><ele>49.16</ele><time>2026-08-20T12:20:11Z</time></trkpt><trkpt lat="59.1046225000" lon="30.4824106023"><ele>49.16</ele><time>2026-08-20T12:20:26Z</time></trkpt><trkpt lat="59.1046204884" lon="30.4825523403"><ele>49.16</ele><time>2026-08-20T12:20:37Z</time></trkpt><trkpt lat="59.1046251822" lon="30.4825592134"><ele>49.16</ele><time>2026-08-20T12:20:38Z</time></trkpt><trkpt lat="59.1046608891" lon="30.4825696070"><ele>49.16</ele><time>2026-08-20T12:20:53Z</time></trkpt><trkpt lat="59.1046862025" lon="30.4825596325"><ele>49.16</ele><time>2026-08-20T12:21:09Z</time></trkpt><trkpt lat="59.1047005355" lon="30.4826945812"><ele>49.16</ele><time>2026-08-20T12:21:21Z</time></trkpt><trkpt lat="59.1047266871" lon="30.4827517457"><ele>49.16</ele><time>2026-08-20T12:21:32Z</time></trkpt><trkpt lat="59.1046969313" lon="30.4828404263"><ele>49.16</ele><time>2026-08-20T12:21:42Z</time></trkpt><trkpt lat="59.1046624817" lon="30.4829523247"><ele>49.16</ele><time>2026-08-20T12:21:53Z</time></trkpt><trkpt lat="59.1046529263" lon="30.4830542486"><ele>49.16</ele><time>2026-08-20T12:22:05Z</time></trkpt><trkpt lat="59.1046542674" lon="30.4831741937"><ele>49.16</ele><time>2026-08-20T12:22:16Z</time></trkpt><trkpt lat="59.1046877112" lon="30.4832483735"><ele>49.16</ele><time>2026-08-20T12:22:27Z</time></trkpt><trkpt lat="59.1046830174" lon="30.4833519738"><ele>49.16</ele><time>2026-08-20T12:22:40Z</time></trkpt><trkpt lat="59.1046915669" lon="30.4835383873"><ele>49.16</ele><time>2026-08-20T12:22:52Z</time></trkpt><trkpt lat="59.1046654992" lon="30.4836688936"><ele>49.16</ele><time>2026-08-20T12:23:03Z</time></trkpt><trkpt lat="59.1046445444" lon="30.4837104678"><ele>49.16</ele><time>2026-08-20T12:23:08Z</time></trkpt><trkpt lat="59.1046090052" lon="30.4837540537"><ele>49.16</ele><time>2026-08-20T12:23:18Z</time></trkpt><trkpt lat="59.1046393476" lon="30.4838692211"><ele>49.16</ele><time>2026-08-20T12:23:29Z</time></trkpt><trkpt lat="59.1046303790" lon="30.4840076063"><ele>49.16</ele><time>2026-08-20T12:23:40Z</time></trkpt><trkpt lat="59.1046278644" lon="30.4840540420"><ele>49.16</ele><time>2026-08-20T12:24:07Z</time></trkpt><trkpt lat="59.1046456341" lon="30.4840891622"><ele>49.16</ele><time>2026-08-20T12:24:24Z</time></trkpt><trkpt lat="59.1047094204" lon="30.4841570556"><ele>49.16</ele><time>2026-08-20T12:24:40Z</time></trkpt><trkpt lat="59.1047470551" lon="30.4843230173"><ele>49.16</ele><time>2026-08-20T12:24:51Z</time></trkpt><trkpt lat="59.1047404334" lon="30.4844182357"><ele>49.16</ele><time>2026-08-20T12:25:00Z</time></trkpt><trkpt lat="59.1047390085" lon="30.4843830317"><ele>49.16</ele><time>2026-08-20T12:25:20Z</time></trkpt><trkpt lat="59.1047742125" lon="30.4843699560"><ele>48.68</ele><time>2026-08-20T12:25:45Z</time></trkpt><trkpt lat="59.1048808303" lon="30.4843575507"><ele>75.60</ele><time>2026-08-20T12:28:54Z</time></trkpt><trkpt lat="59.1048903856" lon="30.4843698721"><ele>75.60</ele><time>2026-08-20T12:28:55Z</time></trkpt><trkpt lat="59.1048523318" lon="30.4844445549"><ele>73.20</ele><time>2026-08-20T12:29:12Z</time></trkpt><trkpt lat="59.1048595402" lon="30.4844366759"><ele>70.31</ele><time>2026-08-20T12:29:29Z</time></trkpt><trkpt lat="59.1048195586" lon="30.4845227581"><ele>66.95</ele><time>2026-08-20T12:29:48Z</time></trkpt><trkpt lat="59.1048354842" lon="30.4844117817"><ele>64.07</ele><time>2026-08-20T12:30:14Z</time></trkpt><trkpt lat="59.1047768947" lon="30.4843772482"><ele>62.14</ele><time>2026-08-20T12:30:30Z</time></trkpt><trkpt lat="59.1047015414" lon="30.4842846282"><ele>59.74</ele><time>2026-08-20T12:30:43Z</time></trkpt><trkpt lat="59.1046659183" lon="30.4842812754"><ele>56.86</ele><time>2026-08-20T12:31:01Z</time></trkpt><trkpt lat="59.1045994498" lon="30.4843346681"><ele>56.86</ele><time>2026-08-20T12:31:13Z</time></trkpt><trkpt lat="59.1045710351" lon="30.4842952732"><ele>56.86</ele><time>2026-08-20T12:31:22Z</time></trkpt><trkpt lat="59.1045287065" lon="30.4842681997"><ele>56.86</ele><time>2026-08-20T12:31:45Z</time></trkpt><trkpt lat="59.1045536008" lon="30.4842894059"><ele>56.37</ele><time>2026-08-20T12:32:04Z</time></trkpt><trkpt lat="59.1045628209" lon="30.4842875618"><ele>56.37</ele><time>2026-08-20T12:32:21Z</time></trkpt><trkpt lat="59.1045841947" lon="30.4842848796"><ele>56.37</ele><time>2026-08-20T12:32:44Z</time></trkpt><trkpt lat="59.1046002042" lon="30.4842742346"><ele>56.37</ele><time>2026-08-20T12:33:08Z</time></trkpt><trkpt lat="59.1044938378" lon="30.4843206704"><ele>56.37</ele><time>2026-08-20T12:33:25Z</time></trkpt><trkpt lat="59.1043987032" lon="30.4844868835"><ele>55.89</ele><time>2026-08-20T12:33:40Z</time></trkpt><trkpt lat="59.1043846216" lon="30.4844426271"><ele>55.89</ele><time>2026-08-20T12:33:52Z</time></trkpt><trkpt lat="59.1043373477" lon="30.4844531044"><ele>55.89</ele><time>2026-08-20T12:34:02Z</time></trkpt><trkpt lat="59.1042458173" lon="30.4844608158"><ele>55.89</ele><time>2026-08-20T12:34:15Z</time></trkpt><trkpt lat="59.1042174026" lon="30.4844336584"><ele>55.89</ele><time>2026-08-20T12:34:36Z</time></trkpt><trkpt lat="59.1042097751" lon="30.4843931738"><ele>55.41</ele><time>2026-08-20T12:35:04Z</time></trkpt><trkpt lat="59.1041821148" lon="30.4842780903"><ele>55.41</ele><time>2026-08-20T12:35:16Z</time></trkpt><trkpt lat="59.1041530296" lon="30.4841879848"><ele>55.41</ele><time>2026-08-20T12:35:27Z</time></trkpt><trkpt lat="59.1041345894" lon="30.4840278067"><ele>55.41</ele><time>2026-08-20T12:35:35Z</time></trkpt><trkpt lat="59.1041397024" lon="30.4838071950"><ele>55.41</ele><time>2026-08-20T12:35:47Z</time></trkpt><trkpt lat="59.1041294765" lon="30.4837414809"><ele>55.41</ele><time>2026-08-20T12:35:54Z</time></trkpt><trkpt lat="59.1041262913" lon="30.4835322686"><ele>55.41</ele><time>2026-08-20T12:36:07Z</time></trkpt><trkpt lat="59.1041054204" lon="30.4834218789"><ele>55.41</ele><time>2026-08-20T12:36:17Z</time></trkpt><trkpt lat="59.1041161492" lon="30.4832572583"><ele>55.41</ele><time>2026-08-20T12:36:28Z</time></trkpt><trkpt lat="59.1040899977" lon="30.4830959067"><ele>54.93</ele><time>2026-08-20T12:36:39Z</time></trkpt><trkpt lat="59.1040892433" lon="30.4830809031"><ele>54.93</ele><time>2026-08-20T12:36:40Z</time></trkpt><trkpt lat="59.1040722281" lon="30.4829382431"><ele>54.93</ele><time>2026-08-20T12:36:51Z</time></trkpt><trkpt lat="59.1040999722" lon="30.4827815015"><ele>54.93</ele><time>2026-08-20T12:37:02Z</time></trkpt><trkpt lat="59.1040641814" lon="30.4825458024"><ele>54.93</ele><time>2026-08-20T12:37:15Z</time></trkpt><trkpt lat="59.1040350124" lon="30.4823717102"><ele>54.93</ele><time>2026-08-20T12:37:27Z</time></trkpt><trkpt lat="59.1040107049" lon="30.4823474027"><ele>54.93</ele><time>2026-08-20T12:37:30Z</time></trkpt><trkpt lat="59.1039765906" lon="30.4822628293"><ele>54.45</ele><time>2026-08-20T12:37:42Z</time></trkpt><trkpt lat="59.1039476730" lon="30.4821519367"><ele>54.45</ele><time>2026-08-20T12:37:52Z</time></trkpt><trkpt lat="59.1039136425" lon="30.4820009787"><ele>53.97</ele><time>2026-08-20T12:38:04Z</time></trkpt><trkpt lat="59.1039074399" lon="30.4819438141"><ele>53.97</ele><time>2026-08-20T12:38:17Z</time></trkpt><trkpt lat="59.1039304901" lon="30.4818281438"><ele>53.97</ele><time>2026-08-20T12:38:27Z</time></trkpt><trkpt lat="59.1039542109" lon="30.4816719890"><ele>53.97</ele><time>2026-08-20T12:38:39Z</time></trkpt><trkpt lat="59.1039461643" lon="30.4815967195"><ele>53.97</ele><time>2026-08-20T12:38:53Z</time></trkpt><trkpt lat="59.1039154027" lon="30.4815413989"><ele>53.49</ele><time>2026-08-20T12:39:05Z</time></trkpt><trkpt lat="59.1038443241" lon="30.4813760240"><ele>53.49</ele><time>2026-08-20T12:39:20Z</time></trkpt><trkpt lat="59.1038059350" lon="30.4811674822"><ele>53.49</ele><time>2026-08-20T12:39:31Z</time></trkpt><trkpt lat="59.1037464235" lon="30.4810057115"><ele>53.49</ele><time>2026-08-20T12:39:42Z</time></trkpt><trkpt lat="59.1037031729" lon="30.4809519835"><ele>53.49</ele><time>2026-08-20T12:39:54Z</time></trkpt><trkpt lat="59.1036987305" lon="30.4809472896"><ele>53.49</ele><time>2026-08-20T12:40:14Z</time></trkpt><trkpt lat="59.1036979761" lon="30.4809486307"><ele>53.49</ele><time>2026-08-20T12:40:42Z</time></trkpt><trkpt lat="59.1036990657" lon="30.4809523188"><ele>53.49</ele><time>2026-08-20T12:41:05Z</time></trkpt><trkpt lat="59.1036950424" lon="30.4809449427"><ele>53.01</ele><time>2026-08-20T12:41:36Z</time></trkpt><trkpt lat="59.1036944557" lon="30.4809425958"><ele>53.01</ele><time>2026-08-20T12:41:56Z</time></trkpt><trkpt lat="59.1036618501" lon="30.4808762111"><ele>53.01</ele><time>2026-08-20T12:42:10Z</time></trkpt><trkpt lat="59.1036100499" lon="30.4807475489"><ele>53.01</ele><time>2026-08-20T12:42:21Z</time></trkpt><trkpt lat="59.1035783663" lon="30.4805981833"><ele>53.01</ele><time>2026-08-20T12:42:33Z</time></trkpt><trkpt lat="59.1035289969" lon="30.4804700240"><ele>53.01</ele><time>2026-08-20T12:42:44Z</time></trkpt><trkpt lat="59.1035170946" lon="30.4804326408"><ele>53.01</ele><time>2026-08-20T12:42:47Z</time></trkpt><trkpt lat="59.1034853272" lon="30.4802198242"><ele>53.01</ele><time>2026-08-20T12:42:59Z</time></trkpt><trkpt lat="59.1034621932" lon="30.4800624959"><ele>53.01</ele><time>2026-08-20T12:43:11Z</time></trkpt><trkpt lat="59.1034932900" lon="30.4798743222"><ele>53.97</ele><time>2026-08-20T12:43:26Z</time></trkpt><trkpt lat="59.1034946311" lon="30.4798467457"><ele>53.97</ele><time>2026-08-20T12:43:28Z</time></trkpt><trkpt lat="59.1035553999" lon="30.4797539581"><ele>53.97</ele><time>2026-08-20T12:43:40Z</time></trkpt><trkpt lat="59.1035633627" lon="30.4795897566"><ele>53.97</ele><time>2026-08-20T12:43:53Z</time></trkpt><trkpt lat="59.1035527177" lon="30.4794299137"><ele>53.97</ele><time>2026-08-20T12:44:05Z</time></trkpt><trkpt lat="59.1035483591" lon="30.4792548157"><ele>53.97</ele><time>2026-08-20T12:44:18Z</time></trkpt><trkpt lat="59.1035598423" lon="30.4790696595"><ele>53.97</ele><time>2026-08-20T12:44:30Z</time></trkpt><trkpt lat="59.1035205312" lon="30.4789506365"><ele>53.97</ele><time>2026-08-20T12:44:42Z</time></trkpt><trkpt lat="59.1034855787" lon="30.4789057933"><ele>53.97</ele><time>2026-08-20T12:44:57Z</time></trkpt><trkpt lat="59.1034464352" lon="30.4787659831"><ele>53.97</ele><time>2026-08-20T12:45:08Z</time></trkpt><trkpt lat="59.1034381371" lon="30.4787225649"><ele>53.97</ele><time>2026-08-20T12:45:10Z</time></trkpt><trkpt lat="59.1034222953" lon="30.4785924777"><ele>53.97</ele><time>2026-08-20T12:45:18Z</time></trkpt><trkpt lat="59.1034234688" lon="30.4783960059"><ele>53.49</ele><time>2026-08-20T12:45:30Z</time></trkpt><trkpt lat="59.1034165118" lon="30.4782029707"><ele>53.49</ele><time>2026-08-20T12:45:42Z</time></trkpt><trkpt lat="59.1034074593" lon="30.4780456424"><ele>53.49</ele><time>2026-08-20T12:45:55Z</time></trkpt><trkpt lat="59.1034092195" lon="30.4780364223"><ele>53.49</ele><time>2026-08-20T12:46:13Z</time></trkpt><trkpt lat="59.1034102254" lon="30.4780302197"><ele>53.49</ele><time>2026-08-20T12:46:36Z</time></trkpt><trkpt lat="59.1034192778" lon="30.4780176468"><ele>53.49</ele><time>2026-08-20T12:46:58Z</time></trkpt><trkpt lat="59.1034569964" lon="30.4778769147"><ele>53.49</ele><time>2026-08-20T12:47:10Z</time></trkpt><trkpt lat="59.1034894343" lon="30.4777123779"><ele>53.49</ele><time>2026-08-20T12:47:24Z</time></trkpt><trkpt lat="59.1034881771" lon="30.4776515253"><ele>53.49</ele><time>2026-08-20T12:47:27Z</time></trkpt><trkpt lat="59.1034839023" lon="30.4774793610"><ele>53.49</ele><time>2026-08-20T12:47:37Z</time></trkpt><trkpt lat="59.1034877580" lon="30.4773521237"><ele>53.49</ele><time>2026-08-20T12:47:47Z</time></trkpt><trkpt lat="59.1034673899" lon="30.4771869164"><ele>53.49</ele><time>2026-08-20T12:47:58Z</time></trkpt><trkpt lat="59.1034347005" lon="30.4770739283"><ele>53.49</ele><time>2026-08-20T12:48:10Z</time></trkpt><trkpt lat="59.1034215409" lon="30.4769171029"><ele>53.49</ele><time>2026-08-20T12:48:22Z</time></trkpt><trkpt lat="59.1034077946" lon="30.4767825734"><ele>53.49</ele><time>2026-08-20T12:48:32Z</time></trkpt><trkpt lat="59.1033799667" lon="30.4766642209"><ele>53.49</ele><time>2026-08-20T12:48:43Z</time></trkpt><trkpt lat="59.1033503786" lon="30.4765601177"><ele>53.49</ele><time>2026-08-20T12:48:51Z</time></trkpt><trkpt lat="59.1033411585" lon="30.4763363209"><ele>53.49</ele><time>2026-08-20T12:49:04Z</time></trkpt><trkpt lat="59.1033272445" lon="30.4761415254"><ele>53.49</ele><time>2026-08-20T12:49:17Z</time></trkpt><trkpt lat="59.1032725107" lon="30.4760634061"><ele>53.49</ele><time>2026-08-20T12:49:30Z</time></trkpt><trkpt lat="59.1032259911" lon="30.4759118613"><ele>53.49</ele><time>2026-08-20T12:49:41Z</time></trkpt><trkpt lat="59.1032211296" lon="30.4758842010"><ele>53.49</ele><time>2026-08-20T12:49:43Z</time></trkpt><trkpt lat="59.1031844169" lon="30.4757139646"><ele>53.49</ele><time>2026-08-20T12:49:55Z</time></trkpt><trkpt lat="59.1031558346" lon="30.4755884036"><ele>53.49</ele><time>2026-08-20T12:50:07Z</time></trkpt><trkpt lat="59.1031514760" lon="30.4755708855"><ele>53.97</ele><time>2026-08-20T12:50:21Z</time></trkpt><trkpt lat="59.1031509731" lon="30.4755671136"><ele>53.97</ele><time>2026-08-20T12:50:40Z</time></trkpt><trkpt lat="59.1031395737" lon="30.4755636770"><ele>53.97</ele><time>2026-08-20T12:50:51Z</time></trkpt><trkpt lat="59.1030615382" lon="30.4756149743"><ele>53.97</ele><time>2026-08-20T12:51:02Z</time></trkpt><trkpt lat="59.1030405834" lon="30.4756165668"><ele>53.97</ele><time>2026-08-20T12:51:24Z</time></trkpt><trkpt lat="59.1029596981" lon="30.4756940156"><ele>53.97</ele><time>2026-08-20T12:51:36Z</time></trkpt><trkpt lat="59.1028852668" lon="30.4757155571"><ele>53.97</ele><time>2026-08-20T12:51:44Z</time></trkpt><trkpt lat="59.1028161161" lon="30.4756966140"><ele>53.97</ele><time>2026-08-20T12:52:00Z</time></trkpt><trkpt lat="59.1027840972" lon="30.4757008888"><ele>53.49</ele><time>2026-08-20T12:52:17Z</time></trkpt><trkpt lat="59.1027110908" lon="30.4757373501"><ele>53.49</ele><time>2026-08-20T12:52:31Z</time></trkpt><trkpt lat="59.1026521660" lon="30.4757655971"><ele>53.49</ele><time>2026-08-20T12:52:58Z</time></trkpt><trkpt lat="59.1026431974" lon="30.4757794272"><ele>53.49</ele><time>2026-08-20T12:53:24Z</time></trkpt><trkpt lat="59.1026444547" lon="30.4758229293"><ele>53.49</ele><time>2026-08-20T12:53:50Z</time></trkpt><trkpt lat="59.1026272718" lon="30.4759044852"><ele>53.49</ele><time>2026-08-20T12:54:04Z</time></trkpt><trkpt lat="59.1026300378" lon="30.4759962671"><ele>53.49</ele><time>2026-08-20T12:54:20Z</time></trkpt><trkpt lat="59.1026291158" lon="30.4761465546"><ele>53.49</ele><time>2026-08-20T12:54:35Z</time></trkpt><trkpt lat="59.1026292834" lon="30.4762267694"><ele>53.49</ele><time>2026-08-20T12:54:51Z</time></trkpt><trkpt lat="59.1026405990" lon="30.4763641488"><ele>53.49</ele><time>2026-08-20T12:55:06Z</time></trkpt><trkpt lat="59.1026281100" lon="30.4765140172"><ele>53.49</ele><time>2026-08-20T12:55:16Z</time></trkpt><trkpt lat="59.1026422754" lon="30.4766735248"><ele>53.49</ele><time>2026-08-20T12:55:30Z</time></trkpt><trkpt lat="59.1026231647" lon="30.4768556636"><ele>53.49</ele><time>2026-08-20T12:55:44Z</time></trkpt><trkpt lat="59.1026336420" lon="30.4769079667"><ele>53.49</ele><time>2026-08-20T12:56:03Z</time></trkpt><trkpt lat="59.1026500706" lon="30.4771154188"><ele>53.49</ele><time>2026-08-20T12:56:19Z</time></trkpt><trkpt lat="59.1026468016" lon="30.4772445001"><ele>53.49</ele><time>2026-08-20T12:56:30Z</time></trkpt><trkpt lat="59.1026902199" lon="30.4773538001"><ele>53.49</ele><time>2026-08-20T12:56:42Z</time></trkpt><trkpt lat="59.1027757991" lon="30.4774560593"><ele>53.49</ele><time>2026-08-20T12:56:54Z</time></trkpt><trkpt lat="59.1028025374" lon="30.4775371961"><ele>53.49</ele><time>2026-08-20T12:57:05Z</time></trkpt><trkpt lat="59.1028512362" lon="30.4776206799"><ele>53.49</ele><time>2026-08-20T12:57:17Z</time></trkpt><trkpt lat="59.1028826684" lon="30.4777670279"><ele>53.49</ele><time>2026-08-20T12:57:31Z</time></trkpt><trkpt lat="59.1028623842" lon="30.4778245278"><ele>53.49</ele><time>2026-08-20T12:57:41Z</time></trkpt><trkpt lat="59.1028585285" lon="30.4780131206"><ele>53.49</ele><time>2026-08-20T12:57:55Z</time></trkpt><trkpt lat="59.1028616298" lon="30.4781259410"><ele>53.49</ele><time>2026-08-20T12:58:07Z</time></trkpt><trkpt lat="59.1028624680" lon="30.4782032222"><ele>53.01</ele><time>2026-08-20T12:58:17Z</time></trkpt><trkpt lat="59.1029206384" lon="30.4783732072"><ele>53.01</ele><time>2026-08-20T12:58:29Z</time></trkpt><trkpt lat="59.1029415093" lon="30.4784637317"><ele>53.01</ele><time>2026-08-20T12:58:40Z</time></trkpt><trkpt lat="59.1029810719" lon="30.4785251711"><ele>53.01</ele><time>2026-08-20T12:58:53Z</time></trkpt><trkpt lat="59.1029779706" lon="30.4785885382"><ele>53.01</ele><time>2026-08-20T12:59:06Z</time></trkpt><trkpt lat="59.1029738635" lon="30.4786342196"><ele>53.01</ele><time>2026-08-20T12:59:21Z</time></trkpt><trkpt lat="59.1029453650" lon="30.4787105788"><ele>53.01</ele><time>2026-08-20T12:59:38Z</time></trkpt><trkpt lat="59.1029389948" lon="30.4788194597"><ele>53.01</ele><time>2026-08-20T12:59:52Z</time></trkpt><trkpt lat="59.1029238235" lon="30.4790457711"><ele>53.01</ele><time>2026-08-20T13:00:07Z</time></trkpt><trkpt lat="59.1029047128" lon="30.4790778738"><ele>49.65</ele><time>2026-08-20T13:00:17Z</time></trkpt><trkpt lat="59.1028982587" lon="30.4790769517"><ele>52.53</ele><time>2026-08-20T13:00:25Z</time></trkpt><trkpt lat="59.1028782260" lon="30.4791176878"><ele>53.49</ele><time>2026-08-20T13:00:54Z</time></trkpt><trkpt lat="59.1028879490" lon="30.4791477788"><ele>53.01</ele><time>2026-08-20T13:01:13Z</time></trkpt><trkpt lat="59.1028708499" lon="30.4792229645"><ele>53.01</ele><time>2026-08-20T13:01:26Z</time></trkpt><trkpt lat="59.1029051319" lon="30.4792828113"><ele>52.53</ele><time>2026-08-20T13:01:42Z</time></trkpt><trkpt lat="59.1029165313" lon="30.4793375451"><ele>52.53</ele><time>2026-08-20T13:01:54Z</time></trkpt><trkpt lat="59.1028862726" lon="30.4794272315"><ele>52.53</ele><time>2026-08-20T13:02:06Z</time></trkpt><trkpt lat="59.1029048804" lon="30.4794659559"><ele>52.53</ele><time>2026-08-20T13:02:17Z</time></trkpt><trkpt lat="59.1029104963" lon="30.4796110466"><ele>52.53</ele><time>2026-08-20T13:02:32Z</time></trkpt><trkpt lat="59.1029120050" lon="30.4796748329"><ele>52.53</ele><time>2026-08-20T13:02:46Z</time></trkpt><trkpt lat="59.1029415093" lon="30.4798223544"><ele>52.05</ele><time>2026-08-20T13:02:57Z</time></trkpt><trkpt lat="59.1029597819" lon="30.4799648467"><ele>52.05</ele><time>2026-08-20T13:03:09Z</time></trkpt><trkpt lat="59.1029484663" lon="30.4800902400"><ele>52.05</ele><time>2026-08-20T13:03:21Z</time></trkpt><trkpt lat="59.1029547527" lon="30.4802107718"><ele>52.05</ele><time>2026-08-20T13:03:37Z</time></trkpt><trkpt lat="59.1029814072" lon="30.4802303854"><ele>52.05</ele><time>2026-08-20T13:03:48Z</time></trkpt><trkpt lat="59.1030430980" lon="30.4803054035"><ele>52.05</ele><time>2026-08-20T13:04:00Z</time></trkpt><trkpt lat="59.1030978318" lon="30.4804074951"><ele>51.57</ele><time>2026-08-20T13:04:16Z</time></trkpt><trkpt lat="59.1031201277" lon="30.4804563615"><ele>51.09</ele><time>2026-08-20T13:04:31Z</time></trkpt><trkpt lat="59.1031520627" lon="30.4805855267"><ele>51.09</ele><time>2026-08-20T13:04:41Z</time></trkpt><trkpt lat="59.1032127477" lon="30.4806690104"><ele>51.09</ele><time>2026-08-20T13:04:54Z</time></trkpt><trkpt lat="59.1032581776" lon="30.4807524104"><ele>51.09</ele><time>2026-08-20T13:05:05Z</time></trkpt><trkpt lat="59.1033004224" lon="30.4808368161"><ele>51.09</ele><time>2026-08-20T13:05:20Z</time></trkpt><trkpt lat="59.1032927111" lon="30.4808427673"><ele>51.09</ele><time>2026-08-20T13:05:41Z</time></trkpt><trkpt lat="59.1032920405" lon="30.4809229821"><ele>51.09</ele><time>2026-08-20T13:05:56Z</time></trkpt><trkpt lat="59.1033068765" lon="30.4810368922"><ele>50.61</ele><time>2026-08-20T13:06:06Z</time></trkpt><trkpt lat="59.1033074632" lon="30.4811948910"><ele>50.61</ele><time>2026-08-20T13:06:14Z</time></trkpt><trkpt lat="59.1032262426" lon="30.4813574161"><ele>50.61</ele><time>2026-08-20T13:06:26Z</time></trkpt><trkpt lat="59.1031468660" lon="30.4813770298"><ele>50.61</ele><time>2026-08-20T13:06:40Z</time></trkpt><trkpt lat="59.1031086445" lon="30.4814061988"><ele>50.61</ele><time>2026-08-20T13:06:52Z</time></trkpt><trkpt lat="59.1030411702" lon="30.4814567417"><ele>50.61</ele><time>2026-08-20T13:07:02Z</time></trkpt><trkpt lat="59.1030400805" lon="30.4814938735"><ele>50.61</ele><time>2026-08-20T13:07:13Z</time></trkpt><trkpt lat="59.1030052118" lon="30.4814912751"><ele>50.13</ele><time>2026-08-20T13:07:35Z</time></trkpt><trkpt lat="59.1030483786" lon="30.4814507067"><ele>50.13</ele><time>2026-08-20T13:08:10Z</time></trkpt><trkpt lat="59.1030734405" lon="30.4814661294"><ele>50.61</ele><time>2026-08-20T13:08:30Z</time></trkpt><trkpt lat="59.1030675732" lon="30.4814706556"><ele>50.61</ele><time>2026-08-20T13:08:53Z</time></trkpt><trkpt lat="59.1030652262" lon="30.4814704880"><ele>50.61</ele><time>2026-08-20T13:09:10Z</time></trkpt><trkpt lat="59.1030513961" lon="30.4814678058"><ele>50.61</ele><time>2026-08-20T13:09:32Z</time></trkpt><trkpt lat="59.1030354705" lon="30.4814805463"><ele>50.61</ele><time>2026-08-20T13:09:51Z</time></trkpt><trkpt lat="59.1030437686" lon="30.4814792052"><ele>50.61</ele><time>2026-08-20T13:10:18Z</time></trkpt><trkpt lat="59.1030473728" lon="30.4814859107"><ele>50.61</ele><time>2026-08-20T13:10:42Z</time></trkpt><trkpt lat="59.1030674893" lon="30.4814217053"><ele>50.61</ele><time>2026-08-20T13:11:06Z</time></trkpt><trkpt lat="59.1030404996" lon="30.4815087095"><ele>50.61</ele><time>2026-08-20T13:11:26Z</time></trkpt><trkpt lat="59.1030363925" lon="30.4814626928"><ele>50.61</ele><time>2026-08-20T13:11:48Z</time></trkpt><trkpt lat="59.1030379012" lon="30.4814555682"><ele>50.61</ele><time>2026-08-20T13:12:13Z</time></trkpt><trkpt lat="59.1030773800" lon="30.4814814683"><ele>50.61</ele><time>2026-08-20T13:12:37Z</time></trkpt><trkpt lat="59.1030840017" lon="30.4815149121"><ele>51.09</ele><time>2026-08-20T13:13:01Z</time></trkpt><trkpt lat="59.1030860133" lon="30.4815097153"><ele>51.09</ele><time>2026-08-20T13:13:26Z</time></trkpt><trkpt lat="59.1030688304" lon="30.4813759401"><ele>51.09</ele><time>2026-08-20T13:13:48Z</time></trkpt><trkpt lat="59.1030629631" lon="30.4813707434"><ele>51.09</ele><time>2026-08-20T13:14:12Z</time></trkpt><trkpt lat="59.1030631308" lon="30.4813908599"><ele>51.09</ele><time>2026-08-20T13:14:30Z</time></trkpt><trkpt lat="59.1030627117" lon="30.4813955538"><ele>51.57</ele><time>2026-08-20T13:14:57Z</time></trkpt><trkpt lat="59.1030472890" lon="30.4813579191"><ele>51.57</ele><time>2026-08-20T13:15:29Z</time></trkpt><trkpt lat="59.1030064691" lon="30.4813023470"><ele>52.05</ele><time>2026-08-20T13:16:00Z</time></trkpt><trkpt lat="59.1030205507" lon="30.4813215416"><ele>52.05</ele><time>2026-08-20T13:16:29Z</time></trkpt><trkpt lat="59.1030266695" lon="30.4812960606"><ele>52.53</ele><time>2026-08-20T13:16:57Z</time></trkpt><trkpt lat="59.1030524019" lon="30.4815152474"><ele>52.53</ele><time>2026-08-20T13:17:14Z</time></trkpt><trkpt lat="59.1030513123" lon="30.4814809654"><ele>53.01</ele><time>2026-08-20T13:17:37Z</time></trkpt><trkpt lat="59.1031315271" lon="30.4814964719"><ele>53.49</ele><time>2026-08-20T13:18:00Z</time></trkpt><trkpt lat="59.1031981632" lon="30.4815198574"><ele>53.49</ele><time>2026-08-20T13:18:25Z</time></trkpt><trkpt lat="59.1031839978" lon="30.4815331846"><ele>53.97</ele><time>2026-08-20T13:18:40Z</time></trkpt><trkpt lat="59.1031288449" lon="30.4813129921"><ele>54.45</ele><time>2026-08-20T13:19:02Z</time></trkpt><trkpt lat="59.1030908749" lon="30.4809810687"><ele>54.45</ele><time>2026-08-20T13:19:18Z</time></trkpt><trkpt lat="59.1030592751" lon="30.4806401767"><ele>53.97</ele><time>2026-08-20T13:19:33Z</time></trkpt><trkpt lat="59.1030443553" lon="30.4813973978"><ele>54.45</ele><time>2026-08-20T13:19:49Z</time></trkpt><trkpt lat="59.1030382365" lon="30.4814466834"><ele>54.45</ele><time>2026-08-20T13:20:15Z</time></trkpt><trkpt lat="59.1030303575" lon="30.4814352840"><ele>54.45</ele><time>2026-08-20T13:20:44Z</time></trkpt><trkpt lat="59.1030128393" lon="30.4814209510"><ele>54.45</ele><time>2026-08-20T13:21:09Z</time></trkpt><trkpt lat="59.1030128393" lon="30.4814156704"><ele>54.45</ele><time>2026-08-20T13:21:35Z</time></trkpt><trkpt lat="59.1030197125" lon="30.4814305902"><ele>54.93</ele><time>2026-08-20T13:22:08Z</time></trkpt><trkpt lat="59.1030202154" lon="30.4814211186"><ele>54.93</ele><time>2026-08-20T13:22:31Z</time></trkpt><trkpt lat="59.1030276753" lon="30.4814040195"><ele>55.89</ele><time>2026-08-20T13:22:54Z</time></trkpt><trkpt lat="59.1030330397" lon="30.4813950509"><ele>55.89</ele><time>2026-08-20T13:23:26Z</time></trkpt><trkpt lat="59.1030417569" lon="30.4813935421"><ele>56.86</ele><time>2026-08-20T13:23:54Z</time></trkpt><trkpt lat="59.1030595265" lon="30.4813971464"><ele>57.34</ele><time>2026-08-20T13:24:23Z</time></trkpt><trkpt lat="59.1030758712" lon="30.4814025108"><ele>55.89</ele><time>2026-08-20T13:24:48Z</time></trkpt><trkpt lat="59.1030771285" lon="30.4814143293"><ele>55.89</ele><time>2026-08-20T13:25:16Z</time></trkpt><trkpt lat="59.1030784696" lon="30.4814058635"><ele>55.89</ele><time>2026-08-20T13:25:41Z</time></trkpt><trkpt lat="59.1030870192" lon="30.4814623576"><ele>55.89</ele><time>2026-08-20T13:26:06Z</time></trkpt><trkpt lat="59.1030866001" lon="30.4814873356"><ele>55.89</ele><time>2026-08-20T13:26:28Z</time></trkpt><trkpt lat="59.1030658130" lon="30.4813948832"><ele>56.37</ele><time>2026-08-20T13:26:51Z</time></trkpt><trkpt lat="59.1030492168" lon="30.4813709110"><ele>56.37</ele><time>2026-08-20T13:27:18Z</time></trkpt><trkpt lat="59.1030197963" lon="30.4813389760"><ele>56.37</ele><time>2026-08-20T13:27:44Z</time></trkpt><trkpt lat="59.1030115820" lon="30.4813989904"><ele>56.37</ele><time>2026-08-20T13:28:05Z</time></trkpt><trkpt lat="59.1030717641" lon="30.4814029299"><ele>56.37</ele><time>2026-08-20T13:28:24Z</time></trkpt><trkpt lat="59.1031102370" lon="30.4814012535"><ele>56.37</ele><time>2026-08-20T13:28:42Z</time></trkpt><trkpt lat="59.1031039506" lon="30.4814947955"><ele>56.37</ele><time>2026-08-20T13:28:58Z</time></trkpt><trkpt lat="59.1031015199" lon="30.4815011658"><ele>56.37</ele><time>2026-08-20T13:29:13Z</time></trkpt><trkpt lat="59.1030954849" lon="30.4816522915"><ele>56.37</ele><time>2026-08-20T13:29:30Z</time></trkpt><trkpt lat="59.1030886956" lon="30.4817146529"><ele>56.37</ele><time>2026-08-20T13:29:42Z</time></trkpt><trkpt lat="59.1030649748" lon="30.4818130564"><ele>56.37</ele><time>2026-08-20T13:29:53Z</time></trkpt><trkpt lat="59.1030488815" lon="30.4819418862"><ele>56.37</ele><time>2026-08-20T13:30:10Z</time></trkpt><trkpt lat="59.1030788049" lon="30.4821180739"><ele>56.37</ele><time>2026-08-20T13:30:24Z</time></trkpt><trkpt lat="59.1030597780" lon="30.4822126217"><ele>56.37</ele><time>2026-08-20T13:30:33Z</time></trkpt><trkpt lat="59.1030331235" lon="30.4823449720"><ele>55.89</ele><time>2026-08-20T13:30:43Z</time></trkpt><trkpt lat="59.1030436847" lon="30.4824407771"><ele>55.89</ele><time>2026-08-20T13:30:53Z</time></trkpt><trkpt lat="59.1030453611" lon="30.4825329781"><ele>55.89</ele><time>2026-08-20T13:31:06Z</time></trkpt><trkpt lat="59.1030037869" lon="30.4827236664"><ele>55.89</ele><time>2026-08-20T13:31:21Z</time></trkpt><trkpt lat="59.1029946506" lon="30.4827382509"><ele>55.89</ele><time>2026-08-20T13:31:22Z</time></trkpt><trkpt lat="59.1029804014" lon="30.4828721099"><ele>55.89</ele><time>2026-08-20T13:31:35Z</time></trkpt><trkpt lat="59.1029443592" lon="30.4829676636"><ele>55.89</ele><time>2026-08-20T13:31:49Z</time></trkpt><trkpt lat="59.1029617097" lon="30.4831166938"><ele>56.86</ele><time>2026-08-20T13:32:03Z</time></trkpt><trkpt lat="59.1029863525" lon="30.4832171928"><ele>56.86</ele><time>2026-08-20T13:32:16Z</time></trkpt><trkpt lat="59.1030617896" lon="30.4833550751"><ele>56.86</ele><time>2026-08-20T13:32:31Z</time></trkpt><trkpt lat="59.1031380650" lon="30.4835543130"><ele>56.37</ele><time>2026-08-20T13:32:48Z</time></trkpt><trkpt lat="59.1031648871" lon="30.4836013354"><ele>56.37</ele><time>2026-08-20T13:33:06Z</time></trkpt><trkpt lat="59.1032411624" lon="30.4836598411"><ele>56.37</ele><time>2026-08-20T13:33:33Z</time></trkpt><trkpt lat="59.1032632068" lon="30.4838567320"><ele>56.37</ele><time>2026-08-20T13:33:48Z</time></trkpt><trkpt lat="59.1032840777" lon="30.4840701353"><ele>56.37</ele><time>2026-08-20T13:34:00Z</time></trkpt><trkpt lat="59.1032926273" lon="30.4842136335"><ele>56.37</ele><time>2026-08-20T13:34:13Z</time></trkpt><trkpt lat="59.1032804735" lon="30.4843807686"><ele>56.37</ele><time>2026-08-20T13:34:26Z</time></trkpt><trkpt lat="59.1033003386" lon="30.4844563734"><ele>56.37</ele><time>2026-08-20T13:34:40Z</time></trkpt><trkpt lat="59.1033787932" lon="30.4844959360"><ele>56.37</ele><time>2026-08-20T13:34:53Z</time></trkpt><trkpt lat="59.1034801304" lon="30.4845329840"><ele>55.89</ele><time>2026-08-20T13:35:08Z</time></trkpt><trkpt lat="59.1035554837" lon="30.4845225904"><ele>55.89</ele><time>2026-08-20T13:35:20Z</time></trkpt><trkpt lat="59.1036248859" lon="30.4845083412"><ele>55.89</ele><time>2026-08-20T13:35:34Z</time></trkpt><trkpt lat="59.1036630236" lon="30.4844956007"><ele>55.89</ele><time>2026-08-20T13:35:48Z</time></trkpt><trkpt lat="59.1038106289" lon="30.4844775796"><ele>55.41</ele><time>2026-08-20T13:36:04Z</time></trkpt><trkpt lat="59.1038824618" lon="30.4844906554"><ele>55.41</ele><time>2026-08-20T13:36:17Z</time></trkpt><trkpt lat="59.1039914265" lon="30.4844663478"><ele>55.41</ele><time>2026-08-20T13:36:32Z</time></trkpt><trkpt lat="59.1040765028" lon="30.4844418727"><ele>55.41</ele><time>2026-08-20T13:36:47Z</time></trkpt><trkpt lat="59.1042566299" lon="30.4843730573"><ele>55.89</ele><time>2026-08-20T13:37:02Z</time></trkpt><trkpt lat="59.1044210829" lon="30.4843916651"><ele>55.89</ele><time>2026-08-20T13:37:19Z</time></trkpt><trkpt lat="59.1044463124" lon="30.4843489174"><ele>55.41</ele><time>2026-08-20T13:37:32Z</time></trkpt><trkpt lat="59.1045266110" lon="30.4843441397"><ele>55.41</ele><time>2026-08-20T13:37:46Z</time></trkpt><trkpt lat="59.1045704484" lon="30.4843768291"><ele>55.41</ele><time>2026-08-20T13:38:04Z</time></trkpt><trkpt lat="59.1046142858" lon="30.4844261147"><ele>55.41</ele><time>2026-08-20T13:38:20Z</time></trkpt><trkpt lat="59.1047245916" lon="30.4844215885"><ele>55.41</ele><time>2026-08-20T13:38:33Z</time></trkpt><trkpt lat="59.1048650723" lon="30.4843824450"><ele>55.41</ele><time>2026-08-20T13:38:47Z</time></trkpt><trkpt lat="59.1049959138" lon="30.4843658488"><ele>55.41</ele><time>2026-08-20T13:39:03Z</time></trkpt><trkpt lat="59.1051332932" lon="30.4843388591"><ele>55.41</ele><time>2026-08-20T13:39:21Z</time></trkpt><trkpt lat="59.1052549984" lon="30.4843118694"><ele>55.41</ele><time>2026-08-20T13:39:35Z</time></trkpt><trkpt lat="59.1053155996" lon="30.4842803534"><ele>55.41</ele><time>2026-08-20T13:39:48Z</time></trkpt><trkpt lat="59.1053589340" lon="30.4842795990"><ele>55.41</ele><time>2026-08-20T13:39:57Z</time></trkpt><trkpt lat="59.1054417472" lon="30.4842841253"><ele>54.93</ele><time>2026-08-20T13:40:07Z</time></trkpt><trkpt lat="59.1054758616" lon="30.4842830356"><ele>54.93</ele><time>2026-08-20T13:40:12Z</time></trkpt><trkpt lat="59.1055366304" lon="30.4842915852"><ele>54.93</ele><time>2026-08-20T13:40:19Z</time></trkpt><trkpt lat="59.1056464333" lon="30.4842881486"><ele>54.93</ele><time>2026-08-20T13:40:29Z</time></trkpt><trkpt lat="59.1057465971" lon="30.4842723906"><ele>54.93</ele><time>2026-08-20T13:40:41Z</time></trkpt><trkpt lat="59.1058522090" lon="30.4842934292"><ele>54.93</ele><time>2026-08-20T13:40:55Z</time></trkpt><trkpt lat="59.1058765166" lon="30.4843042418"><ele>54.93</ele><time>2026-08-20T13:40:59Z</time></trkpt><trkpt lat="59.1060141474" lon="30.4843123723"><ele>54.93</ele><time>2026-08-20T13:41:14Z</time></trkpt><trkpt lat="59.1061271355" lon="30.4843122046"><ele>54.93</ele><time>2026-08-20T13:41:25Z</time></trkpt><trkpt lat="59.1062430572" lon="30.4843086004"><ele>54.45</ele><time>2026-08-20T13:41:38Z</time></trkpt><trkpt lat="59.1063567996" lon="30.4842604045"><ele>54.45</ele><time>2026-08-20T13:41:51Z</time></trkpt><trkpt lat="59.1064914968" lon="30.4842358455"><ele>54.45</ele><time>2026-08-20T13:42:05Z</time></trkpt><trkpt lat="59.1065883078" lon="30.4842367675"><ele>54.45</ele><time>2026-08-20T13:42:16Z</time></trkpt><trkpt lat="59.1066944227" lon="30.4842982069"><ele>54.45</ele><time>2026-08-20T13:42:28Z</time></trkpt><trkpt lat="59.1067843605" lon="30.4842824489"><ele>54.45</ele><time>2026-08-20T13:42:43Z</time></trkpt><trkpt lat="59.1069246735" lon="30.4842720553"><ele>54.45</ele><time>2026-08-20T13:43:00Z</time></trkpt><trkpt lat="59.1070252564" lon="30.4842595663"><ele>54.45</ele><time>2026-08-20T13:43:13Z</time></trkpt><trkpt lat="59.1071234923" lon="30.4842464905"><ele>54.45</ele><time>2026-08-20T13:43:28Z</time></trkpt><trkpt lat="59.1071801540" lon="30.4841975402"><ele>54.93</ele><time>2026-08-20T13:43:42Z</time></trkpt><trkpt lat="59.1072836705" lon="30.4841383640"><ele>54.93</ele><time>2026-08-20T13:43:56Z</time></trkpt><trkpt lat="59.1073828284" lon="30.4840895813"><ele>54.93</ele><time>2026-08-20T13:44:11Z</time></trkpt><trkpt lat="59.1075058747" lon="30.4838766810"><ele>55.41</ele><time>2026-08-20T13:44:26Z</time></trkpt><trkpt lat="59.1075424198" lon="30.4839109629"><ele>55.41</ele><time>2026-08-20T13:44:51Z</time></trkpt><trkpt lat="59.1075827368" lon="30.4838855658"><ele>55.89</ele><time>2026-08-20T13:45:03Z</time></trkpt><trkpt lat="59.1076559108" lon="30.4838189296"><ele>55.89</ele><time>2026-08-20T13:45:15Z</time></trkpt><trkpt lat="59.1077216249" lon="30.4838212766"><ele>55.89</ele><time>2026-08-20T13:45:25Z</time></trkpt><trkpt lat="59.1077569965" lon="30.4838102963"><ele>55.89</ele><time>2026-08-20T13:45:34Z</time></trkpt><trkpt lat="59.1078015044" lon="30.4837628547"><ele>55.89</ele><time>2026-08-20T13:45:56Z</time></trkpt><trkpt lat="59.1078154184" lon="30.4837442469"><ele>55.89</ele><time>2026-08-20T13:46:18Z</time></trkpt><trkpt lat="59.1078179330" lon="30.4837490246"><ele>55.89</ele><time>2026-08-20T13:46:33Z</time></trkpt><trkpt lat="59.1078340262" lon="30.4837464262"><ele>55.89</ele><time>2026-08-20T13:46:40Z</time></trkpt><trkpt lat="59.1079156660" lon="30.4837977234"><ele>55.89</ele><time>2026-08-20T13:46:52Z</time></trkpt><trkpt lat="59.1079841461" lon="30.4837926943"><ele>55.89</ele><time>2026-08-20T13:47:03Z</time></trkpt><trkpt lat="59.1080705635" lon="30.4837670457"><ele>55.89</ele><time>2026-08-20T13:47:15Z</time></trkpt><trkpt lat="59.1081268061" lon="30.4837585799"><ele>55.89</ele><time>2026-08-20T13:47:25Z</time></trkpt><trkpt lat="59.1081833001" lon="30.4837481026"><ele>55.89</ele><time>2026-08-20T13:47:35Z</time></trkpt><trkpt lat="59.1082324181" lon="30.4837424029"><ele>55.89</ele><time>2026-08-20T13:47:46Z</time></trkpt><trkpt lat="59.1082641855" lon="30.4837233759"><ele>55.89</ele><time>2026-08-20T13:47:57Z</time></trkpt><trkpt lat="59.1082862299" lon="30.4837247171"><ele>55.89</ele><time>2026-08-20T13:48:03Z</time></trkpt><trkpt lat="59.1083835438" lon="30.4837294947"><ele>55.89</ele><time>2026-08-20T13:48:13Z</time></trkpt><trkpt lat="59.1084615793" lon="30.4837336019"><ele>55.41</ele><time>2026-08-20T13:48:25Z</time></trkpt><trkpt lat="59.1085272096" lon="30.4837868270"><ele>55.41</ele><time>2026-08-20T13:48:35Z</time></trkpt><trkpt lat="59.1086089332" lon="30.4837629385"><ele>55.41</ele><time>2026-08-20T13:48:55Z</time></trkpt><trkpt lat="59.1087254416" lon="30.4836947098"><ele>54.93</ele><time>2026-08-20T13:49:08Z</time></trkpt><trkpt lat="59.1088432912" lon="30.4836304206"><ele>55.41</ele><time>2026-08-20T13:49:20Z</time></trkpt><trkpt lat="59.1089833528" lon="30.4835536424"><ele>55.41</ele><time>2026-08-20T13:49:31Z</time></trkpt><trkpt lat="59.1090641543" lon="30.4835060332"><ele>55.41</ele><time>2026-08-20T13:49:41Z</time></trkpt><trkpt lat="59.1091118474" lon="30.4835340288"><ele>55.41</ele><time>2026-08-20T13:49:56Z</time></trkpt><trkpt lat="59.1091552656" lon="30.4835090507"><ele>55.41</ele><time>2026-08-20T13:50:08Z</time></trkpt><trkpt lat="59.1092098318" lon="30.4834765289"><ele>55.41</ele><time>2026-08-20T13:50:18Z</time></trkpt><trkpt lat="59.1092685889" lon="30.4834521376"><ele>55.41</ele><time>2026-08-20T13:50:32Z</time></trkpt><trkpt lat="59.1092692595" lon="30.4834231362"><ele>55.41</ele><time>2026-08-20T13:50:36Z</time></trkpt><trkpt lat="59.1093172878" lon="30.4833440110"><ele>55.41</ele><time>2026-08-20T13:50:50Z</time></trkpt><trkpt lat="59.1092927288" lon="30.4831755348"><ele>55.41</ele><time>2026-08-20T13:51:00Z</time></trkpt><trkpt lat="59.1093096603" lon="30.4830729403"><ele>55.41</ele><time>2026-08-20T13:51:09Z</time></trkpt><trkpt lat="59.1093338840" lon="30.4830649775"><ele>55.41</ele><time>2026-08-20T13:51:12Z</time></trkpt><trkpt lat="59.1094327904" lon="30.4830258340"><ele>55.41</ele><time>2026-08-20T13:51:23Z</time></trkpt><trkpt lat="59.1094982531" lon="30.4830002692"><ele>54.93</ele><time>2026-08-20T13:51:35Z</time></trkpt><trkpt lat="59.1095030308" lon="30.4829853494"><ele>55.41</ele><time>2026-08-20T13:51:53Z</time></trkpt><trkpt lat="59.1095140949" lon="30.4829876963"><ele>55.41</ele><time>2026-08-20T13:52:06Z</time></trkpt><trkpt lat="59.1095228121" lon="30.4829929769"><ele>55.41</ele><time>2026-08-20T13:52:21Z</time></trkpt><trkpt lat="59.1095303558" lon="30.4829830024"><ele>55.41</ele><time>2026-08-20T13:52:34Z</time></trkpt><trkpt lat="59.1095229797" lon="30.4829775542"><ele>55.41</ele><time>2026-08-20T13:52:52Z</time></trkpt><trkpt lat="59.1095214710" lon="30.4829622153"><ele>55.89</ele><time>2026-08-20T13:53:08Z</time></trkpt><trkpt lat="59.1095295176" lon="30.4829664063"><ele>55.89</ele><time>2026-08-20T13:53:28Z</time></trkpt><trkpt lat="59.1095285118" lon="30.4829603713"><ele>56.37</ele><time>2026-08-20T13:53:56Z</time></trkpt><trkpt lat="59.1095188726" lon="30.4829519056"><ele>56.37</ele><time>2026-08-20T13:54:12Z</time></trkpt><trkpt lat="59.1095092334" lon="30.4829638079"><ele>56.37</ele><time>2026-08-20T13:54:45Z</time></trkpt><trkpt lat="59.1095024440" lon="30.4829637241"><ele>56.86</ele><time>2026-08-20T13:55:12Z</time></trkpt><trkpt lat="59.1095137596" lon="30.4829656519"><ele>56.86</ele><time>2026-08-20T13:55:38Z</time></trkpt><trkpt lat="59.1095191240" lon="30.4829674959"><ele>56.86</ele><time>2026-08-20T13:55:57Z</time></trkpt><trkpt lat="59.1095197108" lon="30.4829752911"><ele>56.86</ele><time>2026-08-20T13:56:10Z</time></trkpt><trkpt lat="59.1095335409" lon="30.4829569347"><ele>58.78</ele><time>2026-08-20T13:56:24Z</time></trkpt><trkpt lat="59.1095400788" lon="30.4829395842"><ele>57.82</ele><time>2026-08-20T13:56:49Z</time></trkpt><trkpt lat="59.1095371451" lon="30.4829533305"><ele>57.34</ele><time>2026-08-20T13:57:16Z</time></trkpt><trkpt lat="59.1095355526" lon="30.4829545878"><ele>57.82</ele><time>2026-08-20T13:57:41Z</time></trkpt><trkpt lat="59.1095365584" lon="30.4829443619"><ele>57.82</ele><time>2026-08-20T13:57:57Z</time></trkpt><trkpt lat="59.1095317807" lon="30.4829492234"><ele>57.82</ele><time>2026-08-20T13:58:22Z</time></trkpt><trkpt lat="59.1095308587" lon="30.4829626344"><ele>57.82</ele><time>2026-08-20T13:58:53Z</time></trkpt><trkpt lat="59.1095288470" lon="30.4829597846"><ele>57.82</ele><time>2026-08-20T13:59:20Z</time></trkpt><trkpt lat="59.1095315292" lon="30.4829565156"><ele>57.82</ele><time>2026-08-20T13:59:40Z</time></trkpt><trkpt lat="59.1095360555" lon="30.4829524085"><ele>57.34</ele><time>2026-08-20T14:00:04Z</time></trkpt><trkpt lat="59.1095425095" lon="30.4829355609"><ele>57.34</ele><time>2026-08-20T14:00:30Z</time></trkpt><trkpt lat="59.1095519811" lon="30.4829822481"><ele>57.34</ele><time>2026-08-20T14:00:52Z</time></trkpt><trkpt lat="59.1095192079" lon="30.4830213077"><ele>57.34</ele><time>2026-08-20T14:01:06Z</time></trkpt><trkpt lat="59.1095268354" lon="30.4830115009"><ele>57.34</ele><time>2026-08-20T14:01:29Z</time></trkpt><trkpt lat="59.1095338762" lon="30.4830397479"><ele>57.34</ele><time>2026-08-20T14:01:41Z</time></trkpt><trkpt lat="59.1095500533" lon="30.4829809070"><ele>57.34</ele><time>2026-08-20T14:01:54Z</time></trkpt><trkpt lat="59.1095256619" lon="30.4829878639"><ele>57.34</ele><time>2026-08-20T14:02:00Z</time></trkpt><trkpt lat="59.1095136758" lon="30.4829563480"><ele>57.34</ele><time>2026-08-20T14:02:09Z</time></trkpt><trkpt lat="59.1095109936" lon="30.4829560965"><ele>57.34</ele><time>2026-08-20T14:02:10Z</time></trkpt><trkpt lat="59.1094909608" lon="30.4829731956"><ele>57.34</ele><time>2026-08-20T14:02:27Z</time></trkpt><trkpt lat="59.1094803996" lon="30.4829633050"><ele>57.34</ele><time>2026-08-20T14:02:44Z</time></trkpt><trkpt lat="59.1094842553" lon="30.4829815775"><ele>57.34</ele><time>2026-08-20T14:03:01Z</time></trkpt><trkpt lat="59.1094834171" lon="30.4829691723"><ele>57.34</ele><time>2026-08-20T14:03:13Z</time></trkpt><trkpt lat="59.1094949003" lon="30.4830300249"><ele>57.34</ele><time>2026-08-20T14:03:26Z</time></trkpt><trkpt lat="59.1095002647" lon="30.4830456991"><ele>57.34</ele><time>2026-08-20T14:03:55Z</time></trkpt><trkpt lat="59.1095011029" lon="30.4830470402"><ele>57.34</ele><time>2026-08-20T14:04:22Z</time></trkpt><trkpt lat="59.1094963253" lon="30.4830456991"><ele>57.34</ele><time>2026-08-20T14:04:47Z</time></trkpt><trkpt lat="59.1094955709" lon="30.4830445256"><ele>56.86</ele><time>2026-08-20T14:05:18Z</time></trkpt><trkpt lat="59.1094925534" lon="30.4830403347"><ele>56.37</ele><time>2026-08-20T14:05:53Z</time></trkpt><trkpt lat="59.1094902065" lon="30.4830426816"><ele>56.37</ele><time>2026-08-20T14:06:26Z</time></trkpt><trkpt lat="59.1094860155" lon="30.4830363113"><ele>56.37</ele><time>2026-08-20T14:07:02Z</time></trkpt><trkpt lat="59.1094825789" lon="30.4830308631"><ele>56.37</ele><time>2026-08-20T14:07:37Z</time></trkpt><trkpt lat="59.1094748676" lon="30.4830256663"><ele>56.37</ele><time>2026-08-20T14:08:09Z</time></trkpt><trkpt lat="59.1094673239" lon="30.4830241576"><ele>56.37</ele><time>2026-08-20T14:08:45Z</time></trkpt><trkpt lat="59.1094620433" lon="30.4830240738"><ele>55.89</ele><time>2026-08-20T14:09:25Z</time></trkpt><trkpt lat="59.1094596963" lon="30.4830167815"><ele>55.89</ele><time>2026-08-20T14:09:55Z</time></trkpt><trkpt lat="59.1094604507" lon="30.4830063879"><ele>55.89</ele><time>2026-08-20T14:10:27Z</time></trkpt><trkpt lat="59.1094547510" lon="30.4830047116"><ele>55.89</ele><time>2026-08-20T14:11:00Z</time></trkpt><trkpt lat="59.1094620433" lon="30.4830052145"><ele>55.89</ele><time>2026-08-20T14:11:35Z</time></trkpt><trkpt lat="59.1094645578" lon="30.4830059689"><ele>55.41</ele><time>2026-08-20T14:12:11Z</time></trkpt><trkpt lat="59.1094621271" lon="30.4830051307"><ele>55.41</ele><time>2026-08-20T14:12:48Z</time></trkpt><trkpt lat="59.1094618756" lon="30.4830089863"><ele>55.41</ele><time>2026-08-20T14:13:18Z</time></trkpt><trkpt lat="59.1094639711" lon="30.4830073938"><ele>55.41</ele><time>2026-08-20T14:13:54Z</time></trkpt><trkpt lat="59.1094577685" lon="30.4830042087"><ele>55.41</ele><time>2026-08-20T14:14:24Z</time></trkpt><trkpt lat="59.1094553377" lon="30.4829993472"><ele>55.41</ele><time>2026-08-20T14:14:55Z</time></trkpt><trkpt lat="59.1094603669" lon="30.4829881154"><ele>55.41</ele><time>2026-08-20T14:15:28Z</time></trkpt><trkpt lat="59.1094623785" lon="30.4829819966"><ele>55.41</ele><time>2026-08-20T14:16:01Z</time></trkpt><trkpt lat="59.1094591096" lon="30.4829722736"><ele>56.37</ele><time>2026-08-20T14:16:34Z</time></trkpt><trkpt lat="59.1094669886" lon="30.4829629697"><ele>55.89</ele><time>2026-08-20T14:17:12Z</time></trkpt><trkpt lat="59.1094658151" lon="30.4829531629"><ele>55.89</ele><time>2026-08-20T14:17:47Z</time></trkpt><trkpt lat="59.1094714310" lon="30.4829474632"><ele>55.89</ele><time>2026-08-20T14:18:26Z</time></trkpt><trkpt lat="59.1094709281" lon="30.4829516541"><ele>55.89</ele><time>2026-08-20T14:18:57Z</time></trkpt><trkpt lat="59.1094695870" lon="30.4829461221"><ele>55.89</ele><time>2026-08-20T14:19:29Z</time></trkpt><trkpt lat="59.1094663180" lon="30.4829412606"><ele>55.89</ele><time>2026-08-20T14:20:07Z</time></trkpt><trkpt lat="59.1094668210" lon="30.4829480499"><ele>55.89</ele><time>2026-08-20T14:20:40Z</time></trkpt><trkpt lat="59.1094612051" lon="30.4829457868"><ele>55.89</ele><time>2026-08-20T14:21:18Z</time></trkpt><trkpt lat="59.1094743647" lon="30.4829206411"><ele>55.89</ele><time>2026-08-20T14:21:50Z</time></trkpt><trkpt lat="59.1094802320" lon="30.4829117563"><ele>55.89</ele><time>2026-08-20T14:22:22Z</time></trkpt><trkpt lat="59.1094795614" lon="30.4829020333"><ele>55.89</ele><time>2026-08-20T14:22:51Z</time></trkpt><trkpt lat="59.1094746161" lon="30.4828993510"><ele>55.89</ele><time>2026-08-20T14:23:23Z</time></trkpt><trkpt lat="59.1094721016" lon="30.4828908853"><ele>55.89</ele><time>2026-08-20T14:23:52Z</time></trkpt><trkpt lat="59.1094645578" lon="30.4828587826"><ele>55.89</ele><time>2026-08-20T14:24:28Z</time></trkpt><trkpt lat="59.1094591096" lon="30.4828524962"><ele>55.89</ele><time>2026-08-20T14:24:59Z</time></trkpt><trkpt lat="59.1094500571" lon="30.4828139395"><ele>55.89</ele><time>2026-08-20T14:25:29Z</time></trkpt><trkpt lat="59.1094460338" lon="30.4828159511"><ele>55.41</ele><time>2026-08-20T14:26:03Z</time></trkpt><trkpt lat="59.1094384063" lon="30.4828160349"><ele>55.41</ele><time>2026-08-20T14:26:40Z</time></trkpt><trkpt lat="59.1094358079" lon="30.4828075692"><ele>55.41</ele><time>2026-08-20T14:27:11Z</time></trkpt><trkpt lat="59.1094307788" lon="30.4827787355"><ele>55.41</ele><time>2026-08-20T14:27:39Z</time></trkpt><trkpt lat="59.1093783081" lon="30.4826343991"><ele>55.41</ele><time>2026-08-20T14:28:08Z</time></trkpt><trkpt lat="59.1093637235" lon="30.4826371651"><ele>55.41</ele><time>2026-08-20T14:28:40Z</time></trkpt><trkpt lat="59.1093635559" lon="30.4826403502"><ele>55.41</ele><time>2026-08-20T14:29:11Z</time></trkpt><trkpt lat="59.1093560960" lon="30.4826093372"><ele>55.41</ele><time>2026-08-20T14:29:47Z</time></trkpt><trkpt lat="59.1093518212" lon="30.4826204851"><ele>55.41</ele><time>2026-08-20T14:30:20Z</time></trkpt><trkpt lat="59.1093547549" lon="30.4826279450"><ele>55.41</ele><time>2026-08-20T14:30:50Z</time></trkpt><trkpt lat="59.1093488876" lon="30.4826086666"><ele>55.41</ele><time>2026-08-20T14:31:04Z</time></trkpt><trkpt lat="59.1094268393" lon="30.4827706050"><ele>56.37</ele><time>2026-08-20T14:31:24Z</time></trkpt><trkpt lat="59.1094327904" lon="30.4828111734"><ele>56.86</ele><time>2026-08-20T14:31:50Z</time></trkpt><trkpt lat="59.1094388254" lon="30.4828273505"><ele>56.86</ele><time>2026-08-20T14:32:09Z</time></trkpt></trkseg></trk></gpx>